Darstellungsparameter: Aktuell verwendete Einstellungen:
Skalierung der Graphiken ... ?
xyx+y,   Skalierungsfaktor:      Skalierung: Modus: x, Faktor: 1
Darstellungszeitraum ... ?
Vom - - bis: - -   Zeitraum: 25.06.2010 - 25.07.2010
Min/Max/Avg-Anzeige ... ?
Zeige MMA aktuell
Zeige MMA Monat
Zeige MMA alles
Zeige --A aktuell
Zeige --A Monat
Zeige --A alles
Keine MMA-Anzeige
MMA:
Average (ber die Originaldaten)
MMA-Basis: 25.06.2010 - 25.07.2010
Quicknavigation für Darstellung... ?
Tage:      1T, 2T, 3T, 5T -1T -2T -3T -5T +1T +2T +3T +5T
Wochen: 1W, 2W, 3W -1W -2W -3W +1W +2W +3W
Monate: 1M, 3M, 6M -1M -3M -6M +1M +3M +6M
Jahre:    1J, 3J, 5J, 10J -1J -3J -5J -10J +1J +3J +5J +10J
Nutze für die Darstellung ... ?
Originaldaten oder Mittelwerte auf ...
Stundenbasis Tagesbasis Wochenbasis
Monatsbasis Jahresbasis      Datenbasis: Original-Daten
Darstellen als:
Statistik (Auto) Statistik J:M      Darstellung:
Zur Graphik,    zurück zur Übersicht aller Sensoren.
 
Tabellarische Datenbersicht: ?
 
Sensor: Nr:Datum:Temp:Abs-Feuchte:Windchill:Wind:
Aussen-T/F 1 25-06-2010 00:09:04 20.6 C 7.87 g/m*3 20.6 C 0 km/h
2 25-06-2010 00:21:04 20.4 C 7.96 g/m*3 20.4 C 0 km/h
3 25-06-2010 00:33:04 20 C 7.95 g/m*3 20 C 0 km/h
4 25-06-2010 00:45:04 19.7 C 8.15 g/m*3 19.7 C 0 km/h
5 25-06-2010 00:57:04 19.5 C 8.22 g/m*3 19.5 C 0 km/h
6 25-06-2010 01:09:04 19.1 C 8.2 g/m*3 19.1 C 0 km/h
7 25-06-2010 01:21:04 19.1 C 8.2 g/m*3 19.1 C 0 km/h
8 25-06-2010 01:33:04 18.9 C 8.42 g/m*3 18.9 C 0 km/h
9 25-06-2010 01:45:04 18.6 C 8.44 g/m*3 18.6 C 0 km/h
10 25-06-2010 01:57:04 18.6 C 8.59 g/m*3 18.6 C 0 km/h
11 25-06-2010 02:09:04 18.3 C 8.76 g/m*3 18.3 C 0 km/h
12 25-06-2010 02:21:04 18.7 C 8.81 g/m*3 18.7 C 0 km/h
13 25-06-2010 02:33:04 18.7 C 8.81 g/m*3 18.7 C 0 km/h
14 25-06-2010 02:45:04 18.3 C 8.76 g/m*3 18.3 C 0 km/h
15 25-06-2010 02:57:04 18 C 8.75 g/m*3 18 C 0 km/h
16 25-06-2010 03:09:04 17.4 C 8.89 g/m*3 17.4 C 0 km/h
17 25-06-2010 03:21:04 17.2 C 9.08 g/m*3 17.2 C 0 km/h
18 25-06-2010 03:33:04 17 C 9.12 g/m*3 17 C 0 km/h
19 25-06-2010 03:45:04 16.9 C 9.21 g/m*3 16.9 C 0 km/h
20 25-06-2010 03:57:05 16.8 C 9.29 g/m*3 16.8 C 0 km/h
21 25-06-2010 04:09:05 17 C 9.26 g/m*3 17 C 0 km/h
22 25-06-2010 04:21:05 16.7 C 9.24 g/m*3 16.7 C 0 km/h
23 25-06-2010 04:33:05 16.6 C 9.32 g/m*3 16.6 C 0 km/h
24 25-06-2010 04:45:05 16.6 C 9.32 g/m*3 16.6 C 0 km/h
25 25-06-2010 04:57:05 16.7 C 9.38 g/m*3 16.7 C 0 km/h
Sensor: Nr:Datum:Temp:Abs-Feuchte:Windchill:Wind:
Aussen-T/F 26 25-06-2010 05:09:05 16.5 C 9.27 g/m*3 16.5 C 0 km/h
27 25-06-2010 05:21:05 16.2 C 9.38 g/m*3 16.2 C 0 km/h
28 25-06-2010 05:33:05 16 C 9.26 g/m*3 16 C 0 km/h
29 25-06-2010 05:45:05 16 C 9.4 g/m*3 16 C 0 km/h
30 25-06-2010 05:57:05 16.1 C 9.46 g/m*3 16.1 C 0 km/h
31 25-06-2010 06:09:05 16.2 C 9.52 g/m*3 16.2 C 0 km/h
32 25-06-2010 06:21:05 16.1 C 9.46 g/m*3 16.1 C 0 km/h
33 25-06-2010 06:33:05 16.3 C 9.57 g/m*3 16.3 C 0 km/h
34 25-06-2010 06:45:05 16.2 C 9.52 g/m*3 16.2 C 0 km/h
35 25-06-2010 06:57:05 16.3 C 9.57 g/m*3 16.3 C 0 km/h
36 25-06-2010 07:09:03 16.6 C 9.75 g/m*3 16.6 C 0 km/h
37 25-06-2010 07:21:03 16.7 C 9.66 g/m*3 16.7 C 0 km/h
38 25-06-2010 07:33:04 17.1 C 9.61 g/m*3 17.1 C 0 km/h
39 25-06-2010 07:45:02 17.5 C 9.69 g/m*3 17.5 C 0 km/h
40 25-06-2010 07:57:02 17.7 C 9.66 g/m*3 17.7 C 0 km/h
41 25-06-2010 08:09:02 18.1 C 9.73 g/m*3 18.1 C 0 km/h
42 25-06-2010 08:21:02 19 C 9.61 g/m*3 19 C 0 km/h
43 25-06-2010 08:33:02 19.4 C 9.34 g/m*3 19.4 C 0 km/h
44 25-06-2010 08:45:02 19.4 C 9.18 g/m*3 19.4 C 0 km/h
45 25-06-2010 08:57:02 19.3 C 9.12 g/m*3 19.3 C 0 km/h
46 25-06-2010 09:09:03 19.4 C 9.01 g/m*3 19.4 C 0 km/h
47 25-06-2010 09:21:02 20 C 8.99 g/m*3 20 C 0 km/h
48 25-06-2010 09:33:02 20.4 C 9.2 g/m*3 20.4 C 0 km/h
49 25-06-2010 09:45:01 20.6 C 9.13 g/m*3 20.6 C 0 km/h
50 25-06-2010 09:57:01 21.5 C 9.43 g/m*3 21.5 C 0 km/h
Sensor: Nr:Datum:Temp:Abs-Feuchte:Windchill:Wind:
Aussen-T/F 51 25-06-2010 10:09:02 21.8 C 9.02 g/m*3 21.8 C 0 km/h
52 25-06-2010 10:21:01 22.4 C 8.94 g/m*3 22.4 C 0 km/h
53 25-06-2010 10:33:02 22.7 C 8.69 g/m*3 22.7 C 0 km/h
54 25-06-2010 10:45:01 22.9 C 8.58 g/m*3 22.9 C 0 km/h
55 25-06-2010 10:57:01 23.1 C 8.48 g/m*3 23.1 C 0 km/h
56 25-06-2010 11:09:02 23.5 C 8.25 g/m*3 23.5 C 0 km/h
57 25-06-2010 11:21:01 23.6 C 8.29 g/m*3 23.6 C 0 km/h
58 25-06-2010 11:33:02 24 C 8.27 g/m*3 24 C 0 km/h
59 25-06-2010 11:45:01 24.2 C 8.14 g/m*3 24.2 C 0 km/h
60 25-06-2010 11:57:01 26.3 C 8.17 g/m*3 26.3 C 0 km/h
61 25-06-2010 12:09:02 26.2 C 7.88 g/m*3 26.2 C 0 km/h
62 25-06-2010 12:21:02 27.4 C 8.16 g/m*3 27.4 C 0 km/h
63 25-06-2010 12:33:01 27.9 C 7.57 g/m*3 27.9 C 0 km/h
64 25-06-2010 12:45:02 28.9 C 8 g/m*3 28.9 C 0 km/h
65 25-06-2010 12:57:02 28.2 C 7.42 g/m*3 28.2 C 0 km/h
66 25-06-2010 13:09:01 29.1 C 7.51 g/m*3 29.1 C 0 km/h
67 25-06-2010 13:21:02 29.1 C 7.22 g/m*3 29.1 C 0 km/h
68 25-06-2010 13:33:01 29.3 C 7.3 g/m*3 29.3 C 0 km/h
69 25-06-2010 13:45:03 29 C 7.18 g/m*3 29 C 0 km/h
70 25-06-2010 13:57:03 28.7 C 7.06 g/m*3 28.7 C 0 km/h
71 25-06-2010 14:09:02 29.4 C 7.05 g/m*3 29.4 C 0 km/h
72 25-06-2010 14:21:02 28.6 C 7.03 g/m*3 28.6 C 0 km/h
73 25-06-2010 14:33:03 28.4 C 6.95 g/m*3 28.4 C 0 km/h
74 25-06-2010 14:45:02 28.9 C 7.14 g/m*3 28.9 C 0 km/h
75 25-06-2010 14:57:03 28.9 C 6.57 g/m*3 28.9 C 0 km/h
Sensor: Nr:Datum:Temp:Abs-Feuchte:Windchill:Wind:
Aussen-T/F 76 25-06-2010 15:09:01 28.9 C 6.57 g/m*3 28.9 C 0 km/h
77 25-06-2010 15:21:02 29.4 C 6.46 g/m*3 29.4 C 0 km/h
78 25-06-2010 15:33:02 29.2 C 6.97 g/m*3 29.2 C 0 km/h
79 25-06-2010 15:45:01 30.2 C 6.13 g/m*3 30.2 C 0 km/h
80 25-06-2010 15:57:01 30.3 C 6.16 g/m*3 30.3 C 0 km/h
81 25-06-2010 16:09:02 29.6 C 5.94 g/m*3 29.6 C 0 km/h
82 25-06-2010 16:21:01 30.3 C 6.16 g/m*3 30.3 C 0 km/h
83 25-06-2010 16:33:01 30.7 C 6.3 g/m*3 30.7 C 0 km/h
84 25-06-2010 16:45:02 30.4 C 6.2 g/m*3 30.4 C 0 km/h
85 25-06-2010 16:57:02 30.2 C 6.13 g/m*3 30.2 C 0 km/h
86 25-06-2010 17:09:02 30.8 C 6.33 g/m*3 30.8 C 0 km/h
87 25-06-2010 17:21:01 30.8 C 6.33 g/m*3 30.8 C 0 km/h
88 25-06-2010 17:33:02 31.2 C 6.47 g/m*3 31.2 C 0 km/h
89 25-06-2010 17:45:02 30.6 C 6.26 g/m*3 30.6 C 0 km/h
90 25-06-2010 17:57:02 30.1 C 6.1 g/m*3 30.1 C 0 km/h
91 25-06-2010 18:09:02 30.4 C 6.2 g/m*3 30.4 C 0 km/h
92 25-06-2010 18:21:01 30.8 C 6.33 g/m*3 30.8 C 0 km/h
93 25-06-2010 18:33:02 31.1 C 6.43 g/m*3 31.1 C 0 km/h
94 25-06-2010 18:45:02 30.7 C 6.3 g/m*3 30.7 C 0 km/h
95 25-06-2010 18:57:02 30.7 C 6.3 g/m*3 30.7 C 0 km/h
96 25-06-2010 19:09:02 30.7 C 6.3 g/m*3 30.7 C 0 km/h
97 25-06-2010 19:21:02 30.7 C 6.3 g/m*3 30.7 C 0 km/h
98 25-06-2010 19:33:02 30 C 6.06 g/m*3 30 C 0 km/h
99 25-06-2010 19:45:02 29.9 C 6.03 g/m*3 29.9 C 0 km/h
100 25-06-2010 19:57:02 29.7 C 6.27 g/m*3 29.7 C 0 km/h
Sensor: Nr:Datum:Temp:Abs-Feuchte:Windchill:Wind:
Aussen-T/F 101 25-06-2010 20:09:03 29.7 C 6.27 g/m*3 29.7 C 0 km/h
102 25-06-2010 20:21:02 28.5 C 5.59 g/m*3 28.5 C 0 km/h
103 25-06-2010 20:33:03 28 C 5.71 g/m*3 28 C 0 km/h
104 25-06-2010 20:45:02 27.8 C 6.19 g/m*3 27.8 C 0 km/h
105 25-06-2010 20:57:02 27.2 C 6.25 g/m*3 27.2 C 0 km/h
106 25-06-2010 21:09:02 26.3 C 6.44 g/m*3 26.3 C 0 km/h
107 25-06-2010 21:21:02 25.8 C 7.22 g/m*3 25.8 C 0 km/h
108 25-06-2010 21:33:02 24.9 C 7.1 g/m*3 24.9 C 0 km/h
109 25-06-2010 21:45:02 24.1 C 7.22 g/m*3 24.1 C 0 km/h
110 25-06-2010 21:57:02 23.8 C 7.31 g/m*3 23.8 C 0 km/h
111 25-06-2010 22:09:02 23.3 C 7.32 g/m*3 23.3 C 0 km/h
112 25-06-2010 22:21:01 23 C 7.4 g/m*3 23 C 0 km/h
113 25-06-2010 22:33:01 22.7 C 7.48 g/m*3 22.7 C 0 km/h
114 25-06-2010 22:45:01 22.2 C 7.46 g/m*3 22.2 C 0 km/h
115 25-06-2010 22:57:01 22 C 7.57 g/m*3 22 C 0 km/h
116 25-06-2010 23:09:01 21.5 C 7.54 g/m*3 21.5 C 0 km/h
117 25-06-2010 23:21:01 21.4 C 7.69 g/m*3 21.4 C 0 km/h
118 25-06-2010 23:33:01 21 C 7.51 g/m*3 21 C 0 km/h
119 25-06-2010 23:45:01 20.8 C 8.15 g/m*3 20.8 C 0 km/h
120 25-06-2010 23:57:01 20.5 C 8.01 g/m*3 20.5 C 0 km/h
121 26-06-2010 00:09:01 20.3 C 8.09 g/m*3 20.3 C 0 km/h
122 26-06-2010 00:21:01 20.2 C 8.04 g/m*3 20.2 C 0 km/h
123 26-06-2010 00:33:02 19.7 C 8.15 g/m*3 19.7 C 0 km/h
124 26-06-2010 00:45:02 19.3 C 8.29 g/m*3 19.3 C 0 km/h
125 26-06-2010 00:57:02 18.9 C 8.26 g/m*3 18.9 C 0 km/h
Sensor: Nr:Datum:Temp:Abs-Feuchte:Windchill:Wind:
Aussen-T/F 126 26-06-2010 01:09:02 18.7 C 8.33 g/m*3 18.7 C 0 km/h
127 26-06-2010 01:21:02 18.9 C 8.42 g/m*3 18.9 C 0 km/h
128 26-06-2010 01:33:02 18.7 C 8.33 g/m*3 18.7 C 0 km/h
129 26-06-2010 01:45:02 18.5 C 8.23 g/m*3 18.5 C 0 km/h
130 26-06-2010 01:57:02 18.2 C 8.24 g/m*3 18.2 C 0 km/h
131 26-06-2010 02:09:02 17.9 C 8.55 g/m*3 17.9 C 0 km/h
132 26-06-2010 02:21:02 17.7 C 8.45 g/m*3 17.7 C 0 km/h
133 26-06-2010 02:33:02 17.4 C 8.6 g/m*3 17.4 C 0 km/h
134 26-06-2010 02:45:02 17.1 C 8.59 g/m*3 17.1 C 0 km/h
135 26-06-2010 02:57:02 17 C 8.54 g/m*3 17 C 0 km/h
136 26-06-2010 03:09:02 16.9 C 8.63 g/m*3 16.9 C 0 km/h
137 26-06-2010 03:21:02 16.5 C 8.57 g/m*3 16.5 C 0 km/h
138 26-06-2010 03:33:02 16.5 C 8.71 g/m*3 16.5 C 0 km/h
139 26-06-2010 03:45:02 16.3 C 8.74 g/m*3 16.3 C 0 km/h
140 26-06-2010 03:57:02 16.1 C 8.64 g/m*3 16.1 C 0 km/h
141 26-06-2010 04:09:02 15.9 C 8.8 g/m*3 15.9 C 0 km/h
142 26-06-2010 04:21:02 15.6 C 8.78 g/m*3 15.6 C 0 km/h
143 26-06-2010 04:33:03 15.5 C 8.86 g/m*3 15.5 C 0 km/h
144 26-06-2010 04:45:03 15.3 C 8.88 g/m*3 15.3 C 0 km/h
145 26-06-2010 04:57:03 15.2 C 8.83 g/m*3 15.2 C 0 km/h
146 26-06-2010 05:09:03 15 C 8.85 g/m*3 15 C 0 km/h
147 26-06-2010 05:21:03 14.8 C 8.87 g/m*3 14.8 C 0 km/h
148 26-06-2010 05:33:03 14.8 C 8.87 g/m*3 14.8 C 0 km/h
149 26-06-2010 05:45:03 14.7 C 9.07 g/m*3 14.7 C 0 km/h
150 26-06-2010 05:57:03 14.5 C 8.95 g/m*3 14.5 C 0 km/h
Sensor: Nr:Datum:Temp:Abs-Feuchte:Windchill:Wind:
Aussen-T/F 151 26-06-2010 06:09:03 14.4 C 9.15 g/m*3 14.4 C 0 km/h
152 26-06-2010 06:21:03 14.5 C 9.2 g/m*3 14.5 C 0 km/h
153 26-06-2010 06:33:03 14.7 C 9.19 g/m*3 14.7 C 0 km/h
154 26-06-2010 06:45:03 14.9 C 9.3 g/m*3 14.9 C 0 km/h
155 26-06-2010 06:57:03 15.2 C 9.22 g/m*3 15.2 C 0 km/h
156 26-06-2010 07:09:03 15.2 C 9.22 g/m*3 15.2 C 0 km/h
157 26-06-2010 07:21:03 15.3 C 9.27 g/m*3 15.3 C 0 km/h
158 26-06-2010 07:33:03 15.4 C 9.33 g/m*3 15.4 C 0 km/h
159 26-06-2010 07:45:03 15.4 C 9.33 g/m*3 15.4 C 0 km/h
160 26-06-2010 07:57:03 15.6 C 9.44 g/m*3 15.6 C 0 km/h
161 26-06-2010 08:09:03 15.8 C 9.42 g/m*3 15.8 C 0 km/h
162 26-06-2010 08:21:03 16.3 C 9.57 g/m*3 16.3 C 0 km/h
163 26-06-2010 08:33:03 16.8 C 9.72 g/m*3 16.8 C 0 km/h
164 26-06-2010 08:45:01 17.3 C 9.43 g/m*3 17.3 C 0 km/h
165 26-06-2010 08:57:01 17.8 C 9.41 g/m*3 17.8 C 0 km/h
166 26-06-2010 09:09:02 18.4 C 9.59 g/m*3 18.4 C 0 km/h
167 26-06-2010 09:21:01 18.9 C 9.72 g/m*3 18.9 C 0 km/h
168 26-06-2010 09:33:02 19.4 C 9.68 g/m*3 19.4 C 0 km/h
169 26-06-2010 09:45:01 20.2 C 9.44 g/m*3 20.2 C 0 km/h
170 26-06-2010 09:57:01 20.9 C 9.47 g/m*3 20.9 C 0 km/h
171 26-06-2010 10:09:02 21.8 C 9.4 g/m*3 21.8 C 0 km/h
172 26-06-2010 10:21:01 22.4 C 8.94 g/m*3 22.4 C 0 km/h
173 26-06-2010 10:33:01 23 C 9.04 g/m*3 23 C 0 km/h
174 26-06-2010 10:45:01 23.6 C 8.72 g/m*3 23.6 C 0 km/h
175 26-06-2010 10:57:01 24.3 C 8.19 g/m*3 24.3 C 0 km/h
Sensor: Nr:Datum:Temp:Abs-Feuchte:Windchill:Wind:
Aussen-T/F 176 26-06-2010 11:09:01 24.6 C 7.88 g/m*3 24.6 C 0 km/h
177 26-06-2010 11:21:02 25.8 C 7.7 g/m*3 25.8 C 0 km/h
178 26-06-2010 11:33:01 26.4 C 7.47 g/m*3 26.4 C 0 km/h
179 26-06-2010 11:45:01 26.8 C 6.62 g/m*3 26.8 C 0 km/h
180 26-06-2010 11:57:01 27.3 C 6.28 g/m*3 27.3 C 0 km/h
181 26-06-2010 12:09:01 27.8 C 6.72 g/m*3 27.8 C 0 km/h
182 26-06-2010 12:21:02 28.4 C 6.39 g/m*3 28.4 C 0 km/h
183 26-06-2010 12:33:01 29.6 C 6.53 g/m*3 29.6 C 0 km/h
184 26-06-2010 12:45:02 30.3 C 6.16 g/m*3 30.3 C 0 km/h
185 26-06-2010 12:57:02 30.9 C 6.37 g/m*3 30.9 C 0 km/h
186 26-06-2010 13:09:01 31.3 C 6.5 g/m*3 31.3 C 0 km/h
187 26-06-2010 13:21:02 30.5 C 6.23 g/m*3 30.5 C 0 km/h
188 26-06-2010 13:33:01 31 C 6.4 g/m*3 31 C 0 km/h
189 26-06-2010 13:45:02 31.8 C 6.68 g/m*3 31.8 C 0 km/h
190 26-06-2010 13:57:02 30.8 C 6.33 g/m*3 30.8 C 0 km/h
191 26-06-2010 14:09:02 30.6 C 6.26 g/m*3 30.6 C 0 km/h
192 26-06-2010 14:21:01 28.8 C 5.68 g/m*3 28.8 C 0 km/h
193 26-06-2010 14:33:01 29.7 C 5.97 g/m*3 29.7 C 0 km/h
194 26-06-2010 14:45:01 28.9 C 5.71 g/m*3 28.9 C 0 km/h
195 26-06-2010 14:57:01 29.6 C 5.94 g/m*3 29.6 C 0 km/h
196 26-06-2010 15:09:02 29.9 C 6.03 g/m*3 29.9 C 0 km/h
197 26-06-2010 15:21:01 30 C 6.06 g/m*3 30 C 0 km/h
198 26-06-2010 15:33:01 30 C 6.06 g/m*3 30 C 0 km/h
199 26-06-2010 15:45:01 31.5 C 6.57 g/m*3 31.5 C 0 km/h
200 26-06-2010 15:57:01 31.9 C 6.72 g/m*3 31.9 C 0 km/h
Sensor: Nr:Datum:Temp:Abs-Feuchte:Windchill:Wind:
Aussen-T/F 201 26-06-2010 16:09:01 32.1 C 6.79 g/m*3 32.1 C 0 km/h
202 26-06-2010 16:21:02 31.3 C 6.5 g/m*3 31.3 C 0 km/h
203 26-06-2010 16:33:01 31.4 C 6.54 g/m*3 31.4 C 0 km/h
204 26-06-2010 16:45:02 31.9 C 6.72 g/m*3 31.9 C 0 km/h
205 26-06-2010 16:57:02 31.5 C 6.57 g/m*3 31.5 C 0 km/h
206 26-06-2010 17:09:01 32.4 C 6.9 g/m*3 32.4 C 0 km/h
207 26-06-2010 17:21:02 32.5 C 6.93 g/m*3 32.5 C 0 km/h
208 26-06-2010 17:33:01 32.9 C 7.08 g/m*3 32.9 C 0 km/h
209 26-06-2010 17:45:02 33.1 C 7.16 g/m*3 33.1 C 0 km/h
210 26-06-2010 17:57:02 33.3 C 7.23 g/m*3 33.3 C 0 km/h
211 26-06-2010 18:09:01 33.1 C 7.16 g/m*3 33.1 C 0 km/h
212 26-06-2010 18:21:01 32.4 C 6.9 g/m*3 32.4 C 0 km/h
213 26-06-2010 18:33:03 31.4 C 6.54 g/m*3 31.4 C 0 km/h
214 26-06-2010 18:45:02 31.9 C 6.72 g/m*3 31.9 C 0 km/h
215 26-06-2010 18:57:02 31.4 C 6.54 g/m*3 31.4 C 0 km/h
216 26-06-2010 19:09:01 31.4 C 6.54 g/m*3 31.4 C 0 km/h
217 26-06-2010 19:21:01 31.3 C 6.5 g/m*3 31.3 C 0 km/h
218 26-06-2010 19:33:02 31.3 C 6.5 g/m*3 31.3 C 0 km/h
219 26-06-2010 19:45:01 31.2 C 6.47 g/m*3 31.2 C 0 km/h
220 26-06-2010 19:57:01 31 C 6.4 g/m*3 31 C 0 km/h
221 26-06-2010 20:09:02 30.7 C 6.3 g/m*3 30.7 C 0 km/h
222 26-06-2010 20:21:01 30.4 C 6.2 g/m*3 30.4 C 0 km/h
223 26-06-2010 20:33:02 30.4 C 6.2 g/m*3 30.4 C 0 km/h
224 26-06-2010 20:45:01 30.1 C 6.4 g/m*3 30.1 C 0 km/h
225 26-06-2010 20:57:01 29.1 C 7.22 g/m*3 29.1 C 0 km/h
Sensor: Nr:Datum:Temp:Abs-Feuchte:Windchill:Wind:
Aussen-T/F 226 26-06-2010 21:09:02 27.8 C 7.26 g/m*3 27.8 C 0 km/h
227 26-06-2010 21:21:01 26.4 C 6.97 g/m*3 26.4 C 0 km/h
228 26-06-2010 21:33:01 25.8 C 6.98 g/m*3 25.8 C 0 km/h
229 26-06-2010 21:45:01 25 C 6.91 g/m*3 25 C 0 km/h
230 26-06-2010 21:57:01 24.3 C 7.3 g/m*3 24.3 C 0 km/h
231 26-06-2010 22:09:02 24 C 6.74 g/m*3 24 C 0 km/h
232 26-06-2010 22:21:01 23.4 C 7.57 g/m*3 23.4 C 0 km/h
233 26-06-2010 22:33:02 23.2 C 7.48 g/m*3 23.2 C 0 km/h
234 26-06-2010 22:45:01 22.9 C 7.97 g/m*3 22.9 C 0 km/h
235 26-06-2010 22:57:01 22.3 C 7.9 g/m*3 22.3 C 0 km/h
236 26-06-2010 23:09:02 22.2 C 8.05 g/m*3 22.2 C 0 km/h
237 26-06-2010 23:21:01 21.8 C 8.06 g/m*3 21.8 C 0 km/h
238 26-06-2010 23:33:01 21.4 C 7.69 g/m*3 21.4 C 0 km/h
239 26-06-2010 23:45:01 21.4 C 7.87 g/m*3 21.4 C 0 km/h
240 26-06-2010 23:57:01 21 C 7.51 g/m*3 21 C 0 km/h
241 27-06-2010 00:09:01 20.7 C 7.74 g/m*3 20.7 C 0 km/h
242 27-06-2010 00:21:01 20.5 C 8.01 g/m*3 20.5 C 0 km/h
243 27-06-2010 00:33:02 20 C 7.95 g/m*3 20 C 0 km/h
244 27-06-2010 00:45:01 19.7 C 7.98 g/m*3 19.7 C 0 km/h
245 27-06-2010 00:57:01 19.5 C 8.06 g/m*3 19.5 C 0 km/h
246 27-06-2010 01:09:02 19.4 C 8.18 g/m*3 19.4 C 0 km/h
247 27-06-2010 01:21:01 18.9 C 8.26 g/m*3 18.9 C 0 km/h
248 27-06-2010 01:33:01 18.7 C 8.33 g/m*3 18.7 C 0 km/h
249 27-06-2010 01:45:01 18.5 C 8.39 g/m*3 18.5 C 0 km/h
250 27-06-2010 01:57:01 18.3 C 8.44 g/m*3 18.3 C 0 km/h
Sensor: Nr:Datum:Temp:Abs-Feuchte:Windchill:Wind:
Aussen-T/F 251 27-06-2010 02:09:01 18.1 C 8.34 g/m*3 18.1 C 0 km/h
252 27-06-2010 02:21:01 17.7 C 8.6 g/m*3 17.7 C 0 km/h
253 27-06-2010 02:33:01 17.5 C 8.65 g/m*3 17.5 C 0 km/h
254 27-06-2010 02:46:10 17.3 C 8.54 g/m*3 17.3 C 0 km/h
255 27-06-2010 02:58:10 17.2 C 8.79 g/m*3 17.2 C 0 km/h
256 27-06-2010 03:10:11 17 C 8.68 g/m*3 17 C 0 km/h
257 27-06-2010 03:22:11 16.9 C 8.77 g/m*3 16.9 C 0 km/h
258 27-06-2010 03:34:02 16.7 C 8.95 g/m*3 16.7 C 0 km/h
259 27-06-2010 03:46:02 16.4 C 8.79 g/m*3 16.4 C 0 km/h
260 27-06-2010 03:58:02 16.2 C 8.96 g/m*3 16.2 C 0 km/h
261 27-06-2010 04:10:02 16.1 C 8.77 g/m*3 16.1 C 0 km/h
262 27-06-2010 04:22:03 16 C 8.99 g/m*3 16 C 0 km/h
263 27-06-2010 04:34:03 15.8 C 8.88 g/m*3 15.8 C 0 km/h
264 27-06-2010 04:46:01 15.5 C 8.86 g/m*3 15.5 C 0 km/h
265 27-06-2010 04:58:02 15.4 C 8.93 g/m*3 15.4 C 0 km/h
266 27-06-2010 05:10:01 15.2 C 8.83 g/m*3 15.2 C 0 km/h
267 27-06-2010 05:22:01 15.1 C 8.77 g/m*3 15.1 C 0 km/h
268 27-06-2010 05:34:01 15.1 C 8.9 g/m*3 15.1 C 0 km/h
269 27-06-2010 05:46:02 14.9 C 9.05 g/m*3 14.9 C 0 km/h
270 27-06-2010 05:58:02 14.9 C 9.05 g/m*3 14.9 C 0 km/h
271 27-06-2010 06:10:02 14.9 C 9.05 g/m*3 14.9 C 0 km/h
272 27-06-2010 06:22:01 15 C 9.1 g/m*3 15 C 0 km/h
273 27-06-2010 06:34:02 15 C 9.1 g/m*3 15 C 0 km/h
274 27-06-2010 06:46:02 14.9 C 9.3 g/m*3 14.9 C 0 km/h
275 27-06-2010 06:58:02 14.9 C 9.43 g/m*3 14.9 C 0 km/h
Sensor: Nr:Datum:Temp:Abs-Feuchte:Windchill:Wind:
Aussen-T/F 276 27-06-2010 07:10:02 14.8 C 9.37 g/m*3 14.8 C 0 km/h
277 27-06-2010 07:22:01 15.1 C 9.29 g/m*3 15.1 C 0 km/h
278 27-06-2010 07:34:02 15.4 C 9.46 g/m*3 15.4 C 0 km/h
279 27-06-2010 07:46:01 15.6 C 9.31 g/m*3 15.6 C 0 km/h
280 27-06-2010 07:58:01 15.9 C 9.34 g/m*3 15.9 C 0 km/h
281 27-06-2010 08:10:02 16.2 C 9.38 g/m*3 16.2 C 0 km/h
282 27-06-2010 08:22:01 16.6 C 9.32 g/m*3 16.6 C 0 km/h
283 27-06-2010 08:34:01 16.9 C 9.21 g/m*3 16.9 C 0 km/h
284 27-06-2010 08:46:01 17.5 C 9.24 g/m*3 17.5 C 0 km/h
285 27-06-2010 08:58:01 18 C 9.06 g/m*3 18 C 0 km/h
286 27-06-2010 09:10:02 18.6 C 9.23 g/m*3 18.6 C 0 km/h
287 27-06-2010 09:22:02 19.5 C 9.4 g/m*3 19.5 C 0 km/h
288 27-06-2010 09:34:01 20.5 C 9.79 g/m*3 20.5 C 0 km/h
289 27-06-2010 09:46:02 21.3 C 9.32 g/m*3 21.3 C 0 km/h
290 27-06-2010 09:58:02 21.8 C 9.21 g/m*3 21.8 C 0 km/h
291 27-06-2010 10:10:01 22.5 C 9.19 g/m*3 22.5 C 0 km/h
292 27-06-2010 10:22:02 23.7 C 9.41 g/m*3 23.7 C 0 km/h
293 27-06-2010 10:34:01 24.4 C 8.9 g/m*3 24.4 C 0 km/h
294 27-06-2010 10:46:02 24.8 C 8.42 g/m*3 24.8 C 0 km/h
295 27-06-2010 10:58:02 25.4 C 8.48 g/m*3 25.4 C 0 km/h
296 27-06-2010 11:10:02 25.6 C 8.09 g/m*3 25.6 C 0 km/h
297 27-06-2010 11:22:02 26.1 C 7.83 g/m*3 26.1 C 0 km/h
298 27-06-2010 11:34:01 27.3 C 8.11 g/m*3 27.3 C 0 km/h
299 27-06-2010 11:46:02 28 C 7.61 g/m*3 28 C 0 km/h
300 27-06-2010 11:58:02 29.1 C 7.22 g/m*3 29.1 C 0 km/h
Sensor: Nr:Datum:Temp:Abs-Feuchte:Windchill:Wind:
Aussen-T/F 301 27-06-2010 12:10:01 29.8 C 6.6 g/m*3 29.8 C 0 km/h
302 27-06-2010 12:22:01 29.7 C 6.27 g/m*3 29.7 C 0 km/h
303 27-06-2010 12:34:01 30.7 C 6.3 g/m*3 30.7 C 0 km/h
304 27-06-2010 12:46:02 31.3 C 6.5 g/m*3 31.3 C 0 km/h
305 27-06-2010 12:58:02 31.4 C 6.54 g/m*3 31.4 C 0 km/h
306 27-06-2010 13:10:02 31.4 C 6.54 g/m*3 31.4 C 0 km/h
307 27-06-2010 13:22:02 32 C 6.75 g/m*3 32 C 0 km/h
308 27-06-2010 13:34:03 32.4 C 6.9 g/m*3 32.4 C 0 km/h
309 27-06-2010 13:46:02 32.2 C 6.82 g/m*3 32.2 C 0 km/h
310 27-06-2010 13:58:02 31.5 C 6.57 g/m*3 31.5 C 0 km/h
311 27-06-2010 14:10:02 31.4 C 6.54 g/m*3 31.4 C 0 km/h
312 27-06-2010 14:22:01 31.3 C 6.5 g/m*3 31.3 C 0 km/h
313 27-06-2010 14:34:02 31.3 C 6.5 g/m*3 31.3 C 0 km/h
314 27-06-2010 14:46:02 31.3 C 6.5 g/m*3 31.3 C 0 km/h
315 27-06-2010 14:58:02 31.4 C 6.54 g/m*3 31.4 C 0 km/h
316 27-06-2010 15:10:02 32 C 6.75 g/m*3 32 C 0 km/h
317 27-06-2010 15:22:01 32.4 C 6.9 g/m*3 32.4 C 0 km/h
318 27-06-2010 15:34:02 32.5 C 6.93 g/m*3 32.5 C 0 km/h
319 27-06-2010 15:46:02 32.7 C 7.01 g/m*3 32.7 C 0 km/h
320 27-06-2010 15:58:02 32.6 C 6.97 g/m*3 32.6 C 0 km/h
321 27-06-2010 16:10:02 33 C 7.12 g/m*3 33 C 0 km/h
322 27-06-2010 16:22:02 32.8 C 7.04 g/m*3 32.8 C 0 km/h
323 27-06-2010 16:34:02 33.1 C 7.16 g/m*3 33.1 C 0 km/h
324 27-06-2010 16:46:02 33.3 C 7.23 g/m*3 33.3 C 0 km/h
325 27-06-2010 16:58:02 33.3 C 7.23 g/m*3 33.3 C 0 km/h
Sensor: Nr:Datum:Temp:Abs-Feuchte:Windchill:Wind:
Aussen-T/F 326 27-06-2010 17:10:02 33.5 C 7.31 g/m*3 33.5 C 0 km/h
327 27-06-2010 17:22:02 32.8 C 7.04 g/m*3 32.8 C 0 km/h
328 27-06-2010 17:34:02 33.4 C 7.27 g/m*3 33.4 C 0 km/h
329 27-06-2010 17:46:02 33.1 C 7.16 g/m*3 33.1 C 0 km/h
330 27-06-2010 17:58:02 33.5 C 7.31 g/m*3 33.5 C 0 km/h
331 27-06-2010 18:10:02 33.6 C 7.35 g/m*3 33.6 C 0 km/h
332 27-06-2010 18:22:02 33.8 C 7.43 g/m*3 33.8 C 0 km/h
333 27-06-2010 18:34:02 33.6 C 7.35 g/m*3 33.6 C 0 km/h
334 27-06-2010 18:46:02 33.7 C 7.39 g/m*3 33.7 C 0 km/h
335 27-06-2010 18:58:02 33.9 C 7.46 g/m*3 33.9 C 0 km/h
336 27-06-2010 19:10:02 33.8 C 7.43 g/m*3 33.8 C 0 km/h
337 27-06-2010 19:22:02 33.5 C 7.31 g/m*3 33.5 C 0 km/h
338 27-06-2010 19:34:02 33.4 C 7.27 g/m*3 33.4 C 0 km/h
339 27-06-2010 19:46:02 33.3 C 7.23 g/m*3 33.3 C 0 km/h
340 27-06-2010 19:58:02 32.9 C 7.08 g/m*3 32.9 C 0 km/h
341 27-06-2010 20:10:02 32.6 C 6.97 g/m*3 32.6 C 0 km/h
342 27-06-2010 20:22:02 31.9 C 6.72 g/m*3 31.9 C 0 km/h
343 27-06-2010 20:34:02 31.5 C 6.57 g/m*3 31.5 C 0 km/h
344 27-06-2010 20:46:02 31 C 6.4 g/m*3 31 C 0 km/h
345 27-06-2010 20:58:02 30.3 C 6.47 g/m*3 30.3 C 0 km/h
346 27-06-2010 21:10:02 29.2 C 6.97 g/m*3 29.2 C 0 km/h
347 27-06-2010 21:22:02 27.6 C 7.18 g/m*3 27.6 C 0 km/h
348 27-06-2010 21:34:02 26.6 C 7.05 g/m*3 26.6 C 0 km/h
349 27-06-2010 21:46:01 25.9 C 7.51 g/m*3 25.9 C 0 km/h
350 27-06-2010 21:58:01 25.3 C 7.26 g/m*3 25.3 C 0 km/h
Sensor: Nr:Datum:Temp:Abs-Feuchte:Windchill:Wind:
Aussen-T/F 351 27-06-2010 22:10:01 24.8 C 7.28 g/m*3 24.8 C 0 km/h
352 27-06-2010 22:22:01 24.3 C 7.3 g/m*3 24.3 C 0 km/h
353 27-06-2010 22:34:02 24.3 C 7.52 g/m*3 24.3 C 0 km/h
354 27-06-2010 22:46:02 23.9 C 7.57 g/m*3 23.9 C 0 km/h
355 27-06-2010 22:58:02 23.7 C 7.7 g/m*3 23.7 C 0 km/h
356 27-06-2010 23:11:02 23.5 C 8.04 g/m*3 23.5 C 0 km/h
357 27-06-2010 23:23:02 23 C 7.6 g/m*3 23 C 0 km/h
358 27-06-2010 23:35:02 22.5 C 7.99 g/m*3 22.5 C 0 km/h
359 27-06-2010 23:47:02 22.3 C 8.1 g/m*3 22.3 C 0 km/h
360 27-06-2010 23:59:02 22 C 7.96 g/m*3 22 C 0 km/h
361 28-06-2010 00:11:02 21.6 C 8.35 g/m*3 21.6 C 0 km/h
362 28-06-2010 00:23:02 21.3 C 8.2 g/m*3 21.3 C 0 km/h
363 28-06-2010 00:35:03 21 C 8.06 g/m*3 21 C 0 km/h
364 28-06-2010 00:47:03 20.8 C 8.15 g/m*3 20.8 C 0 km/h
365 28-06-2010 00:59:03 20.3 C 8.27 g/m*3 20.3 C 0 km/h
366 28-06-2010 01:11:03 20 C 7.95 g/m*3 20 C 0 km/h
367 28-06-2010 01:23:03 20 C 8.3 g/m*3 20 C 0 km/h
368 28-06-2010 01:35:03 19.9 C 8.25 g/m*3 19.9 C 0 km/h
369 28-06-2010 01:47:03 19.6 C 8.1 g/m*3 19.6 C 0 km/h
370 28-06-2010 01:59:03 19.4 C 8.34 g/m*3 19.4 C 0 km/h
371 28-06-2010 02:11:03 18.9 C 8.59 g/m*3 18.9 C 0 km/h
372 28-06-2010 02:23:03 18.9 C 8.59 g/m*3 18.9 C 0 km/h
373 28-06-2010 02:35:03 18.8 C 8.7 g/m*3 18.8 C 0 km/h
374 28-06-2010 02:47:03 18.5 C 8.7 g/m*3 18.5 C 0 km/h
375 28-06-2010 02:59:03 18.4 C 8.65 g/m*3 18.4 C 0 km/h
Sensor: Nr:Datum:Temp:Abs-Feuchte:Windchill:Wind:
Aussen-T/F 376 28-06-2010 03:11:03 18.1 C 8.65 g/m*3 18.1 C 0 km/h
377 28-06-2010 03:23:03 17.9 C 8.7 g/m*3 17.9 C 0 km/h
378 28-06-2010 03:35:03 17.8 C 8.8 g/m*3 17.8 C 0 km/h
379 28-06-2010 03:47:03 17.6 C 8.85 g/m*3 17.6 C 0 km/h
380 28-06-2010 03:59:03 17.5 C 8.8 g/m*3 17.5 C 0 km/h
381 28-06-2010 04:11:03 17.1 C 8.88 g/m*3 17.1 C 0 km/h
382 28-06-2010 04:23:03 17 C 8.97 g/m*3 17 C 0 km/h
383 28-06-2010 04:35:04 16.8 C 9.01 g/m*3 16.8 C 0 km/h
384 28-06-2010 04:47:04 16.6 C 9.18 g/m*3 16.6 C 0 km/h
385 28-06-2010 04:59:04 16.4 C 9.07 g/m*3 16.4 C 0 km/h
386 28-06-2010 05:11:04 16.3 C 9.16 g/m*3 16.3 C 0 km/h
387 28-06-2010 05:23:04 16 C 9.26 g/m*3 16 C 0 km/h
388 28-06-2010 05:35:04 16 C 9.26 g/m*3 16 C 0 km/h
389 28-06-2010 05:47:04 16 C 9.13 g/m*3 16 C 0 km/h
390 28-06-2010 05:59:04 16.2 C 9.24 g/m*3 16.2 C 0 km/h
391 28-06-2010 06:11:04 16.2 C 9.38 g/m*3 16.2 C 0 km/h
392 28-06-2010 06:23:04 16.4 C 9.49 g/m*3 16.4 C 0 km/h
393 28-06-2010 06:35:04 16.5 C 9.41 g/m*3 16.5 C 0 km/h
394 28-06-2010 06:47:04 16.6 C 9.61 g/m*3 16.6 C 0 km/h
395 28-06-2010 06:59:04 16.4 C 9.49 g/m*3 16.4 C 0 km/h
396 28-06-2010 07:11:02 16.2 C 9.52 g/m*3 16.2 C 0 km/h
397 28-06-2010 07:23:02 16.4 C 9.63 g/m*3 16.4 C 0 km/h
398 28-06-2010 07:35:02 16.8 C 9.87 g/m*3 16.8 C 0 km/h
399 28-06-2010 07:47:03 17.4 C 9.78 g/m*3 17.4 C 0 km/h
400 28-06-2010 07:59:03 17.2 C 9.67 g/m*3 17.2 C 0 km/h
Sensor: Nr:Datum:Temp:Abs-Feuchte:Windchill:Wind:
Aussen-T/F 401 28-06-2010 08:11:02 17.5 C 9.69 g/m*3 17.5 C 0 km/h
402 28-06-2010 08:23:02 17.9 C 9.77 g/m*3 17.9 C 0 km/h
403 28-06-2010 08:35:02 18.1 C 9.58 g/m*3 18.1 C 0 km/h
404 28-06-2010 08:47:02 18.5 C 9.49 g/m*3 18.5 C 0 km/h
405 28-06-2010 08:59:02 19 C 9.45 g/m*3 19 C 0 km/h
406 28-06-2010 09:11:02 19.7 C 9.51 g/m*3 19.7 C 0 km/h
407 28-06-2010 09:23:02 20.4 C 9.73 g/m*3 20.4 C 0 km/h
408 28-06-2010 09:35:01 21.1 C 9.58 g/m*3 21.1 C 0 km/h
409 28-06-2010 09:47:02 22.1 C 9.76 g/m*3 22.1 C 0 km/h
410 28-06-2010 09:59:02 22.9 C 9.81 g/m*3 22.9 C 0 km/h
411 28-06-2010 10:11:01 23.7 C 9.84 g/m*3 23.7 C 0 km/h
412 28-06-2010 10:23:01 24.1 C 9.19 g/m*3 24.1 C 0 km/h
413 28-06-2010 10:35:02 25.5 C 9.71 g/m*3 25.5 C 0 km/h
414 28-06-2010 10:47:01 26.3 C 9.41 g/m*3 26.3 C 0 km/h
415 28-06-2010 10:59:01 26.7 C 10.12 g/m*3 26.7 C 0 km/h
416 28-06-2010 11:11:02 27.5 C 9.52 g/m*3 27.5 C 0 km/h
417 28-06-2010 11:23:02 28 C 10.06 g/m*3 28 C 0 km/h
418 28-06-2010 11:35:01 29 C 8.62 g/m*3 29 C 0 km/h
419 28-06-2010 11:47:02 29.8 C 8.1 g/m*3 29.8 C 0 km/h
420 28-06-2010 11:59:02 30.5 C 7.79 g/m*3 30.5 C 0 km/h
421 28-06-2010 12:11:01 30.9 C 7.64 g/m*3 30.9 C 0 km/h
422 28-06-2010 12:23:02 31.4 C 7.19 g/m*3 31.4 C 0 km/h
423 28-06-2010 12:35:01 31.7 C 6.64 g/m*3 31.7 C 0 km/h
424 28-06-2010 12:47:03 32.1 C 6.79 g/m*3 32.1 C 0 km/h
425 28-06-2010 12:59:03 32.4 C 6.9 g/m*3 32.4 C 0 km/h
Sensor: Nr:Datum:Temp:Abs-Feuchte:Windchill:Wind:
Aussen-T/F 426 28-06-2010 13:11:02 32.6 C 6.97 g/m*3 32.6 C 0 km/h
427 28-06-2010 13:23:03 33 C 7.12 g/m*3 33 C 0 km/h
428 28-06-2010 13:35:03 33.2 C 7.2 g/m*3 33.2 C 0 km/h
429 28-06-2010 13:47:02 33.3 C 7.23 g/m*3 33.3 C 0 km/h
430 28-06-2010 13:59:03 33.3 C 7.23 g/m*3 33.3 C 0 km/h
431 28-06-2010 14:11:02 32.6 C 6.97 g/m*3 32.6 C 0 km/h
432 28-06-2010 14:23:02 32.5 C 6.93 g/m*3 32.5 C 0 km/h
433 28-06-2010 14:35:03 32.1 C 6.79 g/m*3 32.1 C 0 km/h
434 28-06-2010 14:47:02 32.5 C 6.93 g/m*3 32.5 C 0 km/h
435 28-06-2010 14:59:02 32.9 C 7.08 g/m*3 32.9 C 0 km/h
436 28-06-2010 15:11:02 33.4 C 7.27 g/m*3 33.4 C 0 km/h
437 28-06-2010 15:23:02 32.1 C 6.79 g/m*3 32.1 C 0 km/h
438 28-06-2010 15:35:02 31.9 C 6.72 g/m*3 31.9 C 0 km/h
439 28-06-2010 15:47:01 32.4 C 6.9 g/m*3 32.4 C 0 km/h
440 28-06-2010 15:59:01 32.3 C 6.86 g/m*3 32.3 C 0 km/h
441 28-06-2010 16:11:02 32.4 C 6.9 g/m*3 32.4 C 0 km/h
442 28-06-2010 16:23:01 32.7 C 7.01 g/m*3 32.7 C 0 km/h
443 28-06-2010 16:35:02 33.2 C 7.2 g/m*3 33.2 C 0 km/h
444 28-06-2010 16:47:01 32.1 C 6.79 g/m*3 32.1 C 0 km/h
445 28-06-2010 16:59:01 33.3 C 7.23 g/m*3 33.3 C 0 km/h
446 28-06-2010 17:11:02 33.6 C 7.35 g/m*3 33.6 C 0 km/h
447 28-06-2010 17:23:01 34.2 C 7.58 g/m*3 34.2 C 0 km/h
448 28-06-2010 17:35:02 32.5 C 6.93 g/m*3 32.5 C 0 km/h
449 28-06-2010 17:47:01 32.7 C 7.01 g/m*3 32.7 C 0 km/h
450 28-06-2010 17:59:01 32.9 C 7.08 g/m*3 32.9 C 0 km/h
Sensor: Nr:Datum:Temp:Abs-Feuchte:Windchill:Wind:
Aussen-T/F 451 28-06-2010 18:11:02 33.3 C 7.23 g/m*3 33.3 C 0 km/h
452 28-06-2010 18:23:02 33 C 7.12 g/m*3 33 C 0 km/h
453 28-06-2010 18:35:02 32.7 C 7.01 g/m*3 32.7 C 0 km/h
454 28-06-2010 18:47:02 32.6 C 6.97 g/m*3 32.6 C 0 km/h
455 28-06-2010 18:59:02 32.4 C 6.9 g/m*3 32.4 C 0 km/h
456 28-06-2010 19:11:02 31.6 C 6.61 g/m*3 31.6 C 0 km/h
457 28-06-2010 19:23:02 31.7 C 6.64 g/m*3 31.7 C 0 km/h
458 28-06-2010 19:35:01 31.9 C 6.72 g/m*3 31.9 C 0 km/h
459 28-06-2010 19:47:02 31.5 C 6.57 g/m*3 31.5 C 0 km/h
460 28-06-2010 19:59:02 31.3 C 6.5 g/m*3 31.3 C 0 km/h
461 28-06-2010 20:11:01 31.2 C 6.47 g/m*3 31.2 C 0 km/h
462 28-06-2010 20:23:02 31 C 6.72 g/m*3 31 C 0 km/h
463 28-06-2010 20:35:01 30.6 C 7.2 g/m*3 30.6 C 0 km/h
464 28-06-2010 20:47:02 30.1 C 7.01 g/m*3 30.1 C 0 km/h
465 28-06-2010 20:59:02 29.5 C 6.79 g/m*3 29.5 C 0 km/h
466 28-06-2010 21:11:01 28.9 C 7.14 g/m*3 28.9 C 0 km/h
467 28-06-2010 21:23:01 28.2 C 7.15 g/m*3 28.2 C 0 km/h
468 28-06-2010 21:35:02 27.5 C 7.14 g/m*3 27.5 C 0 km/h
469 28-06-2010 21:47:02 27 C 7.21 g/m*3 27 C 0 km/h
470 28-06-2010 21:59:02 26.6 C 7.3 g/m*3 26.6 C 0 km/h
471 28-06-2010 22:11:02 26.5 C 7.26 g/m*3 26.5 C 0 km/h
472 28-06-2010 22:24:04 26.3 C 7.43 g/m*3 26.3 C 0 km/h
473 28-06-2010 22:36:04 26 C 7.55 g/m*3 26 C 0 km/h
474 28-06-2010 22:48:05 25.8 C 7.94 g/m*3 25.8 C 0 km/h
475 28-06-2010 23:00:05 25.4 C 8 g/m*3 25.4 C 0 km/h
Sensor: Nr:Datum:Temp:Abs-Feuchte:Windchill:Wind:
Aussen-T/F 476 28-06-2010 23:12:05 25.3 C 8.19 g/m*3 25.3 C 0 km/h
477 28-06-2010 23:24:05 25.1 C 8.33 g/m*3 25.1 C 0 km/h
478 28-06-2010 23:36:05 24.7 C 8.37 g/m*3 24.7 C 0 km/h
479 28-06-2010 23:48:05 24.4 C 8.46 g/m*3 24.4 C 0 km/h
480 29-06-2010 00:00:05 24.1 C 8.75 g/m*3 24.1 C 0 km/h
481 29-06-2010 00:12:05 23.7 C 8.56 g/m*3 23.7 C 0 km/h
482 29-06-2010 00:24:05 23.7 C 8.98 g/m*3 23.7 C 0 km/h
483 29-06-2010 00:36:05 23.3 C 8.57 g/m*3 23.3 C 0 km/h
484 29-06-2010 00:48:05 23 C 8.84 g/m*3 23 C 0 km/h
485 29-06-2010 01:00:05 22.7 C 9.09 g/m*3 22.7 C 0 km/h
486 29-06-2010 01:12:05 22.5 C 8.99 g/m*3 22.5 C 0 km/h
487 29-06-2010 01:24:05 22.4 C 8.94 g/m*3 22.4 C 0 km/h
488 29-06-2010 01:36:05 21.8 C 9.02 g/m*3 21.8 C 0 km/h
489 29-06-2010 01:48:05 21.5 C 9.05 g/m*3 21.5 C 0 km/h
490 29-06-2010 02:00:05 21.3 C 9.32 g/m*3 21.3 C 0 km/h
491 29-06-2010 02:12:05 21.1 C 9.21 g/m*3 21.1 C 0 km/h
492 29-06-2010 02:24:05 21.1 C 9.21 g/m*3 21.1 C 0 km/h
493 29-06-2010 02:36:05 21 C 9.34 g/m*3 21 C 0 km/h
494 29-06-2010 02:48:05 21.1 C 9.4 g/m*3 21.1 C 0 km/h
495 29-06-2010 03:00:06 21.2 C 9.45 g/m*3 21.2 C 0 km/h
496 29-06-2010 03:12:06 20.8 C 9.6 g/m*3 20.8 C 0 km/h
497 29-06-2010 03:24:06 20.6 C 9.49 g/m*3 20.6 C 0 km/h
498 29-06-2010 03:36:06 20.3 C 9.5 g/m*3 20.3 C 0 km/h
499 29-06-2010 03:48:06 20 C 9.51 g/m*3 20 C 0 km/h
500 29-06-2010 04:00:06 20 C 9.51 g/m*3 20 C 0 km/h
Sensor: Nr:Datum:Temp:Abs-Feuchte:Windchill:Wind:
Aussen-T/F 501 29-06-2010 04:12:06 19.7 C 9.68 g/m*3 19.7 C 0 km/h
502 29-06-2010 04:24:06 19.4 C 9.84 g/m*3 19.4 C 0 km/h
503 29-06-2010 04:36:06 19.3 C 9.79 g/m*3 19.3 C 0 km/h
504 29-06-2010 04:48:06 19.2 C 9.89 g/m*3 19.2 C 0 km/h
505 29-06-2010 05:00:06 19 C 9.94 g/m*3 19 C 0 km/h
506 29-06-2010 05:12:06 18.9 C 10.21 g/m*3 18.9 C 0 km/h
507 29-06-2010 05:24:06 18.7 C 10.25 g/m*3 18.7 C 0 km/h
508 29-06-2010 05:36:06 18.5 C 10.28 g/m*3 18.5 C 0 km/h
509 29-06-2010 05:48:06 18.4 C 10.38 g/m*3 18.4 C 0 km/h
510 29-06-2010 06:00:06 18.3 C 10.32 g/m*3 18.3 C 0 km/h
511 29-06-2010 06:12:06 18.3 C 10.48 g/m*3 18.3 C 0 km/h
512 29-06-2010 06:24:04 18.3 C 10.32 g/m*3 18.3 C 0 km/h
513 29-06-2010 06:36:04 18.4 C 10.54 g/m*3 18.4 C 0 km/h
514 29-06-2010 06:48:02 18.5 C 10.6 g/m*3 18.5 C 0 km/h
515 29-06-2010 07:00:02 18.5 C 10.6 g/m*3 18.5 C 0 km/h
516 29-06-2010 07:12:02 18.7 C 10.73 g/m*3 18.7 C 0 km/h
517 29-06-2010 07:24:02 18.9 C 10.69 g/m*3 18.9 C 0 km/h
518 29-06-2010 07:36:01 19.1 C 10.49 g/m*3 19.1 C 0 km/h
519 29-06-2010 07:48:02 19.2 C 10.72 g/m*3 19.2 C 0 km/h
520 29-06-2010 08:00:02 19.3 C 10.62 g/m*3 19.3 C 0 km/h
521 29-06-2010 08:12:01 19.6 C 10.8 g/m*3 19.6 C 0 km/h
522 29-06-2010 08:24:01 19.9 C 10.82 g/m*3 19.9 C 0 km/h
523 29-06-2010 08:36:02 20.4 C 10.26 g/m*3 20.4 C 0 km/h
524 29-06-2010 08:48:02 20.9 C 10.02 g/m*3 20.9 C 0 km/h
525 29-06-2010 09:00:02 21.4 C 10.12 g/m*3 21.4 C 0 km/h
Sensor: Nr:Datum:Temp:Abs-Feuchte:Windchill:Wind:
Aussen-T/F 526 29-06-2010 09:12:02 21.9 C 10.23 g/m*3 21.9 C 0 km/h
527 29-06-2010 09:24:02 22.5 C 9.99 g/m*3 22.5 C 0 km/h
528 29-06-2010 09:36:02 23.2 C 9.98 g/m*3 23.2 C 0 km/h
529 29-06-2010 09:48:01 24.1 C 10.06 g/m*3 24.1 C 0 km/h
530 29-06-2010 10:00:01 24.5 C 9.85 g/m*3 24.5 C 0 km/h
531 29-06-2010 10:12:02 25 C 9.67 g/m*3 25 C 0 km/h
532 29-06-2010 10:24:01 25.9 C 9.93 g/m*3 25.9 C 0 km/h
533 29-06-2010 10:36:01 26.5 C 9.51 g/m*3 26.5 C 0 km/h
534 29-06-2010 10:48:01 27.3 C 9.94 g/m*3 27.3 C 0 km/h
535 29-06-2010 11:00:01 27.4 C 9.74 g/m*3 27.4 C 0 km/h
536 29-06-2010 11:12:02 28.2 C 9.9 g/m*3 28.2 C 0 km/h
537 29-06-2010 11:24:01 28.3 C 9.4 g/m*3 28.3 C 0 km/h
538 29-06-2010 11:36:02 28.8 C 9.09 g/m*3 28.8 C 0 km/h
539 29-06-2010 11:48:01 29.8 C 9.9 g/m*3 29.8 C 0 km/h
540 29-06-2010 12:00:01 30.4 C 8.99 g/m*3 30.4 C 0 km/h
541 29-06-2010 12:12:02 31 C 8.64 g/m*3 31 C 0 km/h
542 29-06-2010 12:24:02 31.5 C 7.89 g/m*3 31.5 C 0 km/h
543 29-06-2010 12:36:01 31.9 C 7.39 g/m*3 31.9 C 0 km/h
544 29-06-2010 12:48:01 32.4 C 6.9 g/m*3 32.4 C 0 km/h
545 29-06-2010 13:00:01 31.9 C 6.72 g/m*3 31.9 C 0 km/h
546 29-06-2010 13:12:02 32.5 C 6.93 g/m*3 32.5 C 0 km/h
547 29-06-2010 13:24:02 33.1 C 7.16 g/m*3 33.1 C 0 km/h
548 29-06-2010 13:36:01 33.4 C 7.27 g/m*3 33.4 C 0 km/h
549 29-06-2010 13:48:02 32.3 C 6.86 g/m*3 32.3 C 0 km/h
550 29-06-2010 14:00:02 32.8 C 7.04 g/m*3 32.8 C 0 km/h
Sensor: Nr:Datum:Temp:Abs-Feuchte:Windchill:Wind:
Aussen-T/F 551 29-06-2010 14:12:01 31.4 C 6.54 g/m*3 31.4 C 0 km/h
552 29-06-2010 14:24:02 31.4 C 6.54 g/m*3 31.4 C 0 km/h
553 29-06-2010 14:36:01 31.2 C 6.47 g/m*3 31.2 C 0 km/h
554 29-06-2010 14:48:02 30.9 C 6.68 g/m*3 30.9 C 0 km/h
555 29-06-2010 15:00:02 30.6 C 7.2 g/m*3 30.6 C 0 km/h
556 29-06-2010 15:12:02 29.5 C 7.38 g/m*3 29.5 C 0 km/h
557 29-06-2010 15:24:02 28.7 C 8.19 g/m*3 28.7 C 0 km/h
558 29-06-2010 15:36:02 27.6 C 8.25 g/m*3 27.6 C 0 km/h
559 29-06-2010 15:48:02 26.6 C 8.56 g/m*3 26.6 C 0 km/h
560 29-06-2010 16:00:03 26.4 C 8.96 g/m*3 26.4 C 0 km/h
561 29-06-2010 16:12:01 26.1 C 11.26 g/m*3 26.1 C 0 km/h
562 29-06-2010 16:24:02 25.1 C 12.96 g/m*3 25.1 C 0 km/h
563 29-06-2010 16:36:02 27.9 C 11.36 g/m*3 27.9 C 0 km/h
564 29-06-2010 16:48:01 29.8 C 10.2 g/m*3 29.8 C 0 km/h
565 29-06-2010 17:00:01 29.7 C 10.14 g/m*3 29.7 C 0 km/h
566 29-06-2010 17:12:02 29.1 C 10.11 g/m*3 29.1 C 0 km/h
567 29-06-2010 17:24:01 29 C 9.77 g/m*3 29 C 0 km/h
568 29-06-2010 17:36:02 29.5 C 9.74 g/m*3 29.5 C 0 km/h
569 29-06-2010 17:48:02 30.4 C 8.99 g/m*3 30.4 C 0 km/h
570 29-06-2010 18:00:02 29.9 C 8.45 g/m*3 29.9 C 0 km/h
571 29-06-2010 18:12:02 28.6 C 8.43 g/m*3 28.6 C 0 km/h
572 29-06-2010 18:24:01 28.9 C 8.86 g/m*3 28.9 C 0 km/h
573 29-06-2010 18:36:02 29.3 C 8.76 g/m*3 29.3 C 0 km/h
574 29-06-2010 18:48:02 28.8 C 8.52 g/m*3 28.8 C 0 km/h
575 29-06-2010 19:00:02 28.8 C 8.81 g/m*3 28.8 C 0 km/h
Sensor: Nr:Datum:Temp:Abs-Feuchte:Windchill:Wind:
Aussen-T/F 576 29-06-2010 19:12:02 29.4 C 8.81 g/m*3 29.4 C 0 km/h
577 29-06-2010 19:24:01 29.5 C 8.56 g/m*3 29.5 C 0 km/h
578 29-06-2010 19:36:02 28.8 C 8.52 g/m*3 28.8 C 0 km/h
579 29-06-2010 19:48:02 28.3 C 8.29 g/m*3 28.3 C 0 km/h
580 29-06-2010 20:00:02 27.5 C 8.47 g/m*3 27.5 C 0 km/h
581 29-06-2010 20:12:02 27.7 C 8.56 g/m*3 27.7 C 0 km/h
582 29-06-2010 20:24:02 28 C 8.43 g/m*3 28 C 0 km/h
583 29-06-2010 20:36:02 27.7 C 8.56 g/m*3 27.7 C 0 km/h
584 29-06-2010 20:48:01 27.5 C 9 g/m*3 27.5 C 0 km/h
585 29-06-2010 21:00:01 27.2 C 9.11 g/m*3 27.2 C 0 km/h
586 29-06-2010 21:12:02 26.1 C 9.3 g/m*3 26.1 C 0 km/h
587 29-06-2010 21:24:02 25.3 C 9.36 g/m*3 25.3 C 0 km/h
588 29-06-2010 21:36:02 24.5 C 9.62 g/m*3 24.5 C 0 km/h
589 29-06-2010 21:48:02 23.8 C 9.9 g/m*3 23.8 C 0 km/h
590 29-06-2010 22:00:02 23.4 C 9.88 g/m*3 23.4 C 0 km/h
591 29-06-2010 22:12:01 23.3 C 9.83 g/m*3 23.3 C 0 km/h
592 29-06-2010 22:24:01 23.1 C 9.72 g/m*3 23.1 C 0 km/h
593 29-06-2010 22:37:02 22.7 C 9.9 g/m*3 22.7 C 0 km/h
594 29-06-2010 22:49:02 22.5 C 9.99 g/m*3 22.5 C 0 km/h
595 29-06-2010 23:01:02 22.4 C 10.13 g/m*3 22.4 C 0 km/h
596 29-06-2010 23:13:02 22.1 C 9.96 g/m*3 22.1 C 0 km/h
597 29-06-2010 23:25:02 21.9 C 10.23 g/m*3 21.9 C 0 km/h
598 29-06-2010 23:37:02 21.6 C 10.43 g/m*3 21.6 C 0 km/h
599 29-06-2010 23:49:02 21.3 C 10.25 g/m*3 21.3 C 0 km/h
600 30-06-2010 00:01:02 21.1 C 10.32 g/m*3 21.1 C 0 km/h
Sensor: Nr:Datum:Temp:Abs-Feuchte:Windchill:Wind:
Aussen-T/F 601 30-06-2010 00:13:02 20.9 C 10.38 g/m*3 20.9 C 0 km/h
602 30-06-2010 00:25:03 20.6 C 10.56 g/m*3 20.6 C 0 km/h
603 30-06-2010 00:37:03 20.3 C 10.55 g/m*3 20.3 C 0 km/h
604 30-06-2010 00:49:03 20.1 C 10.6 g/m*3 20.1 C 0 km/h
605 30-06-2010 01:01:03 19.9 C 10.82 g/m*3 19.9 C 0 km/h
606 30-06-2010 01:13:03 19.7 C 10.87 g/m*3 19.7 C 0 km/h
607 30-06-2010 01:25:03 19.5 C 10.91 g/m*3 19.5 C 0 km/h
608 30-06-2010 01:37:03 19.3 C 10.78 g/m*3 19.3 C 0 km/h
609 30-06-2010 01:49:03 19.1 C 10.66 g/m*3 19.1 C 0 km/h
610 30-06-2010 02:01:03 18.9 C 10.85 g/m*3 18.9 C 0 km/h
611 30-06-2010 02:13:03 18.7 C 10.89 g/m*3 18.7 C 0 km/h
612 30-06-2010 02:25:03 18.5 C 10.92 g/m*3 18.5 C 0 km/h
613 30-06-2010 02:37:03 18.4 C 11.01 g/m*3 18.4 C 0 km/h
614 30-06-2010 02:49:03 18.2 C 11.04 g/m*3 18.2 C 0 km/h
615 30-06-2010 03:01:03 18.1 C 10.97 g/m*3 18.1 C 0 km/h
616 30-06-2010 03:13:03 17.9 C 11.15 g/m*3 17.9 C 0 km/h
617 30-06-2010 03:25:03 17.7 C 11.16 g/m*3 17.7 C 0 km/h
618 30-06-2010 03:37:03 17.6 C 11.1 g/m*3 17.6 C 0 km/h
619 30-06-2010 03:49:03 17.5 C 11.18 g/m*3 17.5 C 0 km/h
620 30-06-2010 04:01:03 17.2 C 11.13 g/m*3 17.2 C 0 km/h
621 30-06-2010 04:13:03 17.1 C 10.92 g/m*3 17.1 C 0 km/h
622 30-06-2010 04:25:03 17 C 11 g/m*3 17 C 0 km/h
623 30-06-2010 04:37:03 16.8 C 11.01 g/m*3 16.8 C 0 km/h
624 30-06-2010 04:49:04 16.7 C 11.08 g/m*3 16.7 C 0 km/h
625 30-06-2010 05:01:04 16.5 C 11.09 g/m*3 16.5 C 0 km/h
Sensor: Nr:Datum:Temp:Abs-Feuchte:Windchill:Wind:
Aussen-T/F 626 30-06-2010 05:13:04 16.3 C 10.96 g/m*3 16.3 C 0 km/h
627 30-06-2010 05:25:04 16.3 C 10.96 g/m*3 16.3 C 0 km/h
628 30-06-2010 05:37:04 16.3 C 10.96 g/m*3 16.3 C 0 km/h
629 30-06-2010 05:49:04 16.2 C 10.76 g/m*3 16.2 C 0 km/h
630 30-06-2010 06:01:04 16.1 C 10.83 g/m*3 16.1 C 0 km/h
631 30-06-2010 06:13:04 16.1 C 10.83 g/m*3 16.1 C 0 km/h
632 30-06-2010 06:25:04 16.1 C 10.69 g/m*3 16.1 C 0 km/h
633 30-06-2010 06:37:04 16.2 C 10.76 g/m*3 16.2 C 0 km/h
634 30-06-2010 06:49:03 16.4 C 10.89 g/m*3 16.4 C 0 km/h
635 30-06-2010 07:01:02 16.8 C 11.01 g/m*3 16.8 C 0 km/h
636 30-06-2010 07:13:02 17.2 C 10.84 g/m*3 17.2 C 0 km/h
637 30-06-2010 07:25:03 17.3 C 10.61 g/m*3 17.3 C 0 km/h
638 30-06-2010 07:37:02 17.5 C 10.73 g/m*3 17.5 C 0 km/h
639 30-06-2010 07:49:01 17.8 C 10.62 g/m*3 17.8 C 0 km/h
640 30-06-2010 08:01:02 17.9 C 10.54 g/m*3 17.9 C 0 km/h
641 30-06-2010 08:13:02 17.9 C 10.99 g/m*3 17.9 C 0 km/h
642 30-06-2010 08:25:02 18.1 C 11.12 g/m*3 18.1 C 0 km/h
643 30-06-2010 08:37:02 18.5 C 11.08 g/m*3 18.5 C 0 km/h
644 30-06-2010 08:49:02 19 C 10.92 g/m*3 19 C 0 km/h
645 30-06-2010 09:01:01 19.4 C 11.01 g/m*3 19.4 C 0 km/h
646 30-06-2010 09:13:01 20 C 10.37 g/m*3 20 C 0 km/h
647 30-06-2010 09:25:02 20.3 C 9.67 g/m*3 20.3 C 0 km/h
648 30-06-2010 09:37:01 21.2 C 9.08 g/m*3 21.2 C 0 km/h
649 30-06-2010 09:49:02 21.6 C 9.29 g/m*3 21.6 C 0 km/h
650 30-06-2010 10:01:02 22.4 C 9.33 g/m*3 22.4 C 0 km/h
Sensor: Nr:Datum:Temp:Abs-Feuchte:Windchill:Wind:
Aussen-T/F 651 30-06-2010 10:13:02 23 C 9.45 g/m*3 23 C 0 km/h
652 30-06-2010 10:25:02 23.7 C 9.63 g/m*3 23.7 C 0 km/h
653 30-06-2010 10:37:02 24.1 C 9.41 g/m*3 24.1 C 0 km/h
654 30-06-2010 10:49:02 24.8 C 8.65 g/m*3 24.8 C 0 km/h
655 30-06-2010 11:01:02 25.7 C 8.62 g/m*3 25.7 C 0 km/h
656 30-06-2010 11:13:02 26.1 C 8.57 g/m*3 26.1 C 0 km/h
657 30-06-2010 11:25:01 26.6 C 8.31 g/m*3 26.6 C 0 km/h
658 30-06-2010 11:37:02 27.8 C 8.88 g/m*3 27.8 C 0 km/h
659 30-06-2010 11:49:02 28.3 C 8.02 g/m*3 28.3 C 0 km/h
660 30-06-2010 12:01:02 27.8 C 6.72 g/m*3 27.8 C 0 km/h
661 30-06-2010 12:13:02 28 C 6.53 g/m*3 28 C 0 km/h
662 30-06-2010 12:25:02 29.4 C 6.75 g/m*3 29.4 C 0 km/h
663 30-06-2010 12:37:02 30.3 C 6.47 g/m*3 30.3 C 0 km/h
664 30-06-2010 12:49:02 30.7 C 6.3 g/m*3 30.7 C 0 km/h
665 30-06-2010 13:01:02 30.8 C 6.33 g/m*3 30.8 C 0 km/h
666 30-06-2010 13:13:02 31.5 C 6.57 g/m*3 31.5 C 0 km/h
667 30-06-2010 13:25:02 32 C 6.75 g/m*3 32 C 0 km/h
668 30-06-2010 13:37:02 32.4 C 6.9 g/m*3 32.4 C 0 km/h
669 30-06-2010 13:49:02 32.5 C 6.93 g/m*3 32.5 C 0 km/h
670 30-06-2010 14:01:02 32.1 C 6.79 g/m*3 32.1 C 0 km/h
671 30-06-2010 14:13:02 31.4 C 6.54 g/m*3 31.4 C 0 km/h
672 30-06-2010 14:25:02 31.5 C 6.57 g/m*3 31.5 C 0 km/h
673 30-06-2010 14:37:02 32.1 C 6.79 g/m*3 32.1 C 0 km/h
674 30-06-2010 14:49:02 31.8 C 6.68 g/m*3 31.8 C 0 km/h
675 30-06-2010 15:01:02 32 C 6.75 g/m*3 32 C 0 km/h
Sensor: Nr:Datum:Temp:Abs-Feuchte:Windchill:Wind:
Aussen-T/F 676 30-06-2010 15:13:02 32.5 C 6.93 g/m*3 32.5 C 0 km/h
677 30-06-2010 15:25:03 32.4 C 6.9 g/m*3 32.4 C 0 km/h
678 30-06-2010 15:37:02 32.5 C 6.93 g/m*3 32.5 C 0 km/h
679 30-06-2010 15:49:03 32.3 C 6.86 g/m*3 32.3 C 0 km/h
680 30-06-2010 16:01:02 32.1 C 6.79 g/m*3 32.1 C 0 km/h
681 30-06-2010 16:13:02 31.7 C 6.64 g/m*3 31.7 C 0 km/h
682 30-06-2010 16:25:02 32.5 C 6.93 g/m*3 32.5 C 0 km/h
683 30-06-2010 16:37:02 33 C 7.12 g/m*3 33 C 0 km/h
684 30-06-2010 16:49:02 32.5 C 6.93 g/m*3 32.5 C 0 km/h
685 30-06-2010 17:01:02 32.4 C 6.9 g/m*3 32.4 C 0 km/h
686 30-06-2010 17:13:02 32.6 C 6.97 g/m*3 32.6 C 0 km/h
687 30-06-2010 17:25:02 32.5 C 6.93 g/m*3 32.5 C 0 km/h
688 30-06-2010 17:37:02 32 C 6.75 g/m*3 32 C 0 km/h
689 30-06-2010 17:49:02 32.2 C 6.82 g/m*3 32.2 C 0 km/h
690 30-06-2010 18:01:02 32.3 C 6.86 g/m*3 32.3 C 0 km/h
691 30-06-2010 18:13:02 33.1 C 7.16 g/m*3 33.1 C 0 km/h
692 30-06-2010 18:25:02 32.6 C 6.97 g/m*3 32.6 C 0 km/h
693 30-06-2010 18:37:02 31.9 C 6.72 g/m*3 31.9 C 0 km/h
694 30-06-2010 18:49:02 31.7 C 6.64 g/m*3 31.7 C 0 km/h
695 30-06-2010 19:01:01 31.7 C 6.64 g/m*3 31.7 C 0 km/h
696 30-06-2010 19:13:01 31.5 C 6.57 g/m*3 31.5 C 0 km/h
697 30-06-2010 19:25:02 31.2 C 7.12 g/m*3 31.2 C 0 km/h
698 30-06-2010 19:37:01 30.7 C 6.61 g/m*3 30.7 C 0 km/h
699 30-06-2010 19:49:02 30.3 C 7.7 g/m*3 30.3 C 0 km/h
700 30-06-2010 20:01:01 30.4 C 7.75 g/m*3 30.4 C 0 km/h
Sensor: Nr:Datum:Temp:Abs-Feuchte:Windchill:Wind:
Aussen-T/F 701 30-06-2010 20:13:01 30.4 C 8.06 g/m*3 30.4 C 0 km/h
702 30-06-2010 20:25:01 30.1 C 7.93 g/m*3 30.1 C 0 km/h
703 30-06-2010 20:37:02 29.3 C 8.17 g/m*3 29.3 C 0 km/h
704 30-06-2010 20:49:02 28.5 C 7.83 g/m*3 28.5 C 0 km/h
705 30-06-2010 21:01:02 27.5 C 7.67 g/m*3 27.5 C 0 km/h
706 30-06-2010 21:13:02 26.9 C 7.93 g/m*3 26.9 C 0 km/h
707 30-06-2010 21:25:02 26.5 C 7.76 g/m*3 26.5 C 0 km/h
708 30-06-2010 21:37:02 26 C 7.79 g/m*3 26 C 0 km/h
709 30-06-2010 21:49:02 25.8 C 7.94 g/m*3 25.8 C 0 km/h
710 30-06-2010 22:01:01 25.6 C 8.09 g/m*3 25.6 C 0 km/h
711 30-06-2010 22:13:01 25.1 C 7.87 g/m*3 25.1 C 0 km/h
712 30-06-2010 22:25:02 24.8 C 7.97 g/m*3 24.8 C 0 km/h
713 30-06-2010 22:38:03 24.6 C 8.1 g/m*3 24.6 C 0 km/h
714 30-06-2010 22:50:03 24.8 C 8.42 g/m*3 24.8 C 0 km/h
715 30-06-2010 23:02:04 24.5 C 8.5 g/m*3 24.5 C 0 km/h
716 30-06-2010 23:14:04 24 C 8.49 g/m*3 24 C 0 km/h
717 30-06-2010 23:26:04 23.7 C 8.56 g/m*3 23.7 C 0 km/h
718 30-06-2010 23:38:04 23.6 C 8.72 g/m*3 23.6 C 0 km/h
719 30-06-2010 23:50:04 23.2 C 8.52 g/m*3 23.2 C 0 km/h
720 01-07-2010 00:02:04 22.9 C 8.58 g/m*3 22.9 C 0 km/h
721 01-07-2010 00:14:04 22.7 C 8.49 g/m*3 22.7 C 0 km/h
722 01-07-2010 00:26:04 22.4 C 8.94 g/m*3 22.4 C 0 km/h
723 01-07-2010 00:38:04 22.2 C 8.44 g/m*3 22.2 C 0 km/h
724 01-07-2010 00:50:04 21.9 C 9.07 g/m*3 21.9 C 0 km/h
725 01-07-2010 01:02:04 21.6 C 8.91 g/m*3 21.6 C 0 km/h
Sensor: Nr:Datum:Temp:Abs-Feuchte:Windchill:Wind:
Aussen-T/F 726 01-07-2010 01:14:04 21.4 C 8.81 g/m*3 21.4 C 0 km/h
727 01-07-2010 01:26:04 21.2 C 9.08 g/m*3 21.2 C 0 km/h
728 01-07-2010 01:38:04 20.9 C 9.29 g/m*3 20.9 C 0 km/h
729 01-07-2010 01:50:04 20.7 C 9.36 g/m*3 20.7 C 0 km/h
730 01-07-2010 02:02:04 20.4 C 9.2 g/m*3 20.4 C 0 km/h
731 01-07-2010 02:14:04 20.2 C 9.44 g/m*3 20.2 C 0 km/h
732 01-07-2010 02:26:04 20.1 C 9.39 g/m*3 20.1 C 0 km/h
733 01-07-2010 02:38:04 19.8 C 9.74 g/m*3 19.8 C 0 km/h
734 01-07-2010 02:50:04 19.5 C 9.73 g/m*3 19.5 C 0 km/h
735 01-07-2010 03:02:04 19.4 C 9.84 g/m*3 19.4 C 0 km/h
736 01-07-2010 03:14:05 19.2 C 9.73 g/m*3 19.2 C 0 km/h
737 01-07-2010 03:26:05 19 C 9.78 g/m*3 19 C 0 km/h
738 01-07-2010 03:38:05 18.9 C 9.88 g/m*3 18.9 C 0 km/h
739 01-07-2010 03:50:05 18.8 C 9.99 g/m*3 18.8 C 0 km/h
740 01-07-2010 04:02:05 18.7 C 9.93 g/m*3 18.7 C 0 km/h
741 01-07-2010 04:14:05 18.4 C 9.75 g/m*3 18.4 C 0 km/h
742 01-07-2010 04:26:05 18.3 C 9.85 g/m*3 18.3 C 0 km/h
743 01-07-2010 04:38:05 18.1 C 9.89 g/m*3 18.1 C 0 km/h
744 01-07-2010 04:50:05 18 C 9.83 g/m*3 18 C 0 km/h
745 01-07-2010 05:02:05 17.8 C 10.02 g/m*3 17.8 C 0 km/h
746 01-07-2010 05:14:05 17.6 C 10.2 g/m*3 17.6 C 0 km/h
747 01-07-2010 05:26:05 17.3 C 10.16 g/m*3 17.3 C 0 km/h
748 01-07-2010 05:38:05 17.1 C 10.19 g/m*3 17.1 C 0 km/h
749 01-07-2010 05:50:05 17 C 10.27 g/m*3 17 C 0 km/h
750 01-07-2010 06:02:05 16.8 C 10.44 g/m*3 16.8 C 0 km/h
Sensor: Nr:Datum:Temp:Abs-Feuchte:Windchill:Wind:
Aussen-T/F 751 01-07-2010 06:14:05 16.9 C 10.36 g/m*3 16.9 C 0 km/h
752 01-07-2010 06:26:05 17.1 C 10.34 g/m*3 17.1 C 0 km/h
753 01-07-2010 06:38:05 17.3 C 10.46 g/m*3 17.3 C 0 km/h
754 01-07-2010 06:50:02 17.5 C 10.44 g/m*3 17.5 C 0 km/h
755 01-07-2010 07:02:01 17.5 C 10.44 g/m*3 17.5 C 0 km/h
756 01-07-2010 07:14:01 17.7 C 10.41 g/m*3 17.7 C 0 km/h
757 01-07-2010 07:26:02 17.7 C 10.26 g/m*3 17.7 C 0 km/h
758 01-07-2010 07:38:02 17.7 C 10.41 g/m*3 17.7 C 0 km/h
759 01-07-2010 07:50:02 17.8 C 10.62 g/m*3 17.8 C 0 km/h
760 01-07-2010 08:02:02 18.1 C 10.51 g/m*3 18.1 C 0 km/h
761 01-07-2010 08:14:02 18.5 C 10.76 g/m*3 18.5 C 0 km/h
762 01-07-2010 08:26:02 18.8 C 10.47 g/m*3 18.8 C 0 km/h
763 01-07-2010 08:38:02 19.1 C 10.33 g/m*3 19.1 C 0 km/h
764 01-07-2010 08:50:02 19.6 C 10.64 g/m*3 19.6 C 0 km/h
765 01-07-2010 09:02:02 20.4 C 10.61 g/m*3 20.4 C 0 km/h
766 01-07-2010 09:14:03 20.9 C 10.38 g/m*3 20.9 C 0 km/h
767 01-07-2010 09:26:02 21.6 C 10.43 g/m*3 21.6 C 0 km/h
768 01-07-2010 09:38:02 22.6 C 10.45 g/m*3 22.6 C 0 km/h
769 01-07-2010 09:50:01 23.5 C 10.36 g/m*3 23.5 C 0 km/h
770 01-07-2010 10:02:01 24.3 C 10.18 g/m*3 24.3 C 0 km/h
771 01-07-2010 10:14:01 24.8 C 10.02 g/m*3 24.8 C 0 km/h
772 01-07-2010 10:26:02 25.9 C 10.41 g/m*3 25.9 C 0 km/h
773 01-07-2010 10:38:01 26.6 C 10.07 g/m*3 26.6 C 0 km/h
774 01-07-2010 10:50:03 27.5 C 10.32 g/m*3 27.5 C 0 km/h
775 01-07-2010 11:02:02 27.7 C 10.16 g/m*3 27.7 C 0 km/h
Sensor: Nr:Datum:Temp:Abs-Feuchte:Windchill:Wind:
Aussen-T/F 776 01-07-2010 11:14:02 28.4 C 9.73 g/m*3 28.4 C 0 km/h
777 01-07-2010 11:26:02 28.6 C 8.71 g/m*3 28.6 C 0 km/h
778 01-07-2010 11:38:02 28.9 C 8.57 g/m*3 28.9 C 0 km/h
779 01-07-2010 11:50:02 29.8 C 8.7 g/m*3 29.8 C 0 km/h
780 01-07-2010 12:02:02 30.1 C 7.93 g/m*3 30.1 C 0 km/h
781 01-07-2010 12:14:02 30.7 C 7.24 g/m*3 30.7 C 0 km/h
782 01-07-2010 12:26:02 31.4 C 6.54 g/m*3 31.4 C 0 km/h
783 01-07-2010 12:38:02 31.4 C 6.54 g/m*3 31.4 C 0 km/h
784 01-07-2010 12:50:02 31.9 C 6.72 g/m*3 31.9 C 0 km/h
785 01-07-2010 13:02:01 32.7 C 7.01 g/m*3 32.7 C 0 km/h
786 01-07-2010 13:14:01 33 C 7.12 g/m*3 33 C 0 km/h
787 01-07-2010 13:26:01 32.6 C 6.97 g/m*3 32.6 C 0 km/h
788 01-07-2010 13:38:02 33 C 7.12 g/m*3 33 C 0 km/h
789 01-07-2010 13:50:02 32.7 C 7.01 g/m*3 32.7 C 0 km/h
790 01-07-2010 14:02:02 32.7 C 7.01 g/m*3 32.7 C 0 km/h
791 01-07-2010 14:14:02 32.5 C 6.93 g/m*3 32.5 C 0 km/h
792 01-07-2010 14:26:02 32.1 C 6.79 g/m*3 32.1 C 0 km/h
793 01-07-2010 14:38:02 31.9 C 6.72 g/m*3 31.9 C 0 km/h
794 01-07-2010 14:50:02 31.9 C 6.72 g/m*3 31.9 C 0 km/h
795 01-07-2010 15:02:02 32.5 C 6.93 g/m*3 32.5 C 0 km/h
796 01-07-2010 15:14:03 33.1 C 7.16 g/m*3 33.1 C 0 km/h
797 01-07-2010 15:26:02 32.7 C 7.01 g/m*3 32.7 C 0 km/h
798 01-07-2010 15:38:02 33 C 7.12 g/m*3 33 C 0 km/h
799 01-07-2010 15:50:02 33.1 C 7.16 g/m*3 33.1 C 0 km/h
800 01-07-2010 16:02:02 33.1 C 7.16 g/m*3 33.1 C 0 km/h
Sensor: Nr:Datum:Temp:Abs-Feuchte:Windchill:Wind:
Aussen-T/F 801 01-07-2010 16:14:02 33 C 7.12 g/m*3 33 C 0 km/h
802 01-07-2010 16:26:03 33.3 C 7.23 g/m*3 33.3 C 0 km/h
803 01-07-2010 16:38:02 33.3 C 7.23 g/m*3 33.3 C 0 km/h
804 01-07-2010 16:50:02 33.3 C 7.23 g/m*3 33.3 C 0 km/h
805 01-07-2010 17:02:02 33.5 C 7.31 g/m*3 33.5 C 0 km/h
806 01-07-2010 17:14:02 33.6 C 7.35 g/m*3 33.6 C 0 km/h
807 01-07-2010 17:26:02 33.1 C 7.16 g/m*3 33.1 C 0 km/h
808 01-07-2010 17:38:02 33 C 7.12 g/m*3 33 C 0 km/h
809 01-07-2010 17:50:02 33.3 C 7.23 g/m*3 33.3 C 0 km/h
810 01-07-2010 18:02:02 33.7 C 7.39 g/m*3 33.7 C 0 km/h
811 01-07-2010 18:14:02 34.1 C 7.54 g/m*3 34.1 C 0 km/h
812 01-07-2010 18:26:02 33.9 C 7.46 g/m*3 33.9 C 0 km/h
813 01-07-2010 18:38:01 33.8 C 7.43 g/m*3 33.8 C 0 km/h
814 01-07-2010 18:50:02 33.8 C 7.43 g/m*3 33.8 C 0 km/h
815 01-07-2010 19:02:01 33.7 C 7.39 g/m*3 33.7 C 0 km/h
816 01-07-2010 19:14:01 33.4 C 7.27 g/m*3 33.4 C 0 km/h
817 01-07-2010 19:26:02 33.6 C 7.35 g/m*3 33.6 C 0 km/h
818 01-07-2010 19:38:02 33.3 C 7.23 g/m*3 33.3 C 0 km/h
819 01-07-2010 19:50:02 33.3 C 7.23 g/m*3 33.3 C 0 km/h
820 01-07-2010 20:02:03 33.1 C 7.16 g/m*3 33.1 C 0 km/h
821 01-07-2010 20:14:03 32.6 C 6.97 g/m*3 32.6 C 0 km/h
822 01-07-2010 20:26:02 31.9 C 7.72 g/m*3 31.9 C 0 km/h
823 01-07-2010 20:38:02 30.6 C 8.14 g/m*3 30.6 C 0 km/h
824 01-07-2010 20:50:01 29.4 C 8.22 g/m*3 29.4 C 0 km/h
825 01-07-2010 21:02:02 28.5 C 8.38 g/m*3 28.5 C 0 km/h
Sensor: Nr:Datum:Temp:Abs-Feuchte:Windchill:Wind:
Aussen-T/F 826 01-07-2010 21:14:02 27.8 C 8.34 g/m*3 27.8 C 0 km/h
827 01-07-2010 21:26:01 27.5 C 8.73 g/m*3 27.5 C 0 km/h
828 01-07-2010 21:38:01 26.9 C 8.7 g/m*3 26.9 C 0 km/h
829 01-07-2010 21:50:02 26.4 C 8.71 g/m*3 26.4 C 0 km/h
830 01-07-2010 22:02:02 25.9 C 8.72 g/m*3 25.9 C 0 km/h
831 01-07-2010 22:14:02 25.6 C 8.57 g/m*3 25.6 C 0 km/h
832 01-07-2010 22:26:02 25.5 C 8.52 g/m*3 25.5 C 0 km/h
833 01-07-2010 22:38:02 25.3 C 8.43 g/m*3 25.3 C 0 km/h
834 01-07-2010 22:50:02 25.2 C 8.38 g/m*3 25.2 C 0 km/h
835 01-07-2010 23:02:02 25.1 C 8.33 g/m*3 25.1 C 0 km/h
836 01-07-2010 23:14:02 24.9 C 8.24 g/m*3 24.9 C 0 km/h
837 01-07-2010 23:27:18 24.7 C 8.37 g/m*3 24.7 C 0 km/h
838 01-07-2010 23:39:18 24.6 C 8.55 g/m*3 24.6 C 0 km/h
839 01-07-2010 23:51:18 24.4 C 8.68 g/m*3 24.4 C 0 km/h
840 02-07-2010 00:03:18 24.1 C 8.53 g/m*3 24.1 C 0 km/h
841 02-07-2010 00:15:18 23.7 C 8.98 g/m*3 23.7 C 0 km/h
842 02-07-2010 00:27:19 23.6 C 9.15 g/m*3 23.6 C 0 km/h
843 02-07-2010 00:39:19 23.1 C 8.68 g/m*3 23.1 C 0 km/h
844 02-07-2010 00:51:19 22.9 C 8.79 g/m*3 22.9 C 0 km/h
845 02-07-2010 01:03:19 22.8 C 8.94 g/m*3 22.8 C 0 km/h
846 02-07-2010 01:15:19 22.6 C 9.04 g/m*3 22.6 C 0 km/h
847 02-07-2010 01:27:19 22.4 C 9.14 g/m*3 22.4 C 0 km/h
848 02-07-2010 01:39:19 22.4 C 9.14 g/m*3 22.4 C 0 km/h
849 02-07-2010 01:51:19 22.1 C 8.98 g/m*3 22.1 C 0 km/h
850 02-07-2010 02:03:19 21.7 C 8.97 g/m*3 21.7 C 0 km/h
Sensor: Nr:Datum:Temp:Abs-Feuchte:Windchill:Wind:
Aussen-T/F 851 02-07-2010 02:15:19 21.6 C 9.29 g/m*3 21.6 C 0 km/h
852 02-07-2010 02:27:19 21.3 C 8.76 g/m*3 21.3 C 0 km/h
853 02-07-2010 02:39:19 21.1 C 8.84 g/m*3 21.1 C 0 km/h
854 02-07-2010 02:51:19 20.9 C 8.92 g/m*3 20.9 C 0 km/h
855 02-07-2010 03:03:19 20.9 C 8.92 g/m*3 20.9 C 0 km/h
856 02-07-2010 03:15:19 20.7 C 9.18 g/m*3 20.7 C 0 km/h
857 02-07-2010 03:27:19 20.6 C 9.13 g/m*3 20.6 C 0 km/h
858 02-07-2010 03:39:19 20.4 C 9.2 g/m*3 20.4 C 0 km/h
859 02-07-2010 03:51:19 20.4 C 9.38 g/m*3 20.4 C 0 km/h
860 02-07-2010 04:03:19 20.1 C 9.39 g/m*3 20.1 C 0 km/h
861 02-07-2010 04:15:19 19.9 C 9.62 g/m*3 19.9 C 0 km/h
862 02-07-2010 04:27:19 19.6 C 9.79 g/m*3 19.6 C 0 km/h
863 02-07-2010 04:39:19 19.5 C 9.73 g/m*3 19.5 C 0 km/h
864 02-07-2010 04:51:19 19.3 C 9.79 g/m*3 19.3 C 0 km/h
865 02-07-2010 05:03:20 19.2 C 9.73 g/m*3 19.2 C 0 km/h
866 02-07-2010 05:15:20 19 C 9.61 g/m*3 19 C 0 km/h
867 02-07-2010 05:27:20 18.8 C 9.99 g/m*3 18.8 C 0 km/h
868 02-07-2010 05:39:20 18.7 C 9.77 g/m*3 18.7 C 0 km/h
869 02-07-2010 05:51:20 18.6 C 9.87 g/m*3 18.6 C 0 km/h
870 02-07-2010 06:03:20 18.6 C 10.03 g/m*3 18.6 C 0 km/h
871 02-07-2010 06:15:20 18.6 C 10.19 g/m*3 18.6 C 0 km/h
872 02-07-2010 06:27:20 18.6 C 10.19 g/m*3 18.6 C 0 km/h
873 02-07-2010 06:39:20 18.7 C 10.41 g/m*3 18.7 C 0 km/h
874 02-07-2010 06:51:04 18.9 C 10.53 g/m*3 18.9 C 0 km/h
875 02-07-2010 07:03:02 19.1 C 10.33 g/m*3 19.1 C 0 km/h
Sensor: Nr:Datum:Temp:Abs-Feuchte:Windchill:Wind:
Aussen-T/F 876 02-07-2010 07:15:02 19.4 C 10.51 g/m*3 19.4 C 0 km/h
877 02-07-2010 07:27:02 19.5 C 10.41 g/m*3 19.5 C 0 km/h
878 02-07-2010 07:39:02 19.7 C 10.7 g/m*3 19.7 C 0 km/h
879 02-07-2010 07:51:02 19.9 C 10.65 g/m*3 19.9 C 0 km/h
880 02-07-2010 08:03:02 20.1 C 10.43 g/m*3 20.1 C 0 km/h
881 02-07-2010 08:15:02 20.4 C 10.44 g/m*3 20.4 C 0 km/h
882 02-07-2010 08:27:02 20.8 C 10.5 g/m*3 20.8 C 0 km/h
883 02-07-2010 08:39:02 21.2 C 10.56 g/m*3 21.2 C 0 km/h
884 02-07-2010 08:51:02 21.8 C 10.74 g/m*3 21.8 C 0 km/h
885 02-07-2010 09:03:02 22.6 C 10.65 g/m*3 22.6 C 0 km/h
886 02-07-2010 09:15:02 23.2 C 10.6 g/m*3 23.2 C 0 km/h
887 02-07-2010 09:27:02 24.1 C 10.72 g/m*3 24.1 C 0 km/h
888 02-07-2010 09:39:02 24.9 C 10.76 g/m*3 24.9 C 0 km/h
889 02-07-2010 09:51:03 25.9 C 10.65 g/m*3 25.9 C 0 km/h
890 02-07-2010 10:03:02 26.2 C 10.09 g/m*3 26.2 C 0 km/h
891 02-07-2010 10:15:03 26.9 C 10.49 g/m*3 26.9 C 0 km/h
892 02-07-2010 10:27:03 27.7 C 10.43 g/m*3 27.7 C 0 km/h
893 02-07-2010 10:39:02 28.9 C 10.57 g/m*3 28.9 C 0 km/h
894 02-07-2010 10:51:02 29.6 C 10.39 g/m*3 29.6 C 0 km/h
895 02-07-2010 11:03:01 30.1 C 10.37 g/m*3 30.1 C 0 km/h
896 02-07-2010 11:15:02 29.8 C 9.9 g/m*3 29.8 C 0 km/h
897 02-07-2010 11:27:02 30.1 C 10.06 g/m*3 30.1 C 0 km/h
898 02-07-2010 11:39:02 30.3 C 9.55 g/m*3 30.3 C 0 km/h
899 02-07-2010 11:51:02 30.6 C 9.71 g/m*3 30.6 C 0 km/h
900 02-07-2010 12:03:03 31.2 C 10.03 g/m*3 31.2 C 0 km/h
Sensor: Nr:Datum:Temp:Abs-Feuchte:Windchill:Wind:
Aussen-T/F 901 02-07-2010 12:15:02 31.5 C 8.55 g/m*3 31.5 C 0 km/h
902 02-07-2010 12:27:02 32 C 7.09 g/m*3 32 C 0 km/h
903 02-07-2010 12:39:03 32.9 C 7.08 g/m*3 32.9 C 0 km/h
904 02-07-2010 12:51:02 33 C 7.12 g/m*3 33 C 0 km/h
905 02-07-2010 13:03:02 32.7 C 7.01 g/m*3 32.7 C 0 km/h
906 02-07-2010 13:15:02 33.3 C 7.23 g/m*3 33.3 C 0 km/h
907 02-07-2010 13:27:02 33.7 C 7.39 g/m*3 33.7 C 0 km/h
908 02-07-2010 13:39:02 33.9 C 7.46 g/m*3 33.9 C 0 km/h
909 02-07-2010 13:51:02 33.2 C 7.2 g/m*3 33.2 C 0 km/h
910 02-07-2010 14:03:02 32.4 C 7.59 g/m*3 32.4 C 0 km/h
911 02-07-2010 14:15:03 32.9 C 7.79 g/m*3 32.9 C 0 km/h
912 02-07-2010 14:27:03 32.9 C 7.08 g/m*3 32.9 C 0 km/h
913 02-07-2010 14:39:02 32.8 C 7.04 g/m*3 32.8 C 0 km/h
914 02-07-2010 14:51:01 32.9 C 7.44 g/m*3 32.9 C 0 km/h
915 02-07-2010 15:03:01 32.4 C 6.9 g/m*3 32.4 C 0 km/h
916 02-07-2010 15:15:02 32.4 C 8.62 g/m*3 32.4 C 0 km/h
917 02-07-2010 15:27:02 31.9 C 8.73 g/m*3 31.9 C 0 km/h
918 02-07-2010 15:39:01 32 C 9.11 g/m*3 32 C 0 km/h
919 02-07-2010 15:51:03 32.3 C 9.26 g/m*3 32.3 C 0 km/h
920 02-07-2010 16:03:02 32.1 C 9.5 g/m*3 32.1 C 0 km/h
921 02-07-2010 16:15:03 31.9 C 9.74 g/m*3 31.9 C 0 km/h
922 02-07-2010 16:27:03 32.3 C 8.92 g/m*3 32.3 C 0 km/h
923 02-07-2010 16:39:02 32.9 C 8.14 g/m*3 32.9 C 0 km/h
924 02-07-2010 16:51:02 33.1 C 7.52 g/m*3 33.1 C 0 km/h
925 02-07-2010 17:03:02 33.7 C 7.39 g/m*3 33.7 C 0 km/h
Sensor: Nr:Datum:Temp:Abs-Feuchte:Windchill:Wind:
Aussen-T/F 926 02-07-2010 17:15:02 34.2 C 7.58 g/m*3 34.2 C 0 km/h
927 02-07-2010 17:27:02 34.6 C 7.74 g/m*3 34.6 C 0 km/h
928 02-07-2010 17:39:02 34.4 C 7.66 g/m*3 34.4 C 0 km/h
929 02-07-2010 17:51:02 34.2 C 7.58 g/m*3 34.2 C 0 km/h
930 02-07-2010 18:03:01 34.1 C 7.54 g/m*3 34.1 C 0 km/h
931 02-07-2010 18:15:02 34 C 7.5 g/m*3 34 C 0 km/h
932 02-07-2010 18:27:02 33.5 C 7.31 g/m*3 33.5 C 0 km/h
933 02-07-2010 18:39:02 33.3 C 7.23 g/m*3 33.3 C 0 km/h
934 02-07-2010 18:51:01 33.6 C 7.35 g/m*3 33.6 C 0 km/h
935 02-07-2010 19:03:02 33.4 C 7.27 g/m*3 33.4 C 0 km/h
936 02-07-2010 19:15:01 33.5 C 7.31 g/m*3 33.5 C 0 km/h
937 02-07-2010 19:27:01 34 C 7.5 g/m*3 34 C 0 km/h
938 02-07-2010 19:39:02 34.1 C 7.54 g/m*3 34.1 C 0 km/h
939 02-07-2010 19:51:02 33.8 C 7.43 g/m*3 33.8 C 0 km/h
940 02-07-2010 20:03:02 33.5 C 7.31 g/m*3 33.5 C 0 km/h
941 02-07-2010 20:15:01 33 C 7.48 g/m*3 33 C 0 km/h
942 02-07-2010 20:27:01 32.7 C 7.71 g/m*3 32.7 C 0 km/h
943 02-07-2010 20:39:02 32 C 8.78 g/m*3 32 C 0 km/h
944 02-07-2010 20:51:02 31.6 C 8.92 g/m*3 31.6 C 0 km/h
945 02-07-2010 21:03:02 31 C 8.64 g/m*3 31 C 0 km/h
946 02-07-2010 21:15:03 30.3 C 8.32 g/m*3 30.3 C 0 km/h
947 02-07-2010 21:27:03 29.4 C 8.51 g/m*3 29.4 C 0 km/h
948 02-07-2010 21:39:02 29.1 C 8.38 g/m*3 29.1 C 0 km/h
949 02-07-2010 21:51:03 28.6 C 7.87 g/m*3 28.6 C 0 km/h
950 02-07-2010 22:03:02 27.8 C 8.34 g/m*3 27.8 C 0 km/h
Sensor: Nr:Datum:Temp:Abs-Feuchte:Windchill:Wind:
Aussen-T/F 951 02-07-2010 22:15:03 27.4 C 7.89 g/m*3 27.4 C 0 km/h
952 02-07-2010 22:27:03 27.2 C 7.81 g/m*3 27.2 C 0 km/h
953 02-07-2010 22:39:02 26.8 C 7.89 g/m*3 26.8 C 0 km/h
954 02-07-2010 22:52:03 26.3 C 7.67 g/m*3 26.3 C 0 km/h
955 02-07-2010 23:04:03 26 C 7.79 g/m*3 26 C 0 km/h
956 02-07-2010 23:16:03 25.8 C 8.19 g/m*3 25.8 C 0 km/h
957 02-07-2010 23:28:03 25.6 C 8.33 g/m*3 25.6 C 0 km/h
958 02-07-2010 23:40:03 25.5 C 8.29 g/m*3 25.5 C 0 km/h
959 02-07-2010 23:52:03 25.2 C 8.38 g/m*3 25.2 C 0 km/h
960 03-07-2010 00:04:03 25 C 8.52 g/m*3 25 C 0 km/h
961 03-07-2010 00:16:03 24.7 C 8.83 g/m*3 24.7 C 0 km/h
962 03-07-2010 00:28:03 24.4 C 9.12 g/m*3 24.4 C 0 km/h
963 03-07-2010 00:40:03 24.2 C 9.24 g/m*3 24.2 C 0 km/h
964 03-07-2010 00:52:03 24 C 9.14 g/m*3 24 C 0 km/h
965 03-07-2010 01:04:03 23.8 C 9.68 g/m*3 23.8 C 0 km/h
966 03-07-2010 01:16:03 23.6 C 9.78 g/m*3 23.6 C 0 km/h
967 03-07-2010 01:28:03 23.4 C 9.67 g/m*3 23.4 C 0 km/h
968 03-07-2010 01:40:03 23.1 C 9.92 g/m*3 23.1 C 0 km/h
969 03-07-2010 01:52:03 23 C 10.07 g/m*3 23 C 0 km/h
970 03-07-2010 02:04:04 22.8 C 10.36 g/m*3 22.8 C 0 km/h
971 03-07-2010 02:16:04 22.6 C 10.45 g/m*3 22.6 C 0 km/h
972 03-07-2010 02:28:04 22.5 C 10.39 g/m*3 22.5 C 0 km/h
973 03-07-2010 02:40:04 22.5 C 10.39 g/m*3 22.5 C 0 km/h
974 03-07-2010 02:52:04 22.2 C 10.6 g/m*3 22.2 C 0 km/h
975 03-07-2010 03:04:04 22 C 10.48 g/m*3 22 C 0 km/h
Sensor: Nr:Datum:Temp:Abs-Feuchte:Windchill:Wind:
Aussen-T/F 976 03-07-2010 03:16:04 21.7 C 10.68 g/m*3 21.7 C 0 km/h
977 03-07-2010 03:28:04 21.6 C 10.81 g/m*3 21.6 C 0 km/h
978 03-07-2010 03:40:04 21.4 C 10.87 g/m*3 21.4 C 0 km/h
979 03-07-2010 03:52:04 21.2 C 10.93 g/m*3 21.2 C 0 km/h
980 03-07-2010 04:04:04 21 C 10.81 g/m*3 21 C 0 km/h
981 03-07-2010 04:16:04 20.8 C 11.05 g/m*3 20.8 C 0 km/h
982 03-07-2010 04:28:04 20.8 C 11.23 g/m*3 20.8 C 0 km/h
983 03-07-2010 04:40:04 20.5 C 11.03 g/m*3 20.5 C 0 km/h
984 03-07-2010 04:52:04 20.3 C 11.08 g/m*3 20.3 C 0 km/h
985 03-07-2010 05:04:04 20.3 C 11.08 g/m*3 20.3 C 0 km/h
986 03-07-2010 05:16:04 20.1 C 11.13 g/m*3 20.1 C 0 km/h
987 03-07-2010 05:28:04 19.9 C 11.34 g/m*3 19.9 C 0 km/h
988 03-07-2010 05:40:04 19.9 C 11.51 g/m*3 19.9 C 0 km/h
989 03-07-2010 05:52:04 19.9 C 11.51 g/m*3 19.9 C 0 km/h
990 03-07-2010 06:04:05 20 C 11.23 g/m*3 20 C 0 km/h
991 03-07-2010 06:16:05 20 C 11.41 g/m*3 20 C 0 km/h
992 03-07-2010 06:28:05 20.2 C 11.54 g/m*3 20.2 C 0 km/h
993 03-07-2010 06:40:05 20.2 C 11.54 g/m*3 20.2 C 0 km/h
994 03-07-2010 06:52:02 20.5 C 11.74 g/m*3 20.5 C 0 km/h
995 03-07-2010 07:04:01 20.9 C 11.84 g/m*3 20.9 C 0 km/h
996 03-07-2010 07:16:02 21.1 C 11.61 g/m*3 21.1 C 0 km/h
997 03-07-2010 07:28:02 21.2 C 11.68 g/m*3 21.2 C 0 km/h
998 03-07-2010 07:40:02 21.6 C 11.76 g/m*3 21.6 C 0 km/h
999 03-07-2010 07:52:02 21.8 C 11.9 g/m*3 21.8 C 0 km/h
1000 03-07-2010 08:04:02 22.1 C 11.71 g/m*3 22.1 C 0 km/h
Sensor: Nr:Datum:Temp:Abs-Feuchte:Windchill:Wind:
Aussen-T/F 1001 03-07-2010 08:16:02 22.3 C 11.65 g/m*3 22.3 C 0 km/h
1002 03-07-2010 08:28:02 22.5 C 11.78 g/m*3 22.5 C 0 km/h
1003 03-07-2010 08:40:02 22.8 C 11.99 g/m*3 22.8 C 0 km/h
1004 03-07-2010 08:52:02 23.2 C 11.85 g/m*3 23.2 C 0 km/h
1005 03-07-2010 09:04:02 23.9 C 12.11 g/m*3 23.9 C 0 km/h
1006 03-07-2010 09:16:01 24.5 C 11.86 g/m*3 24.5 C 0 km/h
1007 03-07-2010 09:28:01 25.1 C 12.04 g/m*3 25.1 C 0 km/h
1008 03-07-2010 09:40:02 25.8 C 12.28 g/m*3 25.8 C 0 km/h
1009 03-07-2010 09:52:02 26.5 C 12.27 g/m*3 26.5 C 0 km/h
1010 03-07-2010 10:04:02 27.3 C 12.56 g/m*3 27.3 C 0 km/h
1011 03-07-2010 10:16:02 28.1 C 12.03 g/m*3 28.1 C 0 km/h
1012 03-07-2010 10:28:02 29 C 12.06 g/m*3 29 C 0 km/h
1013 03-07-2010 10:40:02 29.5 C 11.81 g/m*3 29.5 C 0 km/h
1014 03-07-2010 10:52:02 30.3 C 12.02 g/m*3 30.3 C 0 km/h
1015 03-07-2010 11:04:03 30.7 C 11.97 g/m*3 30.7 C 0 km/h
1016 03-07-2010 11:16:03 30.9 C 11.78 g/m*3 30.9 C 0 km/h
1017 03-07-2010 11:28:03 31.1 C 10.62 g/m*3 31.1 C 0 km/h
1018 03-07-2010 11:40:02 31.6 C 10.24 g/m*3 31.6 C 0 km/h
1019 03-07-2010 11:52:01 32.2 C 9.55 g/m*3 32.2 C 0 km/h
1020 03-07-2010 12:04:02 32.7 C 8.76 g/m*3 32.7 C 0 km/h
1021 03-07-2010 12:16:01 33.3 C 7.23 g/m*3 33.3 C 0 km/h
1022 03-07-2010 12:28:01 33.1 C 7.16 g/m*3 33.1 C 0 km/h
1023 03-07-2010 12:40:02 33.4 C 7.27 g/m*3 33.4 C 0 km/h
1024 03-07-2010 12:52:02 34 C 7.5 g/m*3 34 C 0 km/h
1025 03-07-2010 13:04:02 34 C 7.5 g/m*3 34 C 0 km/h
Sensor: Nr:Datum:Temp:Abs-Feuchte:Windchill:Wind:
Aussen-T/F 1026 03-07-2010 13:16:01 34.3 C 7.62 g/m*3 34.3 C 0 km/h
1027 03-07-2010 13:28:01 33.9 C 7.46 g/m*3 33.9 C 0 km/h
1028 03-07-2010 13:40:02 32.6 C 8.36 g/m*3 32.6 C 0 km/h
1029 03-07-2010 13:52:02 34.1 C 7.54 g/m*3 34.1 C 0 km/h
1030 03-07-2010 14:04:02 34.2 C 7.58 g/m*3 34.2 C 0 km/h
1031 03-07-2010 14:16:01 33.7 C 7.39 g/m*3 33.7 C 0 km/h
1032 03-07-2010 14:28:01 33.5 C 7.31 g/m*3 33.5 C 0 km/h
1033 03-07-2010 14:40:02 33.8 C 7.43 g/m*3 33.8 C 0 km/h
1034 03-07-2010 14:52:02 33.4 C 7.27 g/m*3 33.4 C 0 km/h
1035 03-07-2010 15:04:01 32.8 C 7.4 g/m*3 32.8 C 0 km/h
1036 03-07-2010 15:16:02 32.3 C 8.58 g/m*3 32.3 C 0 km/h
1037 03-07-2010 15:28:02 31.7 C 7.64 g/m*3 31.7 C 0 km/h
1038 03-07-2010 15:40:02 31.5 C 7.56 g/m*3 31.5 C 0 km/h
1039 03-07-2010 15:52:02 31.4 C 7.85 g/m*3 31.4 C 0 km/h
1040 03-07-2010 16:04:03 31.2 C 8.09 g/m*3 31.2 C 0 km/h
1041 03-07-2010 16:16:02 31.5 C 8.22 g/m*3 31.5 C 0 km/h
1042 03-07-2010 16:28:02 31 C 8.32 g/m*3 31 C 0 km/h
1043 03-07-2010 16:40:03 30.2 C 9.2 g/m*3 30.2 C 0 km/h
1044 03-07-2010 16:52:02 30.1 C 9.76 g/m*3 30.1 C 0 km/h
1045 03-07-2010 17:04:02 30.2 C 10.42 g/m*3 30.2 C 0 km/h
1046 03-07-2010 17:16:02 29.7 C 10.14 g/m*3 29.7 C 0 km/h
1047 03-07-2010 17:28:02 29.5 C 9.44 g/m*3 29.5 C 0 km/h
1048 03-07-2010 17:40:02 29.5 C 9.74 g/m*3 29.5 C 0 km/h
1049 03-07-2010 17:52:01 28.1 C 9.57 g/m*3 28.1 C 0 km/h
1050 03-07-2010 18:04:01 27.3 C 9.94 g/m*3 27.3 C 0 km/h
Sensor: Nr:Datum:Temp:Abs-Feuchte:Windchill:Wind:
Aussen-T/F 1051 03-07-2010 18:16:02 26.3 C 10.64 g/m*3 26.3 C 0 km/h
1052 03-07-2010 18:28:02 26.2 C 11.08 g/m*3 26.2 C 0 km/h
1053 03-07-2010 18:40:01 26.1 C 11.02 g/m*3 26.1 C 0 km/h
1054 03-07-2010 18:52:01 26.5 C 10.76 g/m*3 26.5 C 0 km/h
1055 03-07-2010 19:04:02 26.6 C 11.08 g/m*3 26.6 C 0 km/h
1056 03-07-2010 19:16:02 27.1 C 11.13 g/m*3 27.1 C 0 km/h
1057 03-07-2010 19:28:02 26.8 C 11.71 g/m*3 26.8 C 0 km/h
1058 03-07-2010 19:40:02 27.5 C 11.64 g/m*3 27.5 C 0 km/h
1059 03-07-2010 19:52:02 27.5 C 11.64 g/m*3 27.5 C 0 km/h
1060 03-07-2010 20:04:02 27.8 C 12.1 g/m*3 27.8 C 0 km/h
1061 03-07-2010 20:16:02 28.3 C 11.89 g/m*3 28.3 C 0 km/h
1062 03-07-2010 20:28:02 28.2 C 12.1 g/m*3 28.2 C 0 km/h
1063 03-07-2010 20:40:01 28.4 C 11.95 g/m*3 28.4 C 0 km/h
1064 03-07-2010 20:52:02 27.7 C 12.3 g/m*3 27.7 C 0 km/h
1065 03-07-2010 21:04:01 27.3 C 12.82 g/m*3 27.3 C 0 km/h
1066 03-07-2010 21:16:02 26.6 C 13.09 g/m*3 26.6 C 0 km/h
1067 03-07-2010 21:28:02 26.1 C 13.46 g/m*3 26.1 C 0 km/h
1068 03-07-2010 21:40:02 25.8 C 13.72 g/m*3 25.8 C 0 km/h
1069 03-07-2010 21:52:02 25.4 C 13.89 g/m*3 25.4 C 0 km/h
1070 03-07-2010 22:04:03 25.6 C 14.05 g/m*3 25.6 C 0 km/h
1071 03-07-2010 22:16:02 25.4 C 14.36 g/m*3 25.4 C 0 km/h
1072 03-07-2010 22:28:02 25 C 14.04 g/m*3 25 C 0 km/h
1073 03-07-2010 22:40:02 24.6 C 13.95 g/m*3 24.6 C 0 km/h
1074 03-07-2010 22:52:01 24.5 C 13.88 g/m*3 24.5 C 0 km/h
1075 03-07-2010 23:04:02 24.2 C 13.64 g/m*3 24.2 C 0 km/h
Sensor: Nr:Datum:Temp:Abs-Feuchte:Windchill:Wind:
Aussen-T/F 1076 03-07-2010 23:16:01 24.1 C 14 g/m*3 24.1 C 0 km/h
1077 03-07-2010 23:28:01 24.1 C 13.78 g/m*3 24.1 C 0 km/h
1078 03-07-2010 23:40:02 24 C 13.71 g/m*3 24 C 0 km/h
1079 03-07-2010 23:52:01 23.8 C 13.77 g/m*3 23.8 C 0 km/h
1080 04-07-2010 00:04:02 23.7 C 13.9 g/m*3 23.7 C 0 km/h
1081 04-07-2010 00:16:01 23.5 C 13.96 g/m*3 23.5 C 0 km/h
1082 04-07-2010 00:28:01 23.4 C 14.09 g/m*3 23.4 C 0 km/h
1083 04-07-2010 00:40:02 23.4 C 14.09 g/m*3 23.4 C 0 km/h
1084 04-07-2010 00:52:01 23.3 C 14.01 g/m*3 23.3 C 0 km/h
1085 04-07-2010 01:04:02 23.2 C 13.93 g/m*3 23.2 C 0 km/h
1086 04-07-2010 01:16:01 23.1 C 13.85 g/m*3 23.1 C 0 km/h
1087 04-07-2010 01:28:01 22.9 C 13.9 g/m*3 22.9 C 0 km/h
1088 04-07-2010 01:41:02 22.7 C 13.74 g/m*3 22.7 C 0 km/h
1089 04-07-2010 01:53:02 22.7 C 13.54 g/m*3 22.7 C 0 km/h
1090 04-07-2010 02:05:02 22.6 C 13.66 g/m*3 22.6 C 0 km/h
1091 04-07-2010 02:17:02 22.4 C 13.5 g/m*3 22.4 C 0 km/h
1092 04-07-2010 02:29:02 22.4 C 13.7 g/m*3 22.4 C 0 km/h
1093 04-07-2010 02:41:02 22.3 C 13.62 g/m*3 22.3 C 0 km/h
1094 04-07-2010 02:53:02 22.2 C 13.55 g/m*3 22.2 C 0 km/h
1095 04-07-2010 03:05:02 22.2 C 13.74 g/m*3 22.2 C 0 km/h
1096 04-07-2010 03:17:02 22.2 C 13.94 g/m*3 22.2 C 0 km/h
1097 04-07-2010 03:29:02 22.2 C 13.74 g/m*3 22.2 C 0 km/h
1098 04-07-2010 03:41:02 22.2 C 13.74 g/m*3 22.2 C 0 km/h
1099 04-07-2010 03:53:02 22 C 13.78 g/m*3 22 C 0 km/h
1100 04-07-2010 04:05:02 21.8 C 14.01 g/m*3 21.8 C 0 km/h
Sensor: Nr:Datum:Temp:Abs-Feuchte:Windchill:Wind:
Aussen-T/F 1101 04-07-2010 04:17:02 21.7 C 13.93 g/m*3 21.7 C 0 km/h
1102 04-07-2010 04:29:02 21.7 C 13.93 g/m*3 21.7 C 0 km/h
1103 04-07-2010 04:41:02 21.6 C 13.85 g/m*3 21.6 C 0 km/h
1104 04-07-2010 04:53:02 21.3 C 13.79 g/m*3 21.3 C 0 km/h
1105 04-07-2010 05:05:02 21.1 C 13.82 g/m*3 21.1 C 0 km/h
1106 04-07-2010 05:17:02 21 C 13.92 g/m*3 21 C 0 km/h
1107 04-07-2010 05:29:02 21 C 13.92 g/m*3 21 C 0 km/h
1108 04-07-2010 05:41:03 21.2 C 14.08 g/m*3 21.2 C 0 km/h
1109 04-07-2010 05:53:03 21.3 C 13.98 g/m*3 21.3 C 0 km/h
1110 04-07-2010 06:05:03 21.5 C 13.95 g/m*3 21.5 C 0 km/h
1111 04-07-2010 06:17:03 21.5 C 13.95 g/m*3 21.5 C 0 km/h
1112 04-07-2010 06:29:03 21.6 C 14.03 g/m*3 21.6 C 0 km/h
1113 04-07-2010 06:41:03 21.8 C 14.01 g/m*3 21.8 C 0 km/h
1114 04-07-2010 06:53:03 21.8 C 14.01 g/m*3 21.8 C 0 km/h
1115 04-07-2010 07:05:03 22 C 13.97 g/m*3 22 C 0 km/h
1116 04-07-2010 07:17:03 22.1 C 13.86 g/m*3 22.1 C 0 km/h
1117 04-07-2010 07:29:03 22.1 C 13.86 g/m*3 22.1 C 0 km/h
1118 04-07-2010 07:41:03 22.5 C 13.98 g/m*3 22.5 C 0 km/h
1119 04-07-2010 07:53:03 23 C 13.77 g/m*3 23 C 0 km/h
1120 04-07-2010 08:05:03 23.2 C 13.72 g/m*3 23.2 C 0 km/h
1121 04-07-2010 08:17:03 22.9 C 13.49 g/m*3 22.9 C 0 km/h
1122 04-07-2010 08:29:03 23 C 13.36 g/m*3 23 C 0 km/h
1123 04-07-2010 08:41:03 23.4 C 13.46 g/m*3 23.4 C 0 km/h
1124 04-07-2010 08:53:03 23.3 C 13.17 g/m*3 23.3 C 0 km/h
1125 04-07-2010 09:05:03 23.4 C 12.83 g/m*3 23.4 C 0 km/h
Sensor: Nr:Datum:Temp:Abs-Feuchte:Windchill:Wind:
Aussen-T/F 1126 04-07-2010 09:17:03 23.4 C 12.83 g/m*3 23.4 C 0 km/h
1127 04-07-2010 09:29:03 23.9 C 13.2 g/m*3 23.9 C 0 km/h
1128 04-07-2010 09:41:03 23.6 C 12.76 g/m*3 23.6 C 0 km/h
1129 04-07-2010 09:53:04 23.4 C 13.04 g/m*3 23.4 C 0 km/h
1130 04-07-2010 10:05:04 23.9 C 12.76 g/m*3 23.9 C 0 km/h
1131 04-07-2010 10:17:02 24.1 C 12.91 g/m*3 24.1 C 0 km/h
1132 04-07-2010 10:29:02 24.2 C 12.54 g/m*3 24.2 C 0 km/h
1133 04-07-2010 10:41:03 24.8 C 12.52 g/m*3 24.8 C 0 km/h
1134 04-07-2010 10:53:02 25.1 C 12.27 g/m*3 25.1 C 0 km/h
1135 04-07-2010 11:05:01 24.3 C 12.17 g/m*3 24.3 C 0 km/h
1136 04-07-2010 11:17:02 25.4 C 12.24 g/m*3 25.4 C 0 km/h
1137 04-07-2010 11:29:02 25.5 C 12.31 g/m*3 25.5 C 0 km/h
1138 04-07-2010 11:41:02 27.1 C 11.9 g/m*3 27.1 C 0 km/h
1139 04-07-2010 11:53:02 27.8 C 11.57 g/m*3 27.8 C 0 km/h
1140 04-07-2010 12:05:03 27 C 11.32 g/m*3 27 C 0 km/h
1141 04-07-2010 12:17:02 26.4 C 11.45 g/m*3 26.4 C 0 km/h
1142 04-07-2010 12:29:02 27.6 C 11.44 g/m*3 27.6 C 0 km/h
1143 04-07-2010 12:41:02 29.4 C 10.27 g/m*3 29.4 C 0 km/h
1144 04-07-2010 12:53:02 29.3 C 10.22 g/m*3 29.3 C 0 km/h
1145 04-07-2010 13:05:02 29.5 C 10.33 g/m*3 29.5 C 0 km/h
1146 04-07-2010 13:17:01 29.3 C 10.22 g/m*3 29.3 C 0 km/h
1147 04-07-2010 13:29:01 31.2 C 9.7 g/m*3 31.2 C 0 km/h
1148 04-07-2010 13:41:02 31.2 C 8.73 g/m*3 31.2 C 0 km/h
1149 04-07-2010 13:53:02 30.5 C 9.03 g/m*3 30.5 C 0 km/h
1150 04-07-2010 14:05:02 31 C 9.28 g/m*3 31 C 0 km/h
Sensor: Nr:Datum:Temp:Abs-Feuchte:Windchill:Wind:
Aussen-T/F 1151 04-07-2010 14:17:02 31 C 8.96 g/m*3 31 C 0 km/h
1152 04-07-2010 14:29:02 30.5 C 9.66 g/m*3 30.5 C 0 km/h
1153 04-07-2010 14:41:02 30 C 9.7 g/m*3 30 C 0 km/h
1154 04-07-2010 14:53:02 30.3 C 9.86 g/m*3 30.3 C 0 km/h
1155 04-07-2010 15:05:02 31.5 C 8.88 g/m*3 31.5 C 0 km/h
1156 04-07-2010 15:17:02 32.1 C 8.48 g/m*3 32.1 C 0 km/h
1157 04-07-2010 15:29:02 32 C 8.44 g/m*3 32 C 0 km/h
1158 04-07-2010 15:41:02 32.3 C 8.23 g/m*3 32.3 C 0 km/h
1159 04-07-2010 15:53:02 32 C 8.44 g/m*3 32 C 0 km/h
1160 04-07-2010 16:05:02 32.4 C 7.93 g/m*3 32.4 C 0 km/h
1161 04-07-2010 16:17:03 31.8 C 8.02 g/m*3 31.8 C 0 km/h
1162 04-07-2010 16:29:03 32.2 C 7.85 g/m*3 32.2 C 0 km/h
1163 04-07-2010 16:41:02 32.3 C 7.89 g/m*3 32.3 C 0 km/h
1164 04-07-2010 16:53:02 32.4 C 7.59 g/m*3 32.4 C 0 km/h
1165 04-07-2010 17:05:02 32.1 C 7.81 g/m*3 32.1 C 0 km/h
1166 04-07-2010 17:17:02 31.8 C 7.68 g/m*3 31.8 C 0 km/h
1167 04-07-2010 17:29:02 32.8 C 7.4 g/m*3 32.8 C 0 km/h
1168 04-07-2010 17:41:02 32.8 C 7.4 g/m*3 32.8 C 0 km/h
1169 04-07-2010 17:53:02 32.9 C 7.44 g/m*3 32.9 C 0 km/h
1170 04-07-2010 18:05:02 32.9 C 7.44 g/m*3 32.9 C 0 km/h
1171 04-07-2010 18:17:02 32.9 C 7.44 g/m*3 32.9 C 0 km/h
1172 04-07-2010 18:29:03 32.3 C 7.55 g/m*3 32.3 C 0 km/h
1173 04-07-2010 18:41:01 31.9 C 7.72 g/m*3 31.9 C 0 km/h
1174 04-07-2010 18:53:02 32.5 C 7.63 g/m*3 32.5 C 0 km/h
1175 04-07-2010 19:05:01 31.2 C 8.41 g/m*3 31.2 C 0 km/h
Sensor: Nr:Datum:Temp:Abs-Feuchte:Windchill:Wind:
Aussen-T/F 1176 04-07-2010 19:17:02 30 C 9.1 g/m*3 30 C 0 km/h
1177 04-07-2010 19:29:02 30.1 C 9.45 g/m*3 30.1 C 0 km/h
1178 04-07-2010 19:41:02 31.3 C 8.78 g/m*3 31.3 C 0 km/h
1179 04-07-2010 19:53:02 32 C 7.76 g/m*3 32 C 0 km/h
1180 04-07-2010 20:05:01 31.5 C 8.55 g/m*3 31.5 C 0 km/h
1181 04-07-2010 20:17:01 31.6 C 8.26 g/m*3 31.6 C 0 km/h
1182 04-07-2010 20:29:01 31.7 C 8.64 g/m*3 31.7 C 0 km/h
1183 04-07-2010 20:41:02 30.8 C 8.86 g/m*3 30.8 C 0 km/h
1184 04-07-2010 20:53:02 29.7 C 9.55 g/m*3 29.7 C 0 km/h
1185 04-07-2010 21:05:01 28.3 C 9.4 g/m*3 28.3 C 0 km/h
1186 04-07-2010 21:17:02 27.8 C 9.68 g/m*3 27.8 C 0 km/h
1187 04-07-2010 21:29:02 27.9 C 10.01 g/m*3 27.9 C 0 km/h
1188 04-07-2010 21:41:02 27.4 C 9.74 g/m*3 27.4 C 0 km/h
1189 04-07-2010 21:53:01 27.3 C 9.42 g/m*3 27.3 C 0 km/h
1190 04-07-2010 22:05:02 26.9 C 9.73 g/m*3 26.9 C 0 km/h
1191 04-07-2010 22:17:01 26.6 C 9.82 g/m*3 26.6 C 0 km/h
1192 04-07-2010 22:29:01 26.4 C 9.96 g/m*3 26.4 C 0 km/h
1193 04-07-2010 22:41:02 26.2 C 9.35 g/m*3 26.2 C 0 km/h
1194 04-07-2010 22:54:03 26.1 C 9.06 g/m*3 26.1 C 0 km/h
1195 04-07-2010 23:06:03 26.1 C 9.06 g/m*3 26.1 C 0 km/h
1196 04-07-2010 23:18:03 26.1 C 9.3 g/m*3 26.1 C 0 km/h
1197 04-07-2010 23:30:03 25.9 C 9.44 g/m*3 25.9 C 0 km/h
1198 04-07-2010 23:42:03 25.7 C 9.58 g/m*3 25.7 C 0 km/h
1199 04-07-2010 23:54:03 25.2 C 8.85 g/m*3 25.2 C 0 km/h
1200 05-07-2010 00:06:03 24.7 C 8.6 g/m*3 24.7 C 0 km/h
Sensor: Nr:Datum:Temp:Abs-Feuchte:Windchill:Wind:
Aussen-T/F 1201 05-07-2010 00:18:03 24.5 C 8.06 g/m*3 24.5 C 0 km/h
1202 05-07-2010 00:30:03 24.4 C 8.46 g/m*3 24.4 C 0 km/h
1203 05-07-2010 00:42:03 24.1 C 7.88 g/m*3 24.1 C 0 km/h
1204 05-07-2010 00:54:03 24 C 7.83 g/m*3 24 C 0 km/h
1205 05-07-2010 01:06:03 23.9 C 7.57 g/m*3 23.9 C 0 km/h
1206 05-07-2010 01:18:04 23.8 C 7.1 g/m*3 23.8 C 0 km/h
1207 05-07-2010 01:30:04 23.3 C 6.9 g/m*3 23.3 C 0 km/h
1208 05-07-2010 01:42:04 22.9 C 7.15 g/m*3 22.9 C 0 km/h
1209 05-07-2010 01:54:04 22.4 C 6.95 g/m*3 22.4 C 0 km/h
1210 05-07-2010 02:06:04 22.5 C 7.19 g/m*3 22.5 C 0 km/h
1211 05-07-2010 02:18:04 22.2 C 7.07 g/m*3 22.2 C 0 km/h
1212 05-07-2010 02:30:04 21.9 C 6.95 g/m*3 21.9 C 0 km/h
1213 05-07-2010 02:42:04 21.7 C 7.25 g/m*3 21.7 C 0 km/h
1214 05-07-2010 02:54:04 21.4 C 6.94 g/m*3 21.4 C 0 km/h
1215 05-07-2010 03:06:04 21.5 C 7.17 g/m*3 21.5 C 0 km/h
1216 05-07-2010 03:18:04 21.2 C 7.04 g/m*3 21.2 C 0 km/h
1217 05-07-2010 03:30:04 20.8 C 6.7 g/m*3 20.8 C 0 km/h
1218 05-07-2010 03:42:04 20.8 C 6.52 g/m*3 20.8 C 0 km/h
1219 05-07-2010 03:54:04 20.8 C 6.7 g/m*3 20.8 C 0 km/h
1220 05-07-2010 04:06:04 20.5 C 6.41 g/m*3 20.5 C 0 km/h
1221 05-07-2010 04:18:04 20.3 C 6.51 g/m*3 20.3 C 0 km/h
1222 05-07-2010 04:30:04 20 C 6.22 g/m*3 20 C 0 km/h
1223 05-07-2010 04:42:04 19.7 C 6.11 g/m*3 19.7 C 0 km/h
1224 05-07-2010 04:54:04 19.3 C 6.14 g/m*3 19.3 C 0 km/h
1225 05-07-2010 05:06:04 19.1 C 6.23 g/m*3 19.1 C 0 km/h
Sensor: Nr:Datum:Temp:Abs-Feuchte:Windchill:Wind:
Aussen-T/F 1226 05-07-2010 05:18:04 18.9 C 6.32 g/m*3 18.9 C 0 km/h
1227 05-07-2010 05:30:05 18.9 C 6.32 g/m*3 18.9 C 0 km/h
1228 05-07-2010 05:42:05 18.8 C 6.28 g/m*3 18.8 C 0 km/h
1229 05-07-2010 05:54:05 18.6 C 6.37 g/m*3 18.6 C 0 km/h
1230 05-07-2010 06:06:05 18.5 C 6.33 g/m*3 18.5 C 0 km/h
1231 05-07-2010 06:18:05 18.4 C 6.45 g/m*3 18.4 C 0 km/h
1232 05-07-2010 06:30:05 18.4 C 6.61 g/m*3 18.4 C 0 km/h
1233 05-07-2010 06:42:05 18.2 C 7.15 g/m*3 18.2 C 0 km/h
1234 05-07-2010 06:54:05 18.2 C 7.31 g/m*3 18.2 C 0 km/h
1235 05-07-2010 07:06:02 18.3 C 7.35 g/m*3 18.3 C 0 km/h
1236 05-07-2010 07:18:03 18.3 C 7.66 g/m*3 18.3 C 0 km/h
1237 05-07-2010 07:30:03 18.4 C 7.55 g/m*3 18.4 C 0 km/h
1238 05-07-2010 07:42:02 18.5 C 7.44 g/m*3 18.5 C 0 km/h
1239 05-07-2010 07:54:02 18.7 C 7.36 g/m*3 18.7 C 0 km/h
1240 05-07-2010 08:06:02 18.9 C 7.45 g/m*3 18.9 C 0 km/h
1241 05-07-2010 08:18:03 19.2 C 7.09 g/m*3 19.2 C 0 km/h
1242 05-07-2010 08:30:03 19.4 C 6.84 g/m*3 19.4 C 0 km/h
1243 05-07-2010 08:42:02 19.6 C 6.92 g/m*3 19.6 C 0 km/h
1244 05-07-2010 08:54:03 19.9 C 6.7 g/m*3 19.9 C 0 km/h
1245 05-07-2010 09:06:02 20.3 C 6.33 g/m*3 20.3 C 0 km/h
1246 05-07-2010 09:18:02 20.8 C 6.88 g/m*3 20.8 C 0 km/h
1247 05-07-2010 09:30:02 21.4 C 6.75 g/m*3 21.4 C 0 km/h
1248 05-07-2010 09:42:02 21.8 C 6.72 g/m*3 21.8 C 0 km/h
1249 05-07-2010 09:54:02 22.1 C 6.64 g/m*3 22.1 C 0 km/h
1250 05-07-2010 10:06:01 22.7 C 6.06 g/m*3 22.7 C 0 km/h
Sensor: Nr:Datum:Temp:Abs-Feuchte:Windchill:Wind:
Aussen-T/F 1251 05-07-2010 10:18:02 23.3 C 6.48 g/m*3 23.3 C 0 km/h
1252 05-07-2010 10:30:03 23.3 C 6.48 g/m*3 23.3 C 0 km/h
1253 05-07-2010 10:42:01 24.4 C 6.45 g/m*3 24.4 C 0 km/h
1254 05-07-2010 10:54:02 24.8 C 6.6 g/m*3 24.8 C 0 km/h
1255 05-07-2010 11:06:01 24.9 C 6.87 g/m*3 24.9 C 0 km/h
1256 05-07-2010 11:18:01 26.8 C 6.62 g/m*3 26.8 C 0 km/h
1257 05-07-2010 11:30:01 27.7 C 6.69 g/m*3 27.7 C 0 km/h
1258 05-07-2010 11:42:01 26.5 C 6.26 g/m*3 26.5 C 0 km/h
1259 05-07-2010 11:54:02 26.8 C 6.62 g/m*3 26.8 C 0 km/h
1260 05-07-2010 12:06:02 27.4 C 6.58 g/m*3 27.4 C 0 km/h
1261 05-07-2010 12:18:02 28.2 C 6.32 g/m*3 28.2 C 0 km/h
1262 05-07-2010 12:30:02 28.1 C 6.56 g/m*3 28.1 C 0 km/h
1263 05-07-2010 12:42:02 28.2 C 6.6 g/m*3 28.2 C 0 km/h
1264 05-07-2010 12:54:02 27.8 C 6.99 g/m*3 27.8 C 0 km/h
1265 05-07-2010 13:06:02 27.6 C 7.45 g/m*3 27.6 C 0 km/h
1266 05-07-2010 13:18:01 29.6 C 7.42 g/m*3 29.6 C 0 km/h
1267 05-07-2010 13:30:01 28.9 C 7.43 g/m*3 28.9 C 0 km/h
1268 05-07-2010 13:42:02 27.1 C 7.76 g/m*3 27.1 C 0 km/h
1269 05-07-2010 13:54:02 26.2 C 7.63 g/m*3 26.2 C 0 km/h
1270 05-07-2010 14:06:02 26.5 C 7.51 g/m*3 26.5 C 0 km/h
1271 05-07-2010 14:18:01 25.8 C 7.94 g/m*3 25.8 C 0 km/h
1272 05-07-2010 14:30:01 26.1 C 8.08 g/m*3 26.1 C 0 km/h
1273 05-07-2010 14:42:02 26.4 C 8.21 g/m*3 26.4 C 0 km/h
1274 05-07-2010 14:54:02 26.2 C 8.37 g/m*3 26.2 C 0 km/h
1275 05-07-2010 15:06:02 27.2 C 8.07 g/m*3 27.2 C 0 km/h
Sensor: Nr:Datum:Temp:Abs-Feuchte:Windchill:Wind:
Aussen-T/F 1276 05-07-2010 15:18:02 26.5 C 8.26 g/m*3 26.5 C 0 km/h
1277 05-07-2010 15:30:02 25.8 C 7.94 g/m*3 25.8 C 0 km/h
1278 05-07-2010 15:42:02 25.1 C 8.33 g/m*3 25.1 C 0 km/h
1279 05-07-2010 15:54:02 24.7 C 8.6 g/m*3 24.7 C 0 km/h
1280 05-07-2010 16:06:02 24.2 C 8.8 g/m*3 24.2 C 0 km/h
1281 05-07-2010 16:18:02 24.2 C 9.02 g/m*3 24.2 C 0 km/h
1282 05-07-2010 16:30:02 25.4 C 8.95 g/m*3 25.4 C 0 km/h
1283 05-07-2010 16:42:02 25.1 C 8.8 g/m*3 25.1 C 0 km/h
1284 05-07-2010 16:54:02 24.9 C 8.93 g/m*3 24.9 C 0 km/h
1285 05-07-2010 17:06:02 24.7 C 9.05 g/m*3 24.7 C 0 km/h
1286 05-07-2010 17:18:02 24.2 C 9.02 g/m*3 24.2 C 0 km/h
1287 05-07-2010 17:30:02 23.7 C 9.41 g/m*3 23.7 C 0 km/h
1288 05-07-2010 17:42:02 22.7 C 10.71 g/m*3 22.7 C 0 km/h
1289 05-07-2010 17:54:02 22 C 11.65 g/m*3 22 C 0 km/h
1290 05-07-2010 18:06:02 22.9 C 11.65 g/m*3 22.9 C 0 km/h
1291 05-07-2010 18:18:03 23 C 10.48 g/m*3 23 C 0 km/h
1292 05-07-2010 18:30:03 21.6 C 11 g/m*3 21.6 C 0 km/h
1293 05-07-2010 18:42:02 19.4 C 12.18 g/m*3 19.4 C 0 km/h
1294 05-07-2010 18:54:02 18.6 C 12.73 g/m*3 18.6 C 0 km/h
1295 05-07-2010 19:06:02 18.5 C 13.13 g/m*3 18.5 C 0 km/h
1296 05-07-2010 19:18:02 18.9 C 13.61 g/m*3 18.9 C 0 km/h
1297 05-07-2010 19:30:02 19.7 C 14.09 g/m*3 19.7 C 0 km/h
1298 05-07-2010 19:42:02 19.6 C 13.51 g/m*3 19.6 C 0 km/h
1299 05-07-2010 19:54:02 19.9 C 13.74 g/m*3 19.9 C 0 km/h
1300 05-07-2010 20:06:02 19.9 C 13.4 g/m*3 19.9 C 0 km/h
Sensor: Nr:Datum:Temp:Abs-Feuchte:Windchill:Wind:
Aussen-T/F 1301 05-07-2010 20:18:02 19.8 C 13.32 g/m*3 19.8 C 0 km/h
1302 05-07-2010 20:30:02 19.3 C 13.1 g/m*3 19.3 C 0 km/h
1303 05-07-2010 20:42:02 19.1 C 12.95 g/m*3 19.1 C 0 km/h
1304 05-07-2010 20:54:02 19.1 C 12.95 g/m*3 19.1 C 0 km/h
1305 05-07-2010 21:06:02 19.1 C 13.11 g/m*3 19.1 C 0 km/h
1306 05-07-2010 21:18:02 19.1 C 12.95 g/m*3 19.1 C 0 km/h
1307 05-07-2010 21:30:02 19 C 12.87 g/m*3 19 C 0 km/h
1308 05-07-2010 21:42:01 18.9 C 12.96 g/m*3 18.9 C 0 km/h
1309 05-07-2010 21:54:02 18.7 C 12.81 g/m*3 18.7 C 0 km/h
1310 05-07-2010 22:06:01 18.7 C 12.81 g/m*3 18.7 C 0 km/h
1311 05-07-2010 22:18:02 18.8 C 12.88 g/m*3 18.8 C 0 km/h
1312 05-07-2010 22:30:02 18.7 C 12.81 g/m*3 18.7 C 0 km/h
1313 05-07-2010 22:42:01 18.5 C 12.66 g/m*3 18.5 C 0 km/h
1314 05-07-2010 22:54:01 18.4 C 12.74 g/m*3 18.4 C 0 km/h
1315 05-07-2010 23:07:02 18.2 C 12.59 g/m*3 18.2 C 0 km/h
1316 05-07-2010 23:19:02 18 C 12.59 g/m*3 18 C 0 km/h
1317 05-07-2010 23:31:02 17.9 C 12.67 g/m*3 17.9 C 0 km/h
1318 05-07-2010 23:43:02 17.7 C 12.37 g/m*3 17.7 C 0 km/h
1319 05-07-2010 23:55:02 17.6 C 12.15 g/m*3 17.6 C 0 km/h
1320 06-07-2010 00:07:02 17.5 C 12.08 g/m*3 17.5 C 0 km/h
1321 06-07-2010 00:19:02 17.2 C 11.86 g/m*3 17.2 C 0 km/h
1322 06-07-2010 00:31:02 17.1 C 11.94 g/m*3 17.1 C 0 km/h
1323 06-07-2010 00:43:02 17.1 C 11.94 g/m*3 17.1 C 0 km/h
1324 06-07-2010 00:55:02 17.3 C 12.08 g/m*3 17.3 C 0 km/h
1325 06-07-2010 01:07:02 17.3 C 11.93 g/m*3 17.3 C 0 km/h
Sensor: Nr:Datum:Temp:Abs-Feuchte:Windchill:Wind:
Aussen-T/F 1326 06-07-2010 01:19:02 17.1 C 11.79 g/m*3 17.1 C 0 km/h
1327 06-07-2010 01:31:02 17.2 C 11.86 g/m*3 17.2 C 0 km/h
1328 06-07-2010 01:43:02 17.3 C 11.79 g/m*3 17.3 C 0 km/h
1329 06-07-2010 01:55:02 17.3 C 11.49 g/m*3 17.3 C 0 km/h
1330 06-07-2010 02:07:02 17.1 C 11.21 g/m*3 17.1 C 0 km/h
1331 06-07-2010 02:19:02 17.3 C 11.49 g/m*3 17.3 C 0 km/h
1332 06-07-2010 02:31:02 16.9 C 11.22 g/m*3 16.9 C 0 km/h
1333 06-07-2010 02:43:02 16.6 C 11.16 g/m*3 16.6 C 0 km/h
1334 06-07-2010 02:55:02 16.3 C 11.24 g/m*3 16.3 C 0 km/h
1335 06-07-2010 03:07:02 16.4 C 11.31 g/m*3 16.4 C 0 km/h
1336 06-07-2010 03:19:03 16.4 C 11.17 g/m*3 16.4 C 0 km/h
1337 06-07-2010 03:31:03 16.5 C 10.95 g/m*3 16.5 C 0 km/h
1338 06-07-2010 03:43:03 16.4 C 10.75 g/m*3 16.4 C 0 km/h
1339 06-07-2010 03:55:03 16 C 10.22 g/m*3 16 C 0 km/h
1340 06-07-2010 04:07:03 15.7 C 10.3 g/m*3 15.7 C 0 km/h
1341 06-07-2010 04:19:03 15.4 C 10.12 g/m*3 15.4 C 0 km/h
1342 06-07-2010 04:31:03 15.1 C 10.06 g/m*3 15.1 C 0 km/h
1343 06-07-2010 04:43:03 15 C 10 g/m*3 15 C 0 km/h
1344 06-07-2010 04:55:03 14.8 C 10.01 g/m*3 14.8 C 0 km/h
1345 06-07-2010 05:07:03 14.8 C 10.13 g/m*3 14.8 C 0 km/h
1346 06-07-2010 05:19:03 15 C 10.39 g/m*3 15 C 0 km/h
1347 06-07-2010 05:31:03 15 C 10.26 g/m*3 15 C 0 km/h
1348 06-07-2010 05:43:03 14.8 C 10.26 g/m*3 14.8 C 0 km/h
1349 06-07-2010 05:55:03 14.7 C 10.2 g/m*3 14.7 C 0 km/h
1350 06-07-2010 06:07:03 14.7 C 10.2 g/m*3 14.7 C 0 km/h
Sensor: Nr:Datum:Temp:Abs-Feuchte:Windchill:Wind:
Aussen-T/F 1351 06-07-2010 06:19:03 14.6 C 10.01 g/m*3 14.6 C 0 km/h
1352 06-07-2010 06:31:03 14.6 C 10.01 g/m*3 14.6 C 0 km/h
1353 06-07-2010 06:43:03 14.7 C 9.69 g/m*3 14.7 C 0 km/h
1354 06-07-2010 06:55:03 14.7 C 9.69 g/m*3 14.7 C 0 km/h
1355 06-07-2010 07:07:02 14.8 C 9.75 g/m*3 14.8 C 0 km/h
1356 06-07-2010 07:19:02 14.9 C 9.81 g/m*3 14.9 C 0 km/h
1357 06-07-2010 07:31:02 15.1 C 9.68 g/m*3 15.1 C 0 km/h
1358 06-07-2010 07:43:02 15.2 C 9.61 g/m*3 15.2 C 0 km/h
1359 06-07-2010 07:55:02 15.4 C 9.72 g/m*3 15.4 C 0 km/h
1360 06-07-2010 08:07:02 15.5 C 9.65 g/m*3 15.5 C 0 km/h
1361 06-07-2010 08:19:02 15.7 C 9.5 g/m*3 15.7 C 0 km/h
1362 06-07-2010 08:31:01 15.8 C 9.29 g/m*3 15.8 C 0 km/h
1363 06-07-2010 08:43:01 16.1 C 9.05 g/m*3 16.1 C 0 km/h
1364 06-07-2010 08:55:02 16.4 C 8.65 g/m*3 16.4 C 0 km/h
1365 06-07-2010 09:07:01 16.8 C 8.72 g/m*3 16.8 C 0 km/h
1366 06-07-2010 09:19:01 17.3 C 8.54 g/m*3 17.3 C 0 km/h
1367 06-07-2010 09:31:02 17.5 C 8.05 g/m*3 17.5 C 0 km/h
1368 06-07-2010 09:43:02 18 C 7.99 g/m*3 18 C 0 km/h
1369 06-07-2010 09:55:02 18.1 C 8.03 g/m*3 18.1 C 0 km/h
1370 06-07-2010 10:07:01 19 C 7.66 g/m*3 19 C 0 km/h
1371 06-07-2010 10:19:01 19.4 C 7.51 g/m*3 19.4 C 0 km/h
1372 06-07-2010 10:31:02 20.2 C 7.34 g/m*3 20.2 C 0 km/h
1373 06-07-2010 10:43:02 20.4 C 7.08 g/m*3 20.4 C 0 km/h
1374 06-07-2010 10:55:02 21.1 C 6.63 g/m*3 21.1 C 0 km/h
1375 06-07-2010 11:07:02 20.9 C 6.92 g/m*3 20.9 C 0 km/h
Sensor: Nr:Datum:Temp:Abs-Feuchte:Windchill:Wind:
Aussen-T/F 1376 06-07-2010 11:19:02 20.7 C 6.66 g/m*3 20.7 C 0 km/h
1377 06-07-2010 11:31:02 22 C 6.79 g/m*3 22 C 0 km/h
1378 06-07-2010 11:43:03 21.3 C 6.34 g/m*3 21.3 C 0 km/h
1379 06-07-2010 11:55:02 22.5 C 6.19 g/m*3 22.5 C 0 km/h
1380 06-07-2010 12:07:02 21.9 C 6.18 g/m*3 21.9 C 0 km/h
1381 06-07-2010 12:19:02 22.7 C 5.25 g/m*3 22.7 C 0 km/h
1382 06-07-2010 12:31:02 23.3 C 5.23 g/m*3 23.3 C 0 km/h
1383 06-07-2010 12:43:02 22.5 C 5.39 g/m*3 22.5 C 0 km/h
1384 06-07-2010 12:55:02 24.7 C 5.43 g/m*3 24.7 C 0 km/h
1385 06-07-2010 13:07:02 23.6 C 5.32 g/m*3 23.6 C 0 km/h
1386 06-07-2010 13:19:02 24.5 C 4.92 g/m*3 24.5 C 0 km/h
1387 06-07-2010 13:31:02 27 C 5.15 g/m*3 27 C 0 km/h
1388 06-07-2010 13:43:02 23.4 C 4.63 g/m*3 23.4 C 0 km/h
1389 06-07-2010 13:55:02 24.5 C 5.15 g/m*3 24.5 C 0 km/h
1390 06-07-2010 14:07:02 24.1 C 4.59 g/m*3 24.1 C 0 km/h
1391 06-07-2010 14:19:02 23.6 C 4.68 g/m*3 23.6 C 0 km/h
1392 06-07-2010 14:31:02 23.8 C 5.16 g/m*3 23.8 C 0 km/h
1393 06-07-2010 14:43:02 25.3 C 4.68 g/m*3 25.3 C 0 km/h
1394 06-07-2010 14:55:02 24.6 C 4.5 g/m*3 24.6 C 0 km/h
1395 06-07-2010 15:07:02 24.2 C 4.4 g/m*3 24.2 C 0 km/h
1396 06-07-2010 15:19:02 24.8 C 4.55 g/m*3 24.8 C 0 km/h
1397 06-07-2010 15:31:01 23.7 C 4.28 g/m*3 23.7 C 0 km/h
1398 06-07-2010 15:43:01 24.9 C 4.58 g/m*3 24.9 C 0 km/h
1399 06-07-2010 15:55:02 25 C 4.6 g/m*3 25 C 0 km/h
1400 06-07-2010 16:07:01 25.2 C 4.66 g/m*3 25.2 C 0 km/h
Sensor: Nr:Datum:Temp:Abs-Feuchte:Windchill:Wind:
Aussen-T/F 1401 06-07-2010 16:19:01 25.4 C 4.71 g/m*3 25.4 C 0 km/h
1402 06-07-2010 16:31:02 26.6 C 5.03 g/m*3 26.6 C 0 km/h
1403 06-07-2010 16:43:02 25.7 C 4.79 g/m*3 25.7 C 0 km/h
1404 06-07-2010 16:55:02 26.3 C 4.95 g/m*3 26.3 C 0 km/h
1405 06-07-2010 17:07:01 27.3 C 5.23 g/m*3 27.3 C 0 km/h
1406 06-07-2010 17:19:02 26.3 C 4.95 g/m*3 26.3 C 0 km/h
1407 06-07-2010 17:31:02 26.7 C 5.06 g/m*3 26.7 C 0 km/h
1408 06-07-2010 17:43:02 27.1 C 5.18 g/m*3 27.1 C 0 km/h
1409 06-07-2010 17:55:01 27.2 C 5.2 g/m*3 27.2 C 0 km/h
1410 06-07-2010 18:07:02 25.1 C 4.63 g/m*3 25.1 C 0 km/h
1411 06-07-2010 18:19:01 25.3 C 4.68 g/m*3 25.3 C 0 km/h
1412 06-07-2010 18:31:02 25.5 C 4.73 g/m*3 25.5 C 0 km/h
1413 06-07-2010 18:43:02 25.3 C 4.68 g/m*3 25.3 C 0 km/h
1414 06-07-2010 18:55:02 26.1 C 4.9 g/m*3 26.1 C 0 km/h
1415 06-07-2010 19:07:02 26 C 4.87 g/m*3 26 C 0 km/h
1416 06-07-2010 19:19:01 25.8 C 5.06 g/m*3 25.8 C 0 km/h
1417 06-07-2010 19:31:02 25.1 C 4.63 g/m*3 25.1 C 0 km/h
1418 06-07-2010 19:43:03 24.1 C 4.59 g/m*3 24.1 C 0 km/h
1419 06-07-2010 19:55:02 24.3 C 4.87 g/m*3 24.3 C 0 km/h
1420 06-07-2010 20:07:02 24.7 C 4.98 g/m*3 24.7 C 0 km/h
1421 06-07-2010 20:19:01 25.2 C 4.89 g/m*3 25.2 C 0 km/h
1422 06-07-2010 20:31:02 24.3 C 5.09 g/m*3 24.3 C 0 km/h
1423 06-07-2010 20:43:02 23.7 C 5.78 g/m*3 23.7 C 0 km/h
1424 06-07-2010 20:55:02 23.6 C 5.74 g/m*3 23.6 C 0 km/h
1425 06-07-2010 21:07:02 23 C 5.96 g/m*3 23 C 0 km/h
Sensor: Nr:Datum:Temp:Abs-Feuchte:Windchill:Wind:
Aussen-T/F 1426 06-07-2010 21:19:02 22.3 C 6.32 g/m*3 22.3 C 0 km/h
1427 06-07-2010 21:31:02 21.2 C 6.12 g/m*3 21.2 C 0 km/h
1428 06-07-2010 21:43:02 20.5 C 6.41 g/m*3 20.5 C 0 km/h
1429 06-07-2010 21:55:02 19.8 C 6.32 g/m*3 19.8 C 0 km/h
1430 06-07-2010 22:07:02 19.3 C 6.3 g/m*3 19.3 C 0 km/h
1431 06-07-2010 22:19:02 19.1 C 6.39 g/m*3 19.1 C 0 km/h
1432 06-07-2010 22:31:02 18.9 C 6.48 g/m*3 18.9 C 0 km/h
1433 06-07-2010 22:43:02 18.6 C 6.68 g/m*3 18.6 C 0 km/h
1434 06-07-2010 22:56:03 18.3 C 6.72 g/m*3 18.3 C 0 km/h
1435 06-07-2010 23:08:03 18.1 C 6.95 g/m*3 18.1 C 0 km/h
1436 06-07-2010 23:20:03 17.8 C 7.13 g/m*3 17.8 C 0 km/h
1437 06-07-2010 23:32:03 17.7 C 6.79 g/m*3 17.7 C 0 km/h
1438 06-07-2010 23:44:03 17.5 C 6.56 g/m*3 17.5 C 0 km/h
1439 06-07-2010 23:56:03 17.3 C 6.63 g/m*3 17.3 C 0 km/h
1440 07-07-2010 00:08:03 16.8 C 6.72 g/m*3 16.8 C 0 km/h
1441 07-07-2010 00:20:03 16.7 C 6.82 g/m*3 16.7 C 0 km/h
1442 07-07-2010 00:32:03 16.5 C 6.74 g/m*3 16.5 C 0 km/h
1443 07-07-2010 00:44:03 16.4 C 6.98 g/m*3 16.4 C 0 km/h
1444 07-07-2010 00:56:03 16.1 C 7.13 g/m*3 16.1 C 0 km/h
1445 07-07-2010 01:08:04 15.8 C 7.27 g/m*3 15.8 C 0 km/h
1446 07-07-2010 01:20:04 15.7 C 7.36 g/m*3 15.7 C 0 km/h
1447 07-07-2010 01:32:04 15.6 C 7.45 g/m*3 15.6 C 0 km/h
1448 07-07-2010 01:44:04 15.3 C 7.44 g/m*3 15.3 C 0 km/h
1449 07-07-2010 01:56:04 15.2 C 7.53 g/m*3 15.2 C 0 km/h
1450 07-07-2010 02:08:04 15.2 C 7.53 g/m*3 15.2 C 0 km/h
Sensor: Nr:Datum:Temp:Abs-Feuchte:Windchill:Wind:
Aussen-T/F 1451 07-07-2010 02:20:04 15 C 7.69 g/m*3 15 C 0 km/h
1452 07-07-2010 02:32:04 14.8 C 7.73 g/m*3 14.8 C 0 km/h
1453 07-07-2010 02:44:04 14.6 C 7.63 g/m*3 14.6 C 0 km/h
1454 07-07-2010 02:56:04 14.4 C 7.79 g/m*3 14.4 C 0 km/h
1455 07-07-2010 03:08:04 14.1 C 7.77 g/m*3 14.1 C 0 km/h
1456 07-07-2010 03:20:04 13.9 C 7.79 g/m*3 13.9 C 0 km/h
1457 07-07-2010 03:32:04 14 C 7.72 g/m*3 14 C 0 km/h
1458 07-07-2010 03:44:04 13.9 C 7.79 g/m*3 13.9 C 0 km/h
1459 07-07-2010 03:56:04 13.7 C 7.82 g/m*3 13.7 C 0 km/h
1460 07-07-2010 04:08:04 13.5 C 7.72 g/m*3 13.5 C 0 km/h
1461 07-07-2010 04:20:04 13.4 C 7.67 g/m*3 13.4 C 0 km/h
1462 07-07-2010 04:32:04 13.3 C 7.74 g/m*3 13.3 C 0 km/h
1463 07-07-2010 04:44:04 13.2 C 7.81 g/m*3 13.2 C 0 km/h
1464 07-07-2010 04:56:04 13.1 C 7.76 g/m*3 13.1 C 0 km/h
1465 07-07-2010 05:08:04 13 C 7.83 g/m*3 13 C 0 km/h
1466 07-07-2010 05:20:04 12.9 C 8 g/m*3 12.9 C 0 km/h
1467 07-07-2010 05:32:05 12.8 C 7.95 g/m*3 12.8 C 0 km/h
1468 07-07-2010 05:44:05 12.6 C 8.08 g/m*3 12.6 C 0 km/h
1469 07-07-2010 05:56:05 12.5 C 8.14 g/m*3 12.5 C 0 km/h
1470 07-07-2010 06:08:05 12.5 C 8.14 g/m*3 12.5 C 0 km/h
1471 07-07-2010 06:20:03 12.6 C 8.19 g/m*3 12.6 C 0 km/h
1472 07-07-2010 06:32:03 12.7 C 8.24 g/m*3 12.7 C 0 km/h
1473 07-07-2010 06:44:03 12.8 C 8.29 g/m*3 12.8 C 0 km/h
1474 07-07-2010 06:56:02 12.9 C 8.34 g/m*3 12.9 C 0 km/h
1475 07-07-2010 07:08:02 13 C 8.39 g/m*3 13 C 0 km/h
Sensor: Nr:Datum:Temp:Abs-Feuchte:Windchill:Wind:
Aussen-T/F 1476 07-07-2010 07:20:03 13.2 C 8.38 g/m*3 13.2 C 0 km/h
1477 07-07-2010 07:32:02 13.3 C 8.32 g/m*3 13.3 C 0 km/h
1478 07-07-2010 07:44:02 13.4 C 8.37 g/m*3 13.4 C 0 km/h
1479 07-07-2010 07:56:03 13.8 C 8.46 g/m*3 13.8 C 0 km/h
1480 07-07-2010 08:08:02 14.1 C 8.37 g/m*3 14.1 C 0 km/h
1481 07-07-2010 08:20:02 14.3 C 8.23 g/m*3 14.3 C 0 km/h
1482 07-07-2010 08:32:02 14.7 C 8.44 g/m*3 14.7 C 0 km/h
1483 07-07-2010 08:44:02 15.1 C 8.39 g/m*3 15.1 C 0 km/h
1484 07-07-2010 08:56:02 15.6 C 8.11 g/m*3 15.6 C 0 km/h
1485 07-07-2010 09:08:02 16.2 C 8.14 g/m*3 16.2 C 0 km/h
1486 07-07-2010 09:20:02 16.9 C 8.2 g/m*3 16.9 C 0 km/h
1487 07-07-2010 09:32:02 17.7 C 8.15 g/m*3 17.7 C 0 km/h
1488 07-07-2010 09:44:02 18.4 C 8.02 g/m*3 18.4 C 0 km/h
1489 07-07-2010 09:56:02 19.1 C 8.03 g/m*3 19.1 C 0 km/h
1490 07-07-2010 10:08:01 19.8 C 8.03 g/m*3 19.8 C 0 km/h
1491 07-07-2010 10:20:01 20.3 C 8.09 g/m*3 20.3 C 0 km/h
1492 07-07-2010 10:32:02 21.3 C 8.2 g/m*3 21.3 C 0 km/h
1493 07-07-2010 10:44:02 21.7 C 8.01 g/m*3 21.7 C 0 km/h
1494 07-07-2010 10:56:02 22.1 C 7.42 g/m*3 22.1 C 0 km/h
1495 07-07-2010 11:08:02 23 C 6.58 g/m*3 23 C 0 km/h
1496 07-07-2010 11:20:02 23 C 6.17 g/m*3 23 C 0 km/h
1497 07-07-2010 11:32:02 23.5 C 5.92 g/m*3 23.5 C 0 km/h
1498 07-07-2010 11:44:02 23.9 C 5.62 g/m*3 23.9 C 0 km/h
1499 07-07-2010 11:56:01 24.7 C 5.66 g/m*3 24.7 C 0 km/h
1500 07-07-2010 12:08:02 25.4 C 5.41 g/m*3 25.4 C 0 km/h
Sensor: Nr:Datum:Temp:Abs-Feuchte:Windchill:Wind:
Aussen-T/F 1501 07-07-2010 12:20:01 26.1 C 5.14 g/m*3 26.1 C 0 km/h
1502 07-07-2010 12:32:01 26.5 C 5.26 g/m*3 26.5 C 0 km/h
1503 07-07-2010 12:44:01 28 C 5.44 g/m*3 28 C 0 km/h
1504 07-07-2010 12:56:02 27.9 C 5.41 g/m*3 27.9 C 0 km/h
1505 07-07-2010 13:08:02 28.1 C 5.47 g/m*3 28.1 C 0 km/h
1506 07-07-2010 13:20:01 28.4 C 5.56 g/m*3 28.4 C 0 km/h
1507 07-07-2010 13:32:02 30.1 C 6.1 g/m*3 30.1 C 0 km/h
1508 07-07-2010 13:44:02 30.5 C 6.23 g/m*3 30.5 C 0 km/h
1509 07-07-2010 13:56:02 29.8 C 6 g/m*3 29.8 C 0 km/h
1510 07-07-2010 14:08:02 28.2 C 5.5 g/m*3 28.2 C 0 km/h
1511 07-07-2010 14:20:01 27.7 C 5.35 g/m*3 27.7 C 0 km/h
1512 07-07-2010 14:32:02 28.1 C 5.47 g/m*3 28.1 C 0 km/h
1513 07-07-2010 14:44:02 28.9 C 5.71 g/m*3 28.9 C 0 km/h
1514 07-07-2010 14:56:02 28.8 C 5.68 g/m*3 28.8 C 0 km/h
1515 07-07-2010 15:08:02 29.3 C 5.84 g/m*3 29.3 C 0 km/h
1516 07-07-2010 15:20:02 30.1 C 6.1 g/m*3 30.1 C 0 km/h
1517 07-07-2010 15:32:02 30.1 C 6.1 g/m*3 30.1 C 0 km/h
1518 07-07-2010 15:44:02 31 C 6.4 g/m*3 31 C 0 km/h
1519 07-07-2010 15:56:02 31.5 C 6.57 g/m*3 31.5 C 0 km/h
1520 07-07-2010 16:08:02 31.8 C 6.68 g/m*3 31.8 C 0 km/h
1521 07-07-2010 16:20:02 31.9 C 6.72 g/m*3 31.9 C 0 km/h
1522 07-07-2010 16:32:02 31.7 C 6.64 g/m*3 31.7 C 0 km/h
1523 07-07-2010 16:44:02 32 C 6.75 g/m*3 32 C 0 km/h
1524 07-07-2010 16:56:01 32.4 C 6.9 g/m*3 32.4 C 0 km/h
1525 07-07-2010 17:08:02 32.5 C 6.93 g/m*3 32.5 C 0 km/h
Sensor: Nr:Datum:Temp:Abs-Feuchte:Windchill:Wind:
Aussen-T/F 1526 07-07-2010 17:20:02 32.1 C 6.79 g/m*3 32.1 C 0 km/h
1527 07-07-2010 17:32:02 32.7 C 7.01 g/m*3 32.7 C 0 km/h
1528 07-07-2010 17:44:02 32.6 C 6.97 g/m*3 32.6 C 0 km/h
1529 07-07-2010 17:56:02 32.8 C 7.04 g/m*3 32.8 C 0 km/h
1530 07-07-2010 18:08:02 33 C 7.12 g/m*3 33 C 0 km/h
1531 07-07-2010 18:20:02 33.2 C 7.2 g/m*3 33.2 C 0 km/h
1532 07-07-2010 18:32:01 32.8 C 7.04 g/m*3 32.8 C 0 km/h
1533 07-07-2010 18:44:01 32.8 C 7.04 g/m*3 32.8 C 0 km/h
1534 07-07-2010 18:56:02 32.6 C 6.97 g/m*3 32.6 C 0 km/h
1535 07-07-2010 19:08:02 32.5 C 6.93 g/m*3 32.5 C 0 km/h
1536 07-07-2010 19:20:02 32.5 C 6.93 g/m*3 32.5 C 0 km/h
1537 07-07-2010 19:32:02 32.5 C 6.93 g/m*3 32.5 C 0 km/h
1538 07-07-2010 19:44:02 32.4 C 6.9 g/m*3 32.4 C 0 km/h
1539 07-07-2010 19:56:02 32.1 C 6.79 g/m*3 32.1 C 0 km/h
1540 07-07-2010 20:08:01 32 C 6.75 g/m*3 32 C 0 km/h
1541 07-07-2010 20:20:02 31.7 C 6.64 g/m*3 31.7 C 0 km/h
1542 07-07-2010 20:32:02 31.3 C 6.5 g/m*3 31.3 C 0 km/h
1543 07-07-2010 20:44:02 30.9 C 6.37 g/m*3 30.9 C 0 km/h
1544 07-07-2010 20:56:02 30.4 C 6.2 g/m*3 30.4 C 0 km/h
1545 07-07-2010 21:08:02 29.1 C 6.35 g/m*3 29.1 C 0 km/h
1546 07-07-2010 21:20:02 27.5 C 6.61 g/m*3 27.5 C 0 km/h
1547 07-07-2010 21:32:02 26.5 C 6.76 g/m*3 26.5 C 0 km/h
1548 07-07-2010 21:44:03 25.9 C 6.78 g/m*3 25.9 C 0 km/h
1549 07-07-2010 21:56:01 25.3 C 6.79 g/m*3 25.3 C 0 km/h
1550 07-07-2010 22:08:02 24.9 C 6.87 g/m*3 24.9 C 0 km/h
Sensor: Nr:Datum:Temp:Abs-Feuchte:Windchill:Wind:
Aussen-T/F 1551 07-07-2010 22:20:01 24.6 C 6.75 g/m*3 24.6 C 0 km/h
1552 07-07-2010 22:32:01 24.4 C 6.9 g/m*3 24.4 C 0 km/h
1553 07-07-2010 22:44:01 24.1 C 6.78 g/m*3 24.1 C 0 km/h
1554 07-07-2010 22:56:01 24 C 6.96 g/m*3 24 C 0 km/h
1555 07-07-2010 23:08:01 23.8 C 7.1 g/m*3 23.8 C 0 km/h
1556 07-07-2010 23:20:02 23.7 C 6.84 g/m*3 23.7 C 0 km/h
1557 07-07-2010 23:32:01 23.7 C 7.06 g/m*3 23.7 C 0 km/h
1558 07-07-2010 23:44:01 23.7 C 7.27 g/m*3 23.7 C 0 km/h
1559 07-07-2010 23:56:01 23.6 C 7.23 g/m*3 23.6 C 0 km/h
1560 08-07-2010 00:08:01 23.3 C 7.32 g/m*3 23.3 C 0 km/h
1561 08-07-2010 00:21:04 22.8 C 7.52 g/m*3 22.8 C 0 km/h
1562 08-07-2010 00:33:04 22.3 C 7.7 g/m*3 22.3 C 0 km/h
1563 08-07-2010 00:45:04 22 C 7.96 g/m*3 22 C 0 km/h
1564 08-07-2010 00:57:04 21.5 C 8.11 g/m*3 21.5 C 0 km/h
1565 08-07-2010 01:09:04 21.1 C 7.92 g/m*3 21.1 C 0 km/h
1566 08-07-2010 01:21:04 20.8 C 7.97 g/m*3 20.8 C 0 km/h
1567 08-07-2010 01:33:04 20.4 C 7.96 g/m*3 20.4 C 0 km/h
1568 08-07-2010 01:45:04 20.3 C 8.09 g/m*3 20.3 C 0 km/h
1569 08-07-2010 01:57:04 20.1 C 8 g/m*3 20.1 C 0 km/h
1570 08-07-2010 02:09:04 20 C 8.3 g/m*3 20 C 0 km/h
1571 08-07-2010 02:21:04 19.9 C 8.42 g/m*3 19.9 C 0 km/h
1572 08-07-2010 02:33:04 19.8 C 8.2 g/m*3 19.8 C 0 km/h
1573 08-07-2010 02:45:04 19.7 C 7.98 g/m*3 19.7 C 0 km/h
1574 08-07-2010 02:57:05 19.5 C 8.06 g/m*3 19.5 C 0 km/h
1575 08-07-2010 03:09:05 19.4 C 8.01 g/m*3 19.4 C 0 km/h
Sensor: Nr:Datum:Temp:Abs-Feuchte:Windchill:Wind:
Aussen-T/F 1576 08-07-2010 03:21:05 19.6 C 8.1 g/m*3 19.6 C 0 km/h
1577 08-07-2010 03:33:05 19.6 C 8.1 g/m*3 19.6 C 0 km/h
1578 08-07-2010 03:45:05 19.3 C 8.29 g/m*3 19.3 C 0 km/h
1579 08-07-2010 03:57:05 19.1 C 8.2 g/m*3 19.1 C 0 km/h
1580 08-07-2010 04:09:05 18.8 C 8.21 g/m*3 18.8 C 0 km/h
1581 08-07-2010 04:21:05 18.7 C 8.33 g/m*3 18.7 C 0 km/h
1582 08-07-2010 04:33:05 18.4 C 8.18 g/m*3 18.4 C 0 km/h
1583 08-07-2010 04:45:05 18.4 C 8.65 g/m*3 18.4 C 0 km/h
1584 08-07-2010 04:57:05 18.3 C 8.76 g/m*3 18.3 C 0 km/h
1585 08-07-2010 05:09:05 18.1 C 8.5 g/m*3 18.1 C 0 km/h
1586 08-07-2010 05:21:05 17.9 C 8.4 g/m*3 17.9 C 0 km/h
1587 08-07-2010 05:33:05 17.8 C 8.5 g/m*3 17.8 C 0 km/h
1588 08-07-2010 05:45:05 17.6 C 8.4 g/m*3 17.6 C 0 km/h
1589 08-07-2010 05:57:05 17.5 C 8.2 g/m*3 17.5 C 0 km/h
1590 08-07-2010 06:09:05 17.4 C 8.15 g/m*3 17.4 C 0 km/h
1591 08-07-2010 06:21:03 17.3 C 8.4 g/m*3 17.3 C 0 km/h
1592 08-07-2010 06:33:03 17.3 C 8.4 g/m*3 17.3 C 0 km/h
1593 08-07-2010 06:45:02 17.4 C 8.74 g/m*3 17.4 C 0 km/h
1594 08-07-2010 06:57:02 17.5 C 8.8 g/m*3 17.5 C 0 km/h
1595 08-07-2010 07:09:02 17.7 C 8.9 g/m*3 17.7 C 0 km/h
1596 08-07-2010 07:21:02 17.7 C 8.9 g/m*3 17.7 C 0 km/h
1597 08-07-2010 07:33:01 17.9 C 9.01 g/m*3 17.9 C 0 km/h
1598 08-07-2010 07:45:02 18.1 C 8.96 g/m*3 18.1 C 0 km/h
1599 08-07-2010 07:57:02 18.2 C 8.86 g/m*3 18.2 C 0 km/h
1600 08-07-2010 08:09:01 18.5 C 9.02 g/m*3 18.5 C 0 km/h
Sensor: Nr:Datum:Temp:Abs-Feuchte:Windchill:Wind:
Aussen-T/F 1601 08-07-2010 08:21:02 18.7 C 8.81 g/m*3 18.7 C 0 km/h
1602 08-07-2010 08:33:01 19.1 C 8.85 g/m*3 19.1 C 0 km/h
1603 08-07-2010 08:45:02 19.4 C 8.84 g/m*3 19.4 C 0 km/h
1604 08-07-2010 08:57:02 19.9 C 8.93 g/m*3 19.9 C 0 km/h
1605 08-07-2010 09:09:02 20.6 C 9.13 g/m*3 20.6 C 0 km/h
1606 08-07-2010 09:21:02 21.3 C 9.32 g/m*3 21.3 C 0 km/h
1607 08-07-2010 09:33:02 22.3 C 9.08 g/m*3 22.3 C 0 km/h
1608 08-07-2010 09:45:02 23.1 C 9.1 g/m*3 23.1 C 0 km/h
1609 08-07-2010 09:57:03 23.9 C 9.09 g/m*3 23.9 C 0 km/h
1610 08-07-2010 10:09:01 24.6 C 9.23 g/m*3 24.6 C 0 km/h
1611 08-07-2010 10:21:01 25.3 C 8.66 g/m*3 25.3 C 0 km/h
1612 08-07-2010 10:33:02 26 C 9.01 g/m*3 26 C 0 km/h
1613 08-07-2010 10:45:02 26.5 C 9.01 g/m*3 26.5 C 0 km/h
1614 08-07-2010 10:57:02 27.4 C 8.68 g/m*3 27.4 C 0 km/h
1615 08-07-2010 11:09:02 27.8 C 6.99 g/m*3 27.8 C 0 km/h
1616 08-07-2010 11:21:01 28.6 C 7.03 g/m*3 28.6 C 0 km/h
1617 08-07-2010 11:33:02 29.3 C 7.01 g/m*3 29.3 C 0 km/h
1618 08-07-2010 11:45:02 29.9 C 7.54 g/m*3 29.9 C 0 km/h
1619 08-07-2010 11:57:02 30.3 C 6.78 g/m*3 30.3 C 0 km/h
1620 08-07-2010 12:09:02 30.8 C 6.33 g/m*3 30.8 C 0 km/h
1621 08-07-2010 12:21:01 31.4 C 6.54 g/m*3 31.4 C 0 km/h
1622 08-07-2010 12:33:02 31.8 C 6.68 g/m*3 31.8 C 0 km/h
1623 08-07-2010 12:45:02 31.9 C 6.72 g/m*3 31.9 C 0 km/h
1624 08-07-2010 12:57:02 31.6 C 6.61 g/m*3 31.6 C 0 km/h
1625 08-07-2010 13:09:02 32.1 C 6.79 g/m*3 32.1 C 0 km/h
Sensor: Nr:Datum:Temp:Abs-Feuchte:Windchill:Wind:
Aussen-T/F 1626 08-07-2010 13:21:01 32.8 C 7.04 g/m*3 32.8 C 0 km/h
1627 08-07-2010 13:33:02 33 C 7.12 g/m*3 33 C 0 km/h
1628 08-07-2010 13:45:01 33.3 C 7.23 g/m*3 33.3 C 0 km/h
1629 08-07-2010 13:57:01 33.2 C 7.2 g/m*3 33.2 C 0 km/h
1630 08-07-2010 14:09:02 32.5 C 6.93 g/m*3 32.5 C 0 km/h
1631 08-07-2010 14:21:01 32.3 C 6.86 g/m*3 32.3 C 0 km/h
1632 08-07-2010 14:33:02 32.3 C 6.86 g/m*3 32.3 C 0 km/h
1633 08-07-2010 14:45:01 32.3 C 6.86 g/m*3 32.3 C 0 km/h
1634 08-07-2010 14:57:01 32.4 C 6.9 g/m*3 32.4 C 0 km/h
1635 08-07-2010 15:09:02 32.7 C 7.01 g/m*3 32.7 C 0 km/h
1636 08-07-2010 15:21:01 32.9 C 7.08 g/m*3 32.9 C 0 km/h
1637 08-07-2010 15:33:01 33.3 C 7.23 g/m*3 33.3 C 0 km/h
1638 08-07-2010 15:45:01 33.7 C 7.39 g/m*3 33.7 C 0 km/h
1639 08-07-2010 15:57:01 33.7 C 7.39 g/m*3 33.7 C 0 km/h
1640 08-07-2010 16:09:02 33.8 C 7.43 g/m*3 33.8 C 0 km/h
1641 08-07-2010 16:21:02 33.8 C 7.43 g/m*3 33.8 C 0 km/h
1642 08-07-2010 16:33:01 33.9 C 7.46 g/m*3 33.9 C 0 km/h
1643 08-07-2010 16:45:01 33.3 C 7.23 g/m*3 33.3 C 0 km/h
1644 08-07-2010 16:57:01 33.3 C 7.23 g/m*3 33.3 C 0 km/h
1645 08-07-2010 17:09:01 33.3 C 7.23 g/m*3 33.3 C 0 km/h
1646 08-07-2010 17:21:02 33.5 C 7.31 g/m*3 33.5 C 0 km/h
1647 08-07-2010 17:33:01 34.2 C 7.58 g/m*3 34.2 C 0 km/h
1648 08-07-2010 17:45:03 34.6 C 7.74 g/m*3 34.6 C 0 km/h
1649 08-07-2010 17:57:03 34.2 C 7.58 g/m*3 34.2 C 0 km/h
1650 08-07-2010 18:09:02 34.7 C 7.78 g/m*3 34.7 C 0 km/h
Sensor: Nr:Datum:Temp:Abs-Feuchte:Windchill:Wind:
Aussen-T/F 1651 08-07-2010 18:21:02 34 C 7.5 g/m*3 34 C 0 km/h
1652 08-07-2010 18:33:02 34.2 C 7.58 g/m*3 34.2 C 0 km/h
1653 08-07-2010 18:45:02 34.4 C 7.66 g/m*3 34.4 C 0 km/h
1654 08-07-2010 18:57:02 34.6 C 7.74 g/m*3 34.6 C 0 km/h
1655 08-07-2010 19:09:02 34.5 C 7.7 g/m*3 34.5 C 0 km/h
1656 08-07-2010 19:21:02 34.4 C 7.66 g/m*3 34.4 C 0 km/h
1657 08-07-2010 19:33:02 34.1 C 7.54 g/m*3 34.1 C 0 km/h
1658 08-07-2010 19:45:02 33.9 C 7.46 g/m*3 33.9 C 0 km/h
1659 08-07-2010 19:57:03 33.8 C 7.43 g/m*3 33.8 C 0 km/h
1660 08-07-2010 20:09:01 33.7 C 7.39 g/m*3 33.7 C 0 km/h
1661 08-07-2010 20:21:01 33.3 C 7.23 g/m*3 33.3 C 0 km/h
1662 08-07-2010 20:33:02 33 C 7.12 g/m*3 33 C 0 km/h
1663 08-07-2010 20:45:02 32.7 C 7.01 g/m*3 32.7 C 0 km/h
1664 08-07-2010 20:57:02 32.3 C 7.2 g/m*3 32.3 C 0 km/h
1665 08-07-2010 21:09:02 31.4 C 7.52 g/m*3 31.4 C 0 km/h
1666 08-07-2010 21:21:02 30.4 C 8.37 g/m*3 30.4 C 0 km/h
1667 08-07-2010 21:33:02 29.9 C 8.45 g/m*3 29.9 C 0 km/h
1668 08-07-2010 21:45:02 29.3 C 8.47 g/m*3 29.3 C 0 km/h
1669 08-07-2010 21:57:02 28.9 C 8.57 g/m*3 28.9 C 0 km/h
1670 08-07-2010 22:09:03 28.4 C 8.06 g/m*3 28.4 C 0 km/h
1671 08-07-2010 22:21:02 28.3 C 8.29 g/m*3 28.3 C 0 km/h
1672 08-07-2010 22:33:02 28 C 8.16 g/m*3 28 C 0 km/h
1673 08-07-2010 22:46:02 27.8 C 8.34 g/m*3 27.8 C 0 km/h
1674 08-07-2010 22:58:02 27.6 C 8.25 g/m*3 27.6 C 0 km/h
1675 08-07-2010 23:10:02 27.5 C 8.2 g/m*3 27.5 C 0 km/h
Sensor: Nr:Datum:Temp:Abs-Feuchte:Windchill:Wind:
Aussen-T/F 1676 08-07-2010 23:22:02 27.2 C 8.33 g/m*3 27.2 C 0 km/h
1677 08-07-2010 23:34:03 27 C 7.98 g/m*3 27 C 0 km/h
1678 08-07-2010 23:46:03 27 C 7.98 g/m*3 27 C 0 km/h
1679 08-07-2010 23:58:03 26.9 C 7.93 g/m*3 26.9 C 0 km/h
1680 09-07-2010 00:10:03 26.8 C 7.89 g/m*3 26.8 C 0 km/h
1681 09-07-2010 00:22:03 26.2 C 8.12 g/m*3 26.2 C 0 km/h
1682 09-07-2010 00:34:03 25.5 C 8.29 g/m*3 25.5 C 0 km/h
1683 09-07-2010 00:46:03 25.3 C 8.66 g/m*3 25.3 C 0 km/h
1684 09-07-2010 00:58:03 24.5 C 8.95 g/m*3 24.5 C 0 km/h
1685 09-07-2010 01:10:03 24.3 C 8.85 g/m*3 24.3 C 0 km/h
1686 09-07-2010 01:22:03 24.1 C 8.75 g/m*3 24.1 C 0 km/h
1687 09-07-2010 01:34:03 23.7 C 8.77 g/m*3 23.7 C 0 km/h
1688 09-07-2010 01:46:03 23.5 C 8.88 g/m*3 23.5 C 0 km/h
1689 09-07-2010 01:58:03 23.3 C 8.78 g/m*3 23.3 C 0 km/h
1690 09-07-2010 02:10:03 23 C 8.84 g/m*3 23 C 0 km/h
1691 09-07-2010 02:22:03 22.8 C 9.14 g/m*3 22.8 C 0 km/h
1692 09-07-2010 02:34:03 22.4 C 9.14 g/m*3 22.4 C 0 km/h
1693 09-07-2010 02:46:03 22 C 8.73 g/m*3 22 C 0 km/h
1694 09-07-2010 02:58:03 21.8 C 8.83 g/m*3 21.8 C 0 km/h
1695 09-07-2010 03:10:03 21.7 C 8.97 g/m*3 21.7 C 0 km/h
1696 09-07-2010 03:22:03 21.4 C 9.37 g/m*3 21.4 C 0 km/h
1697 09-07-2010 03:34:03 21.3 C 9.32 g/m*3 21.3 C 0 km/h
1698 09-07-2010 03:46:04 21 C 9.16 g/m*3 21 C 0 km/h
1699 09-07-2010 03:58:04 20.8 C 9.23 g/m*3 20.8 C 0 km/h
1700 09-07-2010 04:10:04 20.5 C 9.43 g/m*3 20.5 C 0 km/h
Sensor: Nr:Datum:Temp:Abs-Feuchte:Windchill:Wind:
Aussen-T/F 1701 09-07-2010 04:22:04 20.3 C 9.32 g/m*3 20.3 C 0 km/h
1702 09-07-2010 04:34:04 20.2 C 9.44 g/m*3 20.2 C 0 km/h
1703 09-07-2010 04:46:04 20 C 9.51 g/m*3 20 C 0 km/h
1704 09-07-2010 04:58:04 19.8 C 9.57 g/m*3 19.8 C 0 km/h
1705 09-07-2010 05:10:04 19.4 C 9.51 g/m*3 19.4 C 0 km/h
1706 09-07-2010 05:22:04 19.3 C 9.45 g/m*3 19.3 C 0 km/h
1707 09-07-2010 05:34:04 19.2 C 9.4 g/m*3 19.2 C 0 km/h
1708 09-07-2010 05:46:04 19.1 C 9.51 g/m*3 19.1 C 0 km/h
1709 09-07-2010 05:58:04 19.1 C 9.51 g/m*3 19.1 C 0 km/h
1710 09-07-2010 06:10:04 19 C 9.78 g/m*3 19 C 0 km/h
1711 09-07-2010 06:22:04 19.1 C 9.84 g/m*3 19.1 C 0 km/h
1712 09-07-2010 06:34:04 18.9 C 10.04 g/m*3 18.9 C 0 km/h
1713 09-07-2010 06:46:04 19.1 C 10 g/m*3 19.1 C 0 km/h
1714 09-07-2010 06:58:04 19.2 C 10.22 g/m*3 19.2 C 0 km/h
1715 09-07-2010 07:10:02 19.3 C 10.12 g/m*3 19.3 C 0 km/h
1716 09-07-2010 07:22:02 19.4 C 10.18 g/m*3 19.4 C 0 km/h
1717 09-07-2010 07:34:02 19.9 C 10.31 g/m*3 19.9 C 0 km/h
1718 09-07-2010 07:46:02 20.3 C 9.85 g/m*3 20.3 C 0 km/h
1719 09-07-2010 07:58:02 20.6 C 10.02 g/m*3 20.6 C 0 km/h
1720 09-07-2010 08:10:01 20.8 C 9.96 g/m*3 20.8 C 0 km/h
1721 09-07-2010 08:22:01 21.3 C 10.07 g/m*3 21.3 C 0 km/h
1722 09-07-2010 08:34:02 21.5 C 9.99 g/m*3 21.5 C 0 km/h
1723 09-07-2010 08:46:02 21.8 C 9.98 g/m*3 21.8 C 0 km/h
1724 09-07-2010 08:58:02 22.1 C 9.76 g/m*3 22.1 C 0 km/h
1725 09-07-2010 09:10:02 22.6 C 10.04 g/m*3 22.6 C 0 km/h
Sensor: Nr:Datum:Temp:Abs-Feuchte:Windchill:Wind:
Aussen-T/F 1726 09-07-2010 09:22:02 23.3 C 10.04 g/m*3 23.3 C 0 km/h
1727 09-07-2010 09:34:02 24.1 C 10.06 g/m*3 24.1 C 0 km/h
1728 09-07-2010 09:46:02 25 C 10.13 g/m*3 25 C 0 km/h
1729 09-07-2010 09:58:02 25.8 C 10.35 g/m*3 25.8 C 0 km/h
1730 09-07-2010 10:10:02 26.5 C 10.26 g/m*3 26.5 C 0 km/h
1731 09-07-2010 10:22:02 27.3 C 10.2 g/m*3 27.3 C 0 km/h
1732 09-07-2010 10:34:02 27.8 C 10.49 g/m*3 27.8 C 0 km/h
1733 09-07-2010 10:46:01 28.8 C 10.23 g/m*3 28.8 C 0 km/h
1734 09-07-2010 10:58:01 29.3 C 10.22 g/m*3 29.3 C 0 km/h
1735 09-07-2010 11:10:02 30 C 10.01 g/m*3 30 C 0 km/h
1736 09-07-2010 11:22:01 30.2 C 10.42 g/m*3 30.2 C 0 km/h
1737 09-07-2010 11:34:01 30.8 C 9.5 g/m*3 30.8 C 0 km/h
1738 09-07-2010 11:46:01 31.3 C 8.46 g/m*3 31.3 C 0 km/h
1739 09-07-2010 11:58:01 31.8 C 7.35 g/m*3 31.8 C 0 km/h
1740 09-07-2010 12:10:02 32.3 C 6.86 g/m*3 32.3 C 0 km/h
1741 09-07-2010 12:22:01 32.7 C 7.01 g/m*3 32.7 C 0 km/h
1742 09-07-2010 12:34:01 33.2 C 7.2 g/m*3 33.2 C 0 km/h
1743 09-07-2010 12:46:01 33.6 C 7.35 g/m*3 33.6 C 0 km/h
1744 09-07-2010 12:58:01 33.9 C 7.46 g/m*3 33.9 C 0 km/h
1745 09-07-2010 13:10:02 34.2 C 7.58 g/m*3 34.2 C 0 km/h
1746 09-07-2010 13:22:02 34.2 C 7.58 g/m*3 34.2 C 0 km/h
1747 09-07-2010 13:34:01 34.6 C 7.74 g/m*3 34.6 C 0 km/h
1748 09-07-2010 13:46:01 35 C 7.91 g/m*3 35 C 0 km/h
1749 09-07-2010 13:58:01 34.8 C 7.82 g/m*3 34.8 C 0 km/h
1750 09-07-2010 14:10:02 33.9 C 7.46 g/m*3 33.9 C 0 km/h
Sensor: Nr:Datum:Temp:Abs-Feuchte:Windchill:Wind:
Aussen-T/F 1751 09-07-2010 14:22:02 33.5 C 7.31 g/m*3 33.5 C 0 km/h
1752 09-07-2010 14:34:01 33.1 C 7.16 g/m*3 33.1 C 0 km/h
1753 09-07-2010 14:46:01 33 C 7.12 g/m*3 33 C 0 km/h
1754 09-07-2010 14:58:01 32.8 C 7.04 g/m*3 32.8 C 0 km/h
1755 09-07-2010 15:10:02 33.2 C 7.2 g/m*3 33.2 C 0 km/h
1756 09-07-2010 15:22:02 33.2 C 7.2 g/m*3 33.2 C 0 km/h
1757 09-07-2010 15:34:01 33.8 C 7.43 g/m*3 33.8 C 0 km/h
1758 09-07-2010 15:46:02 33.9 C 7.46 g/m*3 33.9 C 0 km/h
1759 09-07-2010 15:58:02 33.3 C 7.23 g/m*3 33.3 C 0 km/h
1760 09-07-2010 16:10:01 33.2 C 7.2 g/m*3 33.2 C 0 km/h
1761 09-07-2010 16:22:02 32.9 C 7.08 g/m*3 32.9 C 0 km/h
1762 09-07-2010 16:34:01 32.1 C 7.13 g/m*3 32.1 C 0 km/h
1763 09-07-2010 16:46:03 31.8 C 8.35 g/m*3 31.8 C 0 km/h
1764 09-07-2010 16:58:03 31.4 C 8.83 g/m*3 31.4 C 0 km/h
1765 09-07-2010 17:10:02 31.2 C 8.73 g/m*3 31.2 C 0 km/h
1766 09-07-2010 17:22:02 31.8 C 8.35 g/m*3 31.8 C 0 km/h
1767 09-07-2010 17:34:02 32.8 C 7.04 g/m*3 32.8 C 0 km/h
1768 09-07-2010 17:46:02 32.7 C 7.36 g/m*3 32.7 C 0 km/h
1769 09-07-2010 17:58:02 33.1 C 7.16 g/m*3 33.1 C 0 km/h
1770 09-07-2010 18:10:02 33.2 C 7.2 g/m*3 33.2 C 0 km/h
1771 09-07-2010 18:22:02 33.4 C 7.27 g/m*3 33.4 C 0 km/h
1772 09-07-2010 18:34:02 33.1 C 7.16 g/m*3 33.1 C 0 km/h
1773 09-07-2010 18:46:02 33.6 C 7.35 g/m*3 33.6 C 0 km/h
1774 09-07-2010 18:58:02 33.8 C 7.43 g/m*3 33.8 C 0 km/h
1775 09-07-2010 19:10:03 33.6 C 7.35 g/m*3 33.6 C 0 km/h
Sensor: Nr:Datum:Temp:Abs-Feuchte:Windchill:Wind:
Aussen-T/F 1776 09-07-2010 19:22:03 33.5 C 7.31 g/m*3 33.5 C 0 km/h
1777 09-07-2010 19:34:03 33.5 C 7.31 g/m*3 33.5 C 0 km/h
1778 09-07-2010 19:46:01 33.5 C 7.31 g/m*3 33.5 C 0 km/h
1779 09-07-2010 19:58:01 33.3 C 7.23 g/m*3 33.3 C 0 km/h
1780 09-07-2010 20:10:01 33.1 C 7.16 g/m*3 33.1 C 0 km/h
1781 09-07-2010 20:22:00 32.9 C 7.08 g/m*3 32.9 C 0 km/h
1782 09-07-2010 20:34:01 32.1 C 7.47 g/m*3 32.1 C 0 km/h
1783 09-07-2010 20:46:01 31.3 C 7.81 g/m*3 31.3 C 0 km/h
1784 09-07-2010 20:58:01 30.8 C 8.23 g/m*3 30.8 C 0 km/h
1785 09-07-2010 21:10:02 30.4 C 8.37 g/m*3 30.4 C 0 km/h
1786 09-07-2010 21:22:01 30.2 C 8.58 g/m*3 30.2 C 0 km/h
1787 09-07-2010 21:34:01 30 C 8.79 g/m*3 30 C 0 km/h
1788 09-07-2010 21:46:02 29.6 C 8.9 g/m*3 29.6 C 0 km/h
1789 09-07-2010 21:58:02 29.5 C 8.85 g/m*3 29.5 C 0 km/h
1790 09-07-2010 22:10:02 29.2 C 9 g/m*3 29.2 C 0 km/h
1791 09-07-2010 22:22:02 28.9 C 9.43 g/m*3 28.9 C 0 km/h
1792 09-07-2010 22:34:02 28.9 C 9.71 g/m*3 28.9 C 0 km/h
1793 09-07-2010 22:47:03 28.6 C 9.84 g/m*3 28.6 C 0 km/h
1794 09-07-2010 22:59:03 28.3 C 9.4 g/m*3 28.3 C 0 km/h
1795 09-07-2010 23:11:03 28 C 9.25 g/m*3 28 C 0 km/h
1796 09-07-2010 23:23:04 27.9 C 9.47 g/m*3 27.9 C 0 km/h
1797 09-07-2010 23:35:04 27.8 C 9.68 g/m*3 27.8 C 0 km/h
1798 09-07-2010 23:47:04 27.6 C 9.84 g/m*3 27.6 C 0 km/h
1799 09-07-2010 23:59:04 27.6 C 9.84 g/m*3 27.6 C 0 km/h
1800 10-07-2010 00:11:04 27 C 9.78 g/m*3 27 C 0 km/h
Sensor: Nr:Datum:Temp:Abs-Feuchte:Windchill:Wind:
Aussen-T/F 1801 10-07-2010 00:23:04 26.6 C 10.07 g/m*3 26.6 C 0 km/h
1802 10-07-2010 00:35:04 26.3 C 10.15 g/m*3 26.3 C 0 km/h
1803 10-07-2010 00:47:04 25.9 C 10.17 g/m*3 25.9 C 0 km/h
1804 10-07-2010 00:59:04 25.7 C 10.29 g/m*3 25.7 C 0 km/h
1805 10-07-2010 01:11:04 25.3 C 10.3 g/m*3 25.3 C 0 km/h
1806 10-07-2010 01:23:04 25.2 C 10.48 g/m*3 25.2 C 0 km/h
1807 10-07-2010 01:35:04 24.8 C 10.7 g/m*3 24.8 C 0 km/h
1808 10-07-2010 01:47:04 24.8 C 10.7 g/m*3 24.8 C 0 km/h
1809 10-07-2010 01:59:04 24.7 C 10.64 g/m*3 24.7 C 0 km/h
1810 10-07-2010 02:11:04 24.5 C 10.52 g/m*3 24.5 C 0 km/h
1811 10-07-2010 02:23:04 24.5 C 10.74 g/m*3 24.5 C 0 km/h
1812 10-07-2010 02:35:04 24.2 C 10.78 g/m*3 24.2 C 0 km/h
1813 10-07-2010 02:47:04 24.1 C 10.94 g/m*3 24.1 C 0 km/h
1814 10-07-2010 02:59:04 23.7 C 10.91 g/m*3 23.7 C 0 km/h
1815 10-07-2010 03:11:04 23.5 C 11.21 g/m*3 23.5 C 0 km/h
1816 10-07-2010 03:23:04 23.2 C 11.23 g/m*3 23.2 C 0 km/h
1817 10-07-2010 03:35:05 23.1 C 11.58 g/m*3 23.1 C 0 km/h
1818 10-07-2010 03:47:05 22.9 C 11.44 g/m*3 22.9 C 0 km/h
1819 10-07-2010 03:59:05 22.8 C 11.58 g/m*3 22.8 C 0 km/h
1820 10-07-2010 04:11:05 22.7 C 11.52 g/m*3 22.7 C 0 km/h
1821 10-07-2010 04:23:05 22.5 C 11.39 g/m*3 22.5 C 0 km/h
1822 10-07-2010 04:35:05 22.3 C 11.45 g/m*3 22.3 C 0 km/h
1823 10-07-2010 04:47:05 22.2 C 11.58 g/m*3 22.2 C 0 km/h
1824 10-07-2010 04:59:05 22 C 11.45 g/m*3 22 C 0 km/h
1825 10-07-2010 05:11:05 21.8 C 11.7 g/m*3 21.8 C 0 km/h
Sensor: Nr:Datum:Temp:Abs-Feuchte:Windchill:Wind:
Aussen-T/F 1826 10-07-2010 05:23:05 21.8 C 11.7 g/m*3 21.8 C 0 km/h
1827 10-07-2010 05:35:05 21.7 C 11.64 g/m*3 21.7 C 0 km/h
1828 10-07-2010 05:47:05 21.6 C 11.57 g/m*3 21.6 C 0 km/h
1829 10-07-2010 05:59:05 21.3 C 11.74 g/m*3 21.3 C 0 km/h
1830 10-07-2010 06:11:05 21.2 C 11.86 g/m*3 21.2 C 0 km/h
1831 10-07-2010 06:23:05 21.1 C 11.98 g/m*3 21.1 C 0 km/h
1832 10-07-2010 06:35:03 21.3 C 11.93 g/m*3 21.3 C 0 km/h
1833 10-07-2010 06:47:02 21.3 C 11.93 g/m*3 21.3 C 0 km/h
1834 10-07-2010 06:59:02 21.6 C 12.14 g/m*3 21.6 C 0 km/h
1835 10-07-2010 07:11:02 21.6 C 11.95 g/m*3 21.6 C 0 km/h
1836 10-07-2010 07:23:01 21.6 C 12.14 g/m*3 21.6 C 0 km/h
1837 10-07-2010 07:35:01 21.8 C 12.47 g/m*3 21.8 C 0 km/h
1838 10-07-2010 07:47:01 22.1 C 12.3 g/m*3 22.1 C 0 km/h
1839 10-07-2010 07:59:01 22.4 C 12.31 g/m*3 22.4 C 0 km/h
1840 10-07-2010 08:11:01 22.7 C 12.32 g/m*3 22.7 C 0 km/h
1841 10-07-2010 08:23:02 23 C 11.92 g/m*3 23 C 0 km/h
1842 10-07-2010 08:35:01 23.3 C 11.92 g/m*3 23.3 C 0 km/h
1843 10-07-2010 08:47:02 23.7 C 11.98 g/m*3 23.7 C 0 km/h
1844 10-07-2010 08:59:02 24.2 C 11.88 g/m*3 24.2 C 0 km/h
1845 10-07-2010 09:11:02 24.6 C 11.93 g/m*3 24.6 C 0 km/h
1846 10-07-2010 09:23:02 25.2 C 11.87 g/m*3 25.2 C 0 km/h
1847 10-07-2010 09:35:02 25.9 C 11.62 g/m*3 25.9 C 0 km/h
1848 10-07-2010 09:47:02 26.8 C 11.45 g/m*3 26.8 C 0 km/h
1849 10-07-2010 09:59:02 27.7 C 11.77 g/m*3 27.7 C 0 km/h
1850 10-07-2010 10:11:02 28.1 C 11.48 g/m*3 28.1 C 0 km/h
Sensor: Nr:Datum:Temp:Abs-Feuchte:Windchill:Wind:
Aussen-T/F 1851 10-07-2010 10:23:02 28.9 C 12 g/m*3 28.9 C 0 km/h
1852 10-07-2010 10:35:02 29.8 C 11.7 g/m*3 29.8 C 0 km/h
1853 10-07-2010 10:47:02 30 C 11.22 g/m*3 30 C 0 km/h
1854 10-07-2010 10:59:02 30.4 C 11.16 g/m*3 30.4 C 0 km/h
1855 10-07-2010 11:11:02 30.9 C 10.5 g/m*3 30.9 C 0 km/h
1856 10-07-2010 11:23:02 31.2 C 9.7 g/m*3 31.2 C 0 km/h
1857 10-07-2010 11:35:02 31.3 C 8.78 g/m*3 31.3 C 0 km/h
1858 10-07-2010 11:47:02 31.8 C 8.68 g/m*3 31.8 C 0 km/h
1859 10-07-2010 11:59:02 32.1 C 8.48 g/m*3 32.1 C 0 km/h
1860 10-07-2010 12:11:02 32.6 C 8.02 g/m*3 32.6 C 0 km/h
1861 10-07-2010 12:23:02 32.9 C 7.08 g/m*3 32.9 C 0 km/h
1862 10-07-2010 12:35:02 33.5 C 7.31 g/m*3 33.5 C 0 km/h
1863 10-07-2010 12:47:02 34 C 7.5 g/m*3 34 C 0 km/h
1864 10-07-2010 12:59:02 34.1 C 7.54 g/m*3 34.1 C 0 km/h
1865 10-07-2010 13:11:02 34.2 C 7.58 g/m*3 34.2 C 0 km/h
1866 10-07-2010 13:23:02 34.8 C 7.82 g/m*3 34.8 C 0 km/h
1867 10-07-2010 13:35:02 35.1 C 7.95 g/m*3 35.1 C 0 km/h
1868 10-07-2010 13:47:02 35.1 C 7.95 g/m*3 35.1 C 0 km/h
1869 10-07-2010 13:59:02 34.8 C 7.82 g/m*3 34.8 C 0 km/h
1870 10-07-2010 14:11:02 34.5 C 7.7 g/m*3 34.5 C 0 km/h
1871 10-07-2010 14:23:01 34.6 C 7.74 g/m*3 34.6 C 0 km/h
1872 10-07-2010 14:35:02 34.6 C 7.74 g/m*3 34.6 C 0 km/h
1873 10-07-2010 14:47:01 34.3 C 7.62 g/m*3 34.3 C 0 km/h
1874 10-07-2010 14:59:01 34.2 C 7.58 g/m*3 34.2 C 0 km/h
1875 10-07-2010 15:11:02 34.8 C 7.82 g/m*3 34.8 C 0 km/h
Sensor: Nr:Datum:Temp:Abs-Feuchte:Windchill:Wind:
Aussen-T/F 1876 10-07-2010 15:23:02 35.1 C 7.95 g/m*3 35.1 C 0 km/h
1877 10-07-2010 15:35:01 35.2 C 7.99 g/m*3 35.2 C 0 km/h
1878 10-07-2010 15:47:02 35.4 C 8.07 g/m*3 35.4 C 0 km/h
1879 10-07-2010 15:59:02 35.5 C 8.11 g/m*3 35.5 C 0 km/h
1880 10-07-2010 16:11:01 35.4 C 8.07 g/m*3 35.4 C 0 km/h
1881 10-07-2010 16:23:02 35.6 C 8.16 g/m*3 35.6 C 0 km/h
1882 10-07-2010 16:35:01 35.7 C 8.2 g/m*3 35.7 C 0 km/h
1883 10-07-2010 16:47:03 35.7 C 8.2 g/m*3 35.7 C 0 km/h
1884 10-07-2010 16:59:03 35.7 C 8.2 g/m*3 35.7 C 0 km/h
1885 10-07-2010 17:11:02 35.7 C 8.2 g/m*3 35.7 C 0 km/h
1886 10-07-2010 17:23:03 35.9 C 8.28 g/m*3 35.9 C 0 km/h
1887 10-07-2010 17:35:02 35.8 C 8.24 g/m*3 35.8 C 0 km/h
1888 10-07-2010 17:47:03 36 C 8.33 g/m*3 36 C 0 km/h
1889 10-07-2010 17:59:03 35.6 C 8.16 g/m*3 35.6 C 0 km/h
1890 10-07-2010 18:11:02 35.8 C 8.24 g/m*3 35.8 C 0 km/h
1891 10-07-2010 18:23:02 36 C 8.33 g/m*3 36 C 0 km/h
1892 10-07-2010 18:35:02 35.9 C 8.28 g/m*3 35.9 C 0 km/h
1893 10-07-2010 18:47:02 36 C 8.33 g/m*3 36 C 0 km/h
1894 10-07-2010 18:59:02 35.9 C 8.28 g/m*3 35.9 C 0 km/h
1895 10-07-2010 19:11:01 35.7 C 8.2 g/m*3 35.7 C 0 km/h
1896 10-07-2010 19:23:02 35.6 C 8.16 g/m*3 35.6 C 0 km/h
1897 10-07-2010 19:35:01 35.4 C 8.07 g/m*3 35.4 C 0 km/h
1898 10-07-2010 19:47:02 35.3 C 8.03 g/m*3 35.3 C 0 km/h
1899 10-07-2010 19:59:02 34.9 C 7.87 g/m*3 34.9 C 0 km/h
1900 10-07-2010 20:11:01 34.5 C 7.7 g/m*3 34.5 C 0 km/h
Sensor: Nr:Datum:Temp:Abs-Feuchte:Windchill:Wind:
Aussen-T/F 1901 10-07-2010 20:23:01 34 C 7.5 g/m*3 34 C 0 km/h
1902 10-07-2010 20:35:02 33.6 C 8.08 g/m*3 33.6 C 0 km/h
1903 10-07-2010 20:47:02 33.1 C 8.59 g/m*3 33.1 C 0 km/h
1904 10-07-2010 20:59:03 32.7 C 9.11 g/m*3 32.7 C 0 km/h
1905 10-07-2010 21:11:01 32.2 C 9.21 g/m*3 32.2 C 0 km/h
1906 10-07-2010 21:23:02 31.6 C 9.58 g/m*3 31.6 C 0 km/h
1907 10-07-2010 21:35:02 31.2 C 9.38 g/m*3 31.2 C 0 km/h
1908 10-07-2010 21:47:01 30.8 C 9.5 g/m*3 30.8 C 0 km/h
1909 10-07-2010 21:59:01 30.7 C 9.45 g/m*3 30.7 C 0 km/h
1910 10-07-2010 22:11:01 30.5 C 9.97 g/m*3 30.5 C 0 km/h
1911 10-07-2010 22:23:01 30.4 C 9.92 g/m*3 30.4 C 0 km/h
1912 10-07-2010 22:35:02 30.4 C 9.92 g/m*3 30.4 C 0 km/h
1913 10-07-2010 22:47:02 30.5 C 9.97 g/m*3 30.5 C 0 km/h
1914 10-07-2010 22:59:02 30.4 C 9.92 g/m*3 30.4 C 0 km/h
1915 10-07-2010 23:11:02 30.6 C 9.4 g/m*3 30.6 C 0 km/h
1916 10-07-2010 23:23:02 30.2 C 9.81 g/m*3 30.2 C 0 km/h
1917 10-07-2010 23:35:02 30.1 C 10.06 g/m*3 30.1 C 0 km/h
1918 10-07-2010 23:47:02 30.1 C 9.76 g/m*3 30.1 C 0 km/h
1919 10-07-2010 23:59:02 30 C 10.01 g/m*3 30 C 0 km/h
1920 11-07-2010 00:11:03 29.9 C 9.95 g/m*3 29.9 C 0 km/h
1921 11-07-2010 00:23:02 30 C 9.7 g/m*3 30 C 0 km/h
1922 11-07-2010 00:36:04 29.7 C 9.85 g/m*3 29.7 C 0 km/h
1923 11-07-2010 00:48:04 29.8 C 9.9 g/m*3 29.8 C 0 km/h
1924 11-07-2010 01:00:04 29.8 C 9.9 g/m*3 29.8 C 0 km/h
1925 11-07-2010 01:12:04 29.6 C 9.79 g/m*3 29.6 C 0 km/h
Sensor: Nr:Datum:Temp:Abs-Feuchte:Windchill:Wind:
Aussen-T/F 1926 11-07-2010 01:24:04 29.5 C 10.03 g/m*3 29.5 C 0 km/h
1927 11-07-2010 01:36:04 28.3 C 10.23 g/m*3 28.3 C 0 km/h
1928 11-07-2010 01:48:04 25.4 C 14.83 g/m*3 25.4 C 0 km/h
1929 11-07-2010 02:00:04 24 C 16.1 g/m*3 24 C 0 km/h
1930 11-07-2010 02:12:04 24.5 C 15.44 g/m*3 24.5 C 0 km/h
1931 11-07-2010 02:24:04 25 C 14.73 g/m*3 25 C 0 km/h
1932 11-07-2010 02:36:04 23.7 C 16.47 g/m*3 23.7 C 0 km/h
1933 11-07-2010 02:48:04 22.9 C 16.55 g/m*3 22.9 C 0 km/h
1934 11-07-2010 03:00:04 23.2 C 16.42 g/m*3 23.2 C 0 km/h
1935 11-07-2010 03:12:04 23.6 C 16.59 g/m*3 23.6 C 0 km/h
1936 11-07-2010 03:24:04 23.7 C 16.47 g/m*3 23.7 C 0 km/h
1937 11-07-2010 03:36:05 23.3 C 15.89 g/m*3 23.3 C 0 km/h
1938 11-07-2010 03:48:05 23.1 C 15.92 g/m*3 23.1 C 0 km/h
1939 11-07-2010 04:00:05 22.5 C 16.18 g/m*3 22.5 C 0 km/h
1940 11-07-2010 04:12:05 22.1 C 16.4 g/m*3 22.1 C 0 km/h
1941 11-07-2010 04:24:05 21.9 C 16.6 g/m*3 21.9 C 0 km/h
1942 11-07-2010 04:36:05 21.6 C 16.31 g/m*3 21.6 C 0 km/h
1943 11-07-2010 04:48:05 21.8 C 16.69 g/m*3 21.8 C 0 km/h
1944 11-07-2010 05:00:05 21.9 C 16.6 g/m*3 21.9 C 0 km/h
1945 11-07-2010 05:12:05 22 C 16.11 g/m*3 22 C 0 km/h
1946 11-07-2010 05:24:05 22.2 C 16.3 g/m*3 22.2 C 0 km/h
1947 11-07-2010 05:36:05 21.9 C 16.02 g/m*3 21.9 C 0 km/h
1948 11-07-2010 05:48:05 22 C 16.11 g/m*3 22 C 0 km/h
1949 11-07-2010 06:00:05 21.9 C 16.21 g/m*3 21.9 C 0 km/h
1950 11-07-2010 06:12:05 21.8 C 16.12 g/m*3 21.8 C 0 km/h
Sensor: Nr:Datum:Temp:Abs-Feuchte:Windchill:Wind:
Aussen-T/F 1951 11-07-2010 06:24:05 21.8 C 16.12 g/m*3 21.8 C 0 km/h
1952 11-07-2010 06:36:05 21.7 C 16.02 g/m*3 21.7 C 0 km/h
1953 11-07-2010 06:48:05 22 C 15.91 g/m*3 22 C 0 km/h
1954 11-07-2010 07:00:05 22.5 C 15.98 g/m*3 22.5 C 0 km/h
1955 11-07-2010 07:12:05 22.6 C 15.47 g/m*3 22.6 C 0 km/h
1956 11-07-2010 07:24:05 22.8 C 15.65 g/m*3 22.8 C 0 km/h
1957 11-07-2010 07:36:05 22.8 C 15.65 g/m*3 22.8 C 0 km/h
1958 11-07-2010 07:48:06 23.1 C 15.92 g/m*3 23.1 C 0 km/h
1959 11-07-2010 08:00:06 23.5 C 15.65 g/m*3 23.5 C 0 km/h
1960 11-07-2010 08:12:06 24 C 15.45 g/m*3 24 C 0 km/h
1961 11-07-2010 08:24:06 24.5 C 15.44 g/m*3 24.5 C 0 km/h
1962 11-07-2010 08:36:06 24.7 C 15.39 g/m*3 24.7 C 0 km/h
1963 11-07-2010 08:48:02 24.4 C 15.36 g/m*3 24.4 C 0 km/h
1964 11-07-2010 09:00:02 23.8 C 15.06 g/m*3 23.8 C 0 km/h
1965 11-07-2010 09:12:02 23.9 C 15.36 g/m*3 23.9 C 0 km/h
1966 11-07-2010 09:24:03 24.4 C 14.91 g/m*3 24.4 C 0 km/h
1967 11-07-2010 09:36:02 24.7 C 14.49 g/m*3 24.7 C 0 km/h
1968 11-07-2010 09:48:03 25.3 C 14.05 g/m*3 25.3 C 0 km/h
1969 11-07-2010 10:00:03 25.9 C 13.56 g/m*3 25.9 C 0 km/h
1970 11-07-2010 10:12:02 26.3 C 12.87 g/m*3 26.3 C 0 km/h
1971 11-07-2010 10:24:02 26.9 C 13.05 g/m*3 26.9 C 0 km/h
1972 11-07-2010 10:36:02 27.1 C 12.42 g/m*3 27.1 C 0 km/h
1973 11-07-2010 10:53:34 27.8 C 12.64 g/m*3 27.8 C 0 km/h
1974 11-07-2010 11:05:34 27.8 C 12.64 g/m*3 27.8 C 0 km/h
1975 11-07-2010 11:17:34 28 C 12.24 g/m*3 28 C 0 km/h
Sensor: Nr:Datum:Temp:Abs-Feuchte:Windchill:Wind:
Aussen-T/F 1976 11-07-2010 11:29:34 28.4 C 12.51 g/m*3 28.4 C 0 km/h
1977 11-07-2010 11:41:34 29.1 C 12.13 g/m*3 29.1 C 0 km/h
1978 11-07-2010 11:53:35 29.4 C 11.74 g/m*3 29.4 C 0 km/h
1979 11-07-2010 12:05:35 30.3 C 11.4 g/m*3 30.3 C 0 km/h
1980 11-07-2010 12:17:35 30.3 C 10.79 g/m*3 30.3 C 0 km/h
1981 11-07-2010 12:29:35 30.8 C 10.76 g/m*3 30.8 C 0 km/h
1982 11-07-2010 12:41:35 30.7 C 10.39 g/m*3 30.7 C 0 km/h
1983 11-07-2010 12:53:35 30.1 C 10.67 g/m*3 30.1 C 0 km/h
1984 11-07-2010 13:05:35 31.5 C 9.86 g/m*3 31.5 C 0 km/h
1985 11-07-2010 13:17:35 32.1 C 8.82 g/m*3 32.1 C 0 km/h
1986 11-07-2010 13:29:35 30.7 C 9.76 g/m*3 30.7 C 0 km/h
1987 11-07-2010 13:41:35 31.7 C 8.97 g/m*3 31.7 C 0 km/h
1988 11-07-2010 13:53:35 32.3 C 8.23 g/m*3 32.3 C 0 km/h
1989 11-07-2010 14:05:35 32.1 C 8.48 g/m*3 32.1 C 0 km/h
1990 11-07-2010 14:17:35 32.1 C 8.48 g/m*3 32.1 C 0 km/h
1991 11-07-2010 14:29:35 31.8 C 8.35 g/m*3 31.8 C 0 km/h
1992 11-07-2010 14:41:35 32 C 8.44 g/m*3 32 C 0 km/h
1993 11-07-2010 14:53:35 32.3 C 7.89 g/m*3 32.3 C 0 km/h
1994 11-07-2010 15:05:35 32.3 C 7.55 g/m*3 32.3 C 0 km/h
1995 11-07-2010 15:17:35 32.8 C 7.75 g/m*3 32.8 C 0 km/h
1996 11-07-2010 15:29:35 33 C 7.48 g/m*3 33 C 0 km/h
1997 11-07-2010 15:41:35 33 C 7.48 g/m*3 33 C 0 km/h
1998 11-07-2010 15:53:35 33.1 C 7.52 g/m*3 33.1 C 0 km/h
1999 11-07-2010 16:05:36 33.7 C 7.39 g/m*3 33.7 C 0 km/h
2000 11-07-2010 16:17:36 33.7 C 7.39 g/m*3 33.7 C 0 km/h
Sensor: Nr:Datum:Temp:Abs-Feuchte:Windchill:Wind:
Aussen-T/F 2001 11-07-2010 16:29:36 33.7 C 7.39 g/m*3 33.7 C 0 km/h
2002 11-07-2010 16:41:36 33.8 C 7.43 g/m*3 33.8 C 0 km/h
2003 11-07-2010 16:53:36 33.6 C 7.35 g/m*3 33.6 C 0 km/h
2004 11-07-2010 17:05:36 34 C 7.5 g/m*3 34 C 0 km/h
2005 11-07-2010 17:17:36 34 C 7.5 g/m*3 34 C 0 km/h
2006 11-07-2010 17:29:36 34.5 C 7.7 g/m*3 34.5 C 0 km/h
2007 11-07-2010 17:41:36 34.6 C 7.74 g/m*3 34.6 C 0 km/h
2008 11-07-2010 17:53:36 34.2 C 7.58 g/m*3 34.2 C 0 km/h
2009 11-07-2010 18:05:36 34.1 C 7.54 g/m*3 34.1 C 0 km/h
2010 11-07-2010 18:17:36 34.1 C 7.54 g/m*3 34.1 C 0 km/h
2011 11-07-2010 18:29:36 34 C 7.5 g/m*3 34 C 0 km/h
2012 11-07-2010 18:41:36 34.2 C 7.58 g/m*3 34.2 C 0 km/h
2013 11-07-2010 18:53:36 34.2 C 7.58 g/m*3 34.2 C 0 km/h
2014 11-07-2010 19:05:36 34.3 C 7.62 g/m*3 34.3 C 0 km/h
2015 11-07-2010 19:17:36 34.2 C 7.58 g/m*3 34.2 C 0 km/h
2016 11-07-2010 19:29:36 33.8 C 7.43 g/m*3 33.8 C 0 km/h
2017 11-07-2010 19:41:36 33.8 C 7.43 g/m*3 33.8 C 0 km/h
2018 11-07-2010 19:53:36 33.5 C 7.31 g/m*3 33.5 C 0 km/h
2019 11-07-2010 20:05:37 33.7 C 7.39 g/m*3 33.7 C 0 km/h
2020 11-07-2010 20:17:37 33.7 C 7.39 g/m*3 33.7 C 0 km/h
2021 11-07-2010 20:29:37 33.4 C 7.63 g/m*3 33.4 C 0 km/h
2022 11-07-2010 20:41:37 33.1 C 8.23 g/m*3 33.1 C 0 km/h
2023 11-07-2010 20:53:37 32.6 C 8.71 g/m*3 32.6 C 0 km/h
2024 11-07-2010 21:05:37 31.9 C 9.4 g/m*3 31.9 C 0 km/h
2025 11-07-2010 21:17:37 31.2 C 9.7 g/m*3 31.2 C 0 km/h
Sensor: Nr:Datum:Temp:Abs-Feuchte:Windchill:Wind:
Aussen-T/F 2026 11-07-2010 21:29:37 30.7 C 10.08 g/m*3 30.7 C 0 km/h
2027 11-07-2010 21:41:37 30.4 C 10.54 g/m*3 30.4 C 0 km/h
2028 11-07-2010 21:53:37 30.2 C 10.73 g/m*3 30.2 C 0 km/h
2029 11-07-2010 22:05:37 30.1 C 10.67 g/m*3 30.1 C 0 km/h
2030 11-07-2010 22:17:37 30 C 10.92 g/m*3 30 C 0 km/h
2031 11-07-2010 22:29:37 29.9 C 10.86 g/m*3 29.9 C 0 km/h
2032 11-07-2010 22:41:37 29.7 C 11.04 g/m*3 29.7 C 0 km/h
2033 11-07-2010 22:53:37 29.4 C 10.86 g/m*3 29.4 C 0 km/h
2034 11-07-2010 23:05:37 29.1 C 10.97 g/m*3 29.1 C 0 km/h
2035 11-07-2010 23:17:37 28.6 C 11.24 g/m*3 28.6 C 0 km/h
2036 11-07-2010 23:29:37 28.4 C 11.12 g/m*3 28.4 C 0 km/h
2037 11-07-2010 23:41:37 28.5 C 11.18 g/m*3 28.5 C 0 km/h
2038 11-07-2010 23:53:37 28.1 C 11.21 g/m*3 28.1 C 0 km/h
2039 12-07-2010 00:05:37 27.8 C 11.57 g/m*3 27.8 C 0 km/h
2040 12-07-2010 00:17:38 27.4 C 11.84 g/m*3 27.4 C 0 km/h
2041 12-07-2010 00:29:38 27.2 C 11.71 g/m*3 27.2 C 0 km/h
2042 12-07-2010 00:41:38 27 C 11.84 g/m*3 27 C 0 km/h
2043 12-07-2010 00:53:38 26.8 C 12.22 g/m*3 26.8 C 0 km/h
2044 12-07-2010 01:05:38 26.5 C 12.27 g/m*3 26.5 C 0 km/h
2045 12-07-2010 01:17:38 26.2 C 12.06 g/m*3 26.2 C 0 km/h
2046 12-07-2010 01:29:38 26 C 12.17 g/m*3 26 C 0 km/h
2047 12-07-2010 01:41:38 25.7 C 12.69 g/m*3 25.7 C 0 km/h
2048 12-07-2010 01:53:38 25.7 C 12.45 g/m*3 25.7 C 0 km/h
2049 12-07-2010 02:05:38 25.6 C 12.38 g/m*3 25.6 C 0 km/h
2050 12-07-2010 02:17:38 25.3 C 12.41 g/m*3 25.3 C 0 km/h
Sensor: Nr:Datum:Temp:Abs-Feuchte:Windchill:Wind:
Aussen-T/F 2051 12-07-2010 02:29:38 25.2 C 12.57 g/m*3 25.2 C 0 km/h
2052 12-07-2010 02:41:38 24.9 C 13.05 g/m*3 24.9 C 0 km/h
2053 12-07-2010 02:53:38 24.6 C 13.05 g/m*3 24.6 C 0 km/h
2054 12-07-2010 03:05:38 24.6 C 13.05 g/m*3 24.6 C 0 km/h
2055 12-07-2010 03:17:38 24.2 C 13.2 g/m*3 24.2 C 0 km/h
2056 12-07-2010 03:29:38 24 C 13.05 g/m*3 24 C 0 km/h
2057 12-07-2010 03:41:38 24.1 C 13.13 g/m*3 24.1 C 0 km/h
2058 12-07-2010 03:53:38 24 C 13.05 g/m*3 24 C 0 km/h
2059 12-07-2010 04:05:38 23.7 C 13.05 g/m*3 23.7 C 0 km/h
2060 12-07-2010 04:17:39 23.4 C 13.04 g/m*3 23.4 C 0 km/h
2061 12-07-2010 04:29:39 23.3 C 13.17 g/m*3 23.3 C 0 km/h
2062 12-07-2010 04:41:39 23.2 C 12.89 g/m*3 23.2 C 0 km/h
2063 12-07-2010 04:53:39 23 C 13.15 g/m*3 23 C 0 km/h
2064 12-07-2010 05:05:39 22.9 C 13.28 g/m*3 22.9 C 0 km/h
2065 12-07-2010 05:17:39 22.6 C 13.26 g/m*3 22.6 C 0 km/h
2066 12-07-2010 05:29:39 22.7 C 13.13 g/m*3 22.7 C 0 km/h
2067 12-07-2010 05:41:39 22.6 C 13.06 g/m*3 22.6 C 0 km/h
2068 12-07-2010 05:53:39 22.5 C 13.18 g/m*3 22.5 C 0 km/h
2069 12-07-2010 06:05:39 22.4 C 13.11 g/m*3 22.4 C 0 km/h
2070 12-07-2010 06:17:39 22.4 C 13.5 g/m*3 22.4 C 0 km/h
2071 12-07-2010 06:29:39 22.4 C 13.31 g/m*3 22.4 C 0 km/h
2072 12-07-2010 06:41:39 22.7 C 13.54 g/m*3 22.7 C 0 km/h
2073 12-07-2010 06:53:39 22.8 C 13.41 g/m*3 22.8 C 0 km/h
2074 12-07-2010 07:05:39 22.8 C 13.61 g/m*3 22.8 C 0 km/h
2075 12-07-2010 07:17:39 22.7 C 13.54 g/m*3 22.7 C 0 km/h
Sensor: Nr:Datum:Temp:Abs-Feuchte:Windchill:Wind:
Aussen-T/F 2076 12-07-2010 07:29:39 22.9 C 13.69 g/m*3 22.9 C 0 km/h
2077 12-07-2010 07:41:39 23 C 13.57 g/m*3 23 C 0 km/h
2078 12-07-2010 07:53:39 22.9 C 13.69 g/m*3 22.9 C 0 km/h
2079 12-07-2010 08:05:39 23.1 C 13.64 g/m*3 23.1 C 0 km/h
2080 12-07-2010 08:17:39 23.4 C 13.46 g/m*3 23.4 C 0 km/h
2081 12-07-2010 08:29:40 23.7 C 13.48 g/m*3 23.7 C 0 km/h
2082 12-07-2010 08:41:40 24.3 C 13.72 g/m*3 24.3 C 0 km/h
2083 12-07-2010 08:53:40 24.8 C 13.88 g/m*3 24.8 C 0 km/h
2084 12-07-2010 09:05:40 25.4 C 13.65 g/m*3 25.4 C 0 km/h
2085 12-07-2010 09:17:40 26.1 C 13.71 g/m*3 26.1 C 0 km/h
2086 12-07-2010 09:29:40 26.7 C 13.67 g/m*3 26.7 C 0 km/h
2087 12-07-2010 09:41:40 27.3 C 13.34 g/m*3 27.3 C 0 km/h
2088 12-07-2010 09:53:40 28.1 C 13.4 g/m*3 28.1 C 0 km/h
2089 12-07-2010 10:05:40 28.9 C 13.43 g/m*3 28.9 C 0 km/h
2090 12-07-2010 10:17:40 29.7 C 12.83 g/m*3 29.7 C 0 km/h
2091 12-07-2010 10:29:40 30 C 12.74 g/m*3 30 C 0 km/h
2092 12-07-2010 10:41:40 30.3 C 12.02 g/m*3 30.3 C 0 km/h
2093 12-07-2010 10:53:40 30.9 C 11.46 g/m*3 30.9 C 0 km/h
2094 12-07-2010 11:05:40 31.4 C 11.12 g/m*3 31.4 C 0 km/h
2095 12-07-2010 11:17:40 31.5 C 10.52 g/m*3 31.5 C 0 km/h
2096 12-07-2010 11:29:40 31.9 C 10.41 g/m*3 31.9 C 0 km/h
2097 12-07-2010 11:41:40 32 C 8.78 g/m*3 32 C 0 km/h
2098 12-07-2010 11:53:40 32.1 C 8.82 g/m*3 32.1 C 0 km/h
2099 12-07-2010 12:05:40 32.3 C 8.58 g/m*3 32.3 C 0 km/h
2100 12-07-2010 12:17:40 32.4 C 8.62 g/m*3 32.4 C 0 km/h
Sensor: Nr:Datum:Temp:Abs-Feuchte:Windchill:Wind:
Aussen-T/F 2101 12-07-2010 12:29:41 32.8 C 8.45 g/m*3 32.8 C 0 km/h
2102 12-07-2010 12:41:41 31.8 C 7.35 g/m*3 31.8 C 0 km/h
2103 12-07-2010 12:53:41 25.9 C 7.51 g/m*3 25.9 C 0 km/h
2104 12-07-2010 13:05:41 25.1 C 14.58 g/m*3 25.1 C 0 km/h
2105 12-07-2010 13:17:41 27.9 C 11.09 g/m*3 27.9 C 0 km/h
2106 12-07-2010 13:29:41 28.3 C 11.06 g/m*3 28.3 C 0 km/h
2107 12-07-2010 13:41:41 29.2 C 11.91 g/m*3 29.2 C 0 km/h
2108 12-07-2010 13:53:41 30.1 C 9.15 g/m*3 30.1 C 0 km/h
2109 12-07-2010 14:05:41 30.3 C 9.55 g/m*3 30.3 C 0 km/h
2110 12-07-2010 14:17:41 30.5 C 10.59 g/m*3 30.5 C 0 km/h
2111 12-07-2010 14:29:41 30.7 C 10.08 g/m*3 30.7 C 0 km/h
2112 12-07-2010 14:41:41 31 C 8.32 g/m*3 31 C 0 km/h
2113 12-07-2010 14:53:41 31 C 8.64 g/m*3 31 C 0 km/h
2114 12-07-2010 15:05:41 31.1 C 9.65 g/m*3 31.1 C 0 km/h
2115 12-07-2010 15:17:41 31.5 C 8.55 g/m*3 31.5 C 0 km/h
2116 12-07-2010 15:29:41 32 C 7.43 g/m*3 32 C 0 km/h
2117 12-07-2010 15:41:41 31.8 C 7.01 g/m*3 31.8 C 0 km/h
2118 12-07-2010 15:53:41 31.7 C 6.98 g/m*3 31.7 C 0 km/h
2119 12-07-2010 16:05:41 32.3 C 6.86 g/m*3 32.3 C 0 km/h
2120 12-07-2010 16:17:41 32 C 6.75 g/m*3 32 C 0 km/h
2121 12-07-2010 16:29:42 31.9 C 6.72 g/m*3 31.9 C 0 km/h
2122 12-07-2010 16:41:42 31.8 C 6.68 g/m*3 31.8 C 0 km/h
2123 12-07-2010 16:53:42 31.5 C 6.57 g/m*3 31.5 C 0 km/h
2124 12-07-2010 17:05:42 31.4 C 6.54 g/m*3 31.4 C 0 km/h
2125 12-07-2010 17:17:42 31.7 C 6.64 g/m*3 31.7 C 0 km/h
Sensor: Nr:Datum:Temp:Abs-Feuchte:Windchill:Wind:
Aussen-T/F 2126 12-07-2010 17:29:42 32 C 6.75 g/m*3 32 C 0 km/h
2127 12-07-2010 17:41:42 31.6 C 6.61 g/m*3 31.6 C 0 km/h
2128 12-07-2010 17:53:42 31 C 6.4 g/m*3 31 C 0 km/h
2129 12-07-2010 18:05:42 30.6 C 6.58 g/m*3 30.6 C 0 km/h
2130 12-07-2010 18:17:42 30.3 C 7.4 g/m*3 30.3 C 0 km/h
2131 12-07-2010 18:29:42 30 C 7.58 g/m*3 30 C 0 km/h
2132 12-07-2010 18:41:42 30 C 7.58 g/m*3 30 C 0 km/h
2133 12-07-2010 18:53:42 30 C 7.88 g/m*3 30 C 0 km/h
2134 12-07-2010 19:05:42 29.5 C 7.67 g/m*3 29.5 C 0 km/h
2135 12-07-2010 19:17:42 29 C 7.47 g/m*3 29 C 0 km/h
2136 12-07-2010 19:29:42 28.6 C 7.87 g/m*3 28.6 C 0 km/h
2137 12-07-2010 19:41:42 28.2 C 7.7 g/m*3 28.2 C 0 km/h
2138 12-07-2010 19:53:42 28.1 C 7.38 g/m*3 28.1 C 0 km/h
2139 12-07-2010 20:05:42 27.8 C 7.53 g/m*3 27.8 C 0 km/h
2140 12-07-2010 20:17:42 27.6 C 7.71 g/m*3 27.6 C 0 km/h
2141 12-07-2010 20:29:42 27 C 7.72 g/m*3 27 C 0 km/h
2142 12-07-2010 20:41:43 26.4 C 7.97 g/m*3 26.4 C 0 km/h
2143 12-07-2010 20:53:43 26 C 8.28 g/m*3 26 C 0 km/h
2144 12-07-2010 21:05:43 26 C 8.52 g/m*3 26 C 0 km/h
2145 12-07-2010 21:17:43 25.8 C 8.67 g/m*3 25.8 C 0 km/h
2146 12-07-2010 21:29:43 25.7 C 8.86 g/m*3 25.7 C 0 km/h
2147 12-07-2010 21:41:43 25.7 C 9.34 g/m*3 25.7 C 0 km/h
2148 12-07-2010 21:53:43 25.4 C 9.42 g/m*3 25.4 C 0 km/h
2149 12-07-2010 22:05:43 24.9 C 9.61 g/m*3 24.9 C 0 km/h
2150 12-07-2010 22:17:43 24.9 C 9.16 g/m*3 24.9 C 0 km/h
Sensor: Nr:Datum:Temp:Abs-Feuchte:Windchill:Wind:
Aussen-T/F 2151 12-07-2010 22:29:43 24.2 C 9.02 g/m*3 24.2 C 0 km/h
2152 12-07-2010 22:41:43 24.6 C 9.23 g/m*3 24.6 C 0 km/h
2153 12-07-2010 22:53:43 24.5 C 9.18 g/m*3 24.5 C 0 km/h
2154 12-07-2010 23:05:43 24.3 C 9.29 g/m*3 24.3 C 0 km/h
2155 12-07-2010 23:17:43 24 C 9.57 g/m*3 24 C 0 km/h
2156 12-07-2010 23:29:43 23.4 C 9.67 g/m*3 23.4 C 0 km/h
2157 12-07-2010 23:41:43 23 C 9.87 g/m*3 23 C 0 km/h
2158 12-07-2010 23:53:43 22.7 C 10.1 g/m*3 22.7 C 0 km/h
2159 13-07-2010 00:05:43 22.6 C 10.25 g/m*3 22.6 C 0 km/h
2160 13-07-2010 00:17:43 22.5 C 10.39 g/m*3 22.5 C 0 km/h
2161 13-07-2010 00:29:43 22.3 C 10.27 g/m*3 22.3 C 0 km/h
2162 13-07-2010 00:41:44 22.1 C 10.35 g/m*3 22.1 C 0 km/h
2163 13-07-2010 00:53:44 22 C 10.48 g/m*3 22 C 0 km/h
2164 13-07-2010 01:05:44 21.6 C 10.62 g/m*3 21.6 C 0 km/h
2165 13-07-2010 01:17:44 21.5 C 10.56 g/m*3 21.5 C 0 km/h
2166 13-07-2010 01:29:44 21.4 C 10.69 g/m*3 21.4 C 0 km/h
2167 13-07-2010 01:41:44 21.3 C 10.81 g/m*3 21.3 C 0 km/h
2168 13-07-2010 01:53:44 21.3 C 10.81 g/m*3 21.3 C 0 km/h
2169 13-07-2010 02:05:44 21 C 10.62 g/m*3 21 C 0 km/h
2170 13-07-2010 02:17:44 20.8 C 10.86 g/m*3 20.8 C 0 km/h
2171 13-07-2010 02:29:44 20.7 C 10.98 g/m*3 20.7 C 0 km/h
2172 13-07-2010 02:41:44 20.5 C 11.03 g/m*3 20.5 C 0 km/h
2173 13-07-2010 02:53:44 20.3 C 11.08 g/m*3 20.3 C 0 km/h
2174 13-07-2010 03:05:44 20.2 C 11.02 g/m*3 20.2 C 0 km/h
2175 13-07-2010 03:17:44 20 C 11.06 g/m*3 20 C 0 km/h
Sensor: Nr:Datum:Temp:Abs-Feuchte:Windchill:Wind:
Aussen-T/F 2176 13-07-2010 03:29:44 19.8 C 11.27 g/m*3 19.8 C 0 km/h
2177 13-07-2010 03:41:44 19.7 C 11.38 g/m*3 19.7 C 0 km/h
2178 13-07-2010 03:53:44 19.7 C 11.38 g/m*3 19.7 C 0 km/h
2179 13-07-2010 04:05:44 19.8 C 11.44 g/m*3 19.8 C 0 km/h
2180 13-07-2010 04:17:44 19.8 C 11.44 g/m*3 19.8 C 0 km/h
2181 13-07-2010 04:29:44 19.7 C 11.38 g/m*3 19.7 C 0 km/h
2182 13-07-2010 04:41:44 19.7 C 11.89 g/m*3 19.7 C 0 km/h
2183 13-07-2010 04:53:45 19.1 C 12.13 g/m*3 19.1 C 0 km/h
2184 13-07-2010 05:05:45 18.9 C 12.31 g/m*3 18.9 C 0 km/h
2185 13-07-2010 05:17:45 18.7 C 12.33 g/m*3 18.7 C 0 km/h
2186 13-07-2010 05:29:45 18.7 C 12.33 g/m*3 18.7 C 0 km/h
2187 13-07-2010 05:41:45 18.7 C 12.17 g/m*3 18.7 C 0 km/h
2188 13-07-2010 05:53:45 18.6 C 12.1 g/m*3 18.6 C 0 km/h
2189 13-07-2010 06:05:45 18.7 C 12.17 g/m*3 18.7 C 0 km/h
2190 13-07-2010 06:17:45 18.8 C 12.08 g/m*3 18.8 C 0 km/h
2191 13-07-2010 06:29:45 18.8 C 12.08 g/m*3 18.8 C 0 km/h
2192 13-07-2010 06:41:45 18.8 C 12.08 g/m*3 18.8 C 0 km/h
2193 13-07-2010 06:53:45 18.9 C 12.15 g/m*3 18.9 C 0 km/h
2194 13-07-2010 07:05:45 19.2 C 12.04 g/m*3 19.2 C 0 km/h
2195 13-07-2010 07:17:45 19.5 C 12.08 g/m*3 19.5 C 0 km/h
2196 13-07-2010 07:29:45 19.7 C 12.06 g/m*3 19.7 C 0 km/h
2197 13-07-2010 07:41:45 19.7 C 12.06 g/m*3 19.7 C 0 km/h
2198 13-07-2010 07:53:45 20 C 11.92 g/m*3 20 C 0 km/h
2199 13-07-2010 08:05:45 20.4 C 12.03 g/m*3 20.4 C 0 km/h
2200 13-07-2010 08:17:45 20.5 C 12.1 g/m*3 20.5 C 0 km/h
Sensor: Nr:Datum:Temp:Abs-Feuchte:Windchill:Wind:
Aussen-T/F 2201 13-07-2010 08:29:45 21 C 12.09 g/m*3 21 C 0 km/h
2202 13-07-2010 08:41:45 21.5 C 11.88 g/m*3 21.5 C 0 km/h
2203 13-07-2010 08:53:45 21.2 C 11.68 g/m*3 21.2 C 0 km/h
2204 13-07-2010 09:05:46 21.4 C 12 g/m*3 21.4 C 0 km/h
2205 13-07-2010 09:17:46 21.9 C 12.16 g/m*3 21.9 C 0 km/h
2206 13-07-2010 09:29:46 22.7 C 11.72 g/m*3 22.7 C 0 km/h
2207 13-07-2010 09:41:46 23.3 C 11.5 g/m*3 23.3 C 0 km/h
2208 13-07-2010 09:53:46 23.9 C 11.47 g/m*3 23.9 C 0 km/h
2209 13-07-2010 10:05:46 24.4 C 11.57 g/m*3 24.4 C 0 km/h
2210 13-07-2010 10:17:46 24.8 C 11.15 g/m*3 24.8 C 0 km/h
2211 13-07-2010 10:29:46 24.2 C 11 g/m*3 24.2 C 0 km/h
2212 13-07-2010 10:41:46 24.5 C 10.97 g/m*3 24.5 C 0 km/h
2213 13-07-2010 10:53:46 25.1 C 10.65 g/m*3 25.1 C 0 km/h
2214 13-07-2010 11:05:46 25.4 C 10.59 g/m*3 25.4 C 0 km/h
2215 13-07-2010 11:17:46 25.7 C 10.29 g/m*3 25.7 C 0 km/h
2216 13-07-2010 11:29:46 25.4 C 10.12 g/m*3 25.4 C 0 km/h
2217 13-07-2010 11:41:46 25.7 C 10.29 g/m*3 25.7 C 0 km/h
2218 13-07-2010 11:53:46 28.3 C 9.95 g/m*3 28.3 C 0 km/h
2219 13-07-2010 12:05:46 29.5 C 8.85 g/m*3 29.5 C 0 km/h
2220 13-07-2010 12:17:46 30 C 9.1 g/m*3 30 C 0 km/h
2221 13-07-2010 12:29:46 29.4 C 8.51 g/m*3 29.4 C 0 km/h
2222 13-07-2010 12:41:46 28.8 C 8.52 g/m*3 28.8 C 0 km/h
2223 13-07-2010 12:53:46 29.5 C 7.97 g/m*3 29.5 C 0 km/h
2224 13-07-2010 13:05:46 29.1 C 7.8 g/m*3 29.1 C 0 km/h
2225 13-07-2010 13:17:47 28.5 C 8.66 g/m*3 28.5 C 0 km/h
Sensor: Nr:Datum:Temp:Abs-Feuchte:Windchill:Wind:
Aussen-T/F 2226 13-07-2010 13:29:47 28.9 C 8 g/m*3 28.9 C 0 km/h
2227 13-07-2010 13:41:47 29.7 C 7.76 g/m*3 29.7 C 0 km/h
2228 13-07-2010 13:53:47 30.4 C 7.75 g/m*3 30.4 C 0 km/h
2229 13-07-2010 14:05:47 29.4 C 8.22 g/m*3 29.4 C 0 km/h
2230 13-07-2010 14:17:47 28.7 C 8.76 g/m*3 28.7 C 0 km/h
2231 13-07-2010 14:29:47 28.1 C 8.48 g/m*3 28.1 C 0 km/h
2232 13-07-2010 14:41:47 29 C 8.62 g/m*3 29 C 0 km/h
2233 13-07-2010 14:53:47 30 C 7.58 g/m*3 30 C 0 km/h
2234 13-07-2010 15:05:47 30.4 C 7.75 g/m*3 30.4 C 0 km/h
2235 13-07-2010 15:17:47 31.1 C 7.72 g/m*3 31.1 C 0 km/h
2236 13-07-2010 15:29:47 30.6 C 6.89 g/m*3 30.6 C 0 km/h
2237 13-07-2010 15:41:47 30.5 C 7.17 g/m*3 30.5 C 0 km/h
2238 13-07-2010 15:53:47 31 C 7.04 g/m*3 31 C 0 km/h
2239 13-07-2010 16:05:47 31.2 C 6.47 g/m*3 31.2 C 0 km/h
2240 13-07-2010 16:17:47 31 C 6.72 g/m*3 31 C 0 km/h
2241 13-07-2010 16:29:47 30.8 C 7.28 g/m*3 30.8 C 0 km/h
2242 13-07-2010 16:41:47 30.8 C 7.28 g/m*3 30.8 C 0 km/h
2243 13-07-2010 16:53:47 31.5 C 6.57 g/m*3 31.5 C 0 km/h
2244 13-07-2010 17:05:47 31.8 C 6.68 g/m*3 31.8 C 0 km/h
2245 13-07-2010 17:17:47 31.5 C 6.57 g/m*3 31.5 C 0 km/h
2246 13-07-2010 17:29:48 31.8 C 6.68 g/m*3 31.8 C 0 km/h
2247 13-07-2010 17:41:48 31.8 C 6.68 g/m*3 31.8 C 0 km/h
2248 13-07-2010 17:53:48 31.8 C 6.68 g/m*3 31.8 C 0 km/h
2249 13-07-2010 18:05:48 32.1 C 6.79 g/m*3 32.1 C 0 km/h
2250 13-07-2010 18:17:48 31.8 C 6.68 g/m*3 31.8 C 0 km/h
Sensor: Nr:Datum:Temp:Abs-Feuchte:Windchill:Wind:
Aussen-T/F 2251 13-07-2010 18:29:48 31.7 C 6.64 g/m*3 31.7 C 0 km/h
2252 13-07-2010 18:41:48 32.1 C 6.79 g/m*3 32.1 C 0 km/h
2253 13-07-2010 18:53:48 31.6 C 6.61 g/m*3 31.6 C 0 km/h
2254 13-07-2010 19:05:48 31.4 C 6.54 g/m*3 31.4 C 0 km/h
2255 13-07-2010 19:17:48 31.4 C 6.54 g/m*3 31.4 C 0 km/h
2256 13-07-2010 19:29:48 31.4 C 6.54 g/m*3 31.4 C 0 km/h
2257 13-07-2010 19:41:48 31.4 C 6.54 g/m*3 31.4 C 0 km/h
2258 13-07-2010 19:53:48 31.2 C 6.47 g/m*3 31.2 C 0 km/h
2259 13-07-2010 20:05:48 31.4 C 6.54 g/m*3 31.4 C 0 km/h
2260 13-07-2010 20:17:48 31.4 C 6.54 g/m*3 31.4 C 0 km/h
2261 13-07-2010 20:29:48 31.2 C 6.79 g/m*3 31.2 C 0 km/h
2262 13-07-2010 20:41:48 31 C 6.72 g/m*3 31 C 0 km/h
2263 13-07-2010 20:53:48 30.6 C 7.2 g/m*3 30.6 C 0 km/h
2264 13-07-2010 21:05:48 29.8 C 7.8 g/m*3 29.8 C 0 km/h
2265 13-07-2010 21:17:48 28.6 C 7.87 g/m*3 28.6 C 0 km/h
2266 13-07-2010 21:29:48 27.6 C 7.98 g/m*3 27.6 C 0 km/h
2267 13-07-2010 21:41:49 26.8 C 8.14 g/m*3 26.8 C 0 km/h
2268 13-07-2010 21:53:49 26.4 C 8.21 g/m*3 26.4 C 0 km/h
2269 13-07-2010 22:05:49 25.9 C 8.47 g/m*3 25.9 C 0 km/h
2270 13-07-2010 22:17:49 25.5 C 8.52 g/m*3 25.5 C 0 km/h
2271 13-07-2010 22:29:49 25.4 C 8.48 g/m*3 25.4 C 0 km/h
2272 13-07-2010 22:41:49 25.4 C 8.71 g/m*3 25.4 C 0 km/h
2273 13-07-2010 22:53:49 25.1 C 8.8 g/m*3 25.1 C 0 km/h
2274 13-07-2010 23:05:49 24.7 C 9.05 g/m*3 24.7 C 0 km/h
2275 13-07-2010 23:17:49 24.6 C 9 g/m*3 24.6 C 0 km/h
Sensor: Nr:Datum:Temp:Abs-Feuchte:Windchill:Wind:
Aussen-T/F 2276 13-07-2010 23:29:49 24.4 C 9.12 g/m*3 24.4 C 0 km/h
2277 13-07-2010 23:41:49 24.1 C 9.19 g/m*3 24.1 C 0 km/h
2278 13-07-2010 23:53:49 24.3 C 9.29 g/m*3 24.3 C 0 km/h
2279 14-07-2010 00:05:49 24.1 C 9.19 g/m*3 24.1 C 0 km/h
2280 14-07-2010 00:17:49 23.8 C 9.68 g/m*3 23.8 C 0 km/h
2281 14-07-2010 00:29:49 23.6 C 9.57 g/m*3 23.6 C 0 km/h
2282 14-07-2010 00:41:49 23.4 C 9.67 g/m*3 23.4 C 0 km/h
2283 14-07-2010 00:53:49 23.5 C 9.94 g/m*3 23.5 C 0 km/h
2284 14-07-2010 01:05:49 23.6 C 10 g/m*3 23.6 C 0 km/h
2285 14-07-2010 01:17:49 23.6 C 10 g/m*3 23.6 C 0 km/h
2286 14-07-2010 01:29:49 23.1 C 9.92 g/m*3 23.1 C 0 km/h
2287 14-07-2010 01:41:50 22.9 C 10.01 g/m*3 22.9 C 0 km/h
2288 14-07-2010 01:53:50 22.6 C 10.04 g/m*3 22.6 C 0 km/h
2289 14-07-2010 02:05:50 22.7 C 10.3 g/m*3 22.7 C 0 km/h
2290 14-07-2010 02:17:50 22.7 C 10.1 g/m*3 22.7 C 0 km/h
2291 14-07-2010 02:29:50 22.7 C 10.51 g/m*3 22.7 C 0 km/h
2292 14-07-2010 02:41:50 22.5 C 10.39 g/m*3 22.5 C 0 km/h
2293 14-07-2010 02:53:50 22.1 C 10.35 g/m*3 22.1 C 0 km/h
2294 14-07-2010 03:05:50 22 C 10.29 g/m*3 22 C 0 km/h
2295 14-07-2010 03:17:50 21.8 C 10.55 g/m*3 21.8 C 0 km/h
2296 14-07-2010 03:29:50 21.5 C 10.75 g/m*3 21.5 C 0 km/h
2297 14-07-2010 03:41:50 21.3 C 10.62 g/m*3 21.3 C 0 km/h
2298 14-07-2010 03:53:50 21.3 C 10.81 g/m*3 21.3 C 0 km/h
2299 14-07-2010 04:05:50 21.2 C 10.93 g/m*3 21.2 C 0 km/h
2300 14-07-2010 04:17:50 20.8 C 11.05 g/m*3 20.8 C 0 km/h
Sensor: Nr:Datum:Temp:Abs-Feuchte:Windchill:Wind:
Aussen-T/F 2301 14-07-2010 04:29:50 20.7 C 11.16 g/m*3 20.7 C 0 km/h
2302 14-07-2010 04:41:50 20.5 C 11.03 g/m*3 20.5 C 0 km/h
2303 14-07-2010 04:53:50 20.4 C 10.97 g/m*3 20.4 C 0 km/h
2304 14-07-2010 05:05:50 20.2 C 11.02 g/m*3 20.2 C 0 km/h
2305 14-07-2010 05:17:50 20.1 C 11.13 g/m*3 20.1 C 0 km/h
2306 14-07-2010 05:29:50 20.1 C 11.13 g/m*3 20.1 C 0 km/h
2307 14-07-2010 05:41:50 20.1 C 11.13 g/m*3 20.1 C 0 km/h
2308 14-07-2010 05:53:51 20 C 11.23 g/m*3 20 C 0 km/h
2309 14-07-2010 06:05:51 20 C 11.06 g/m*3 20 C 0 km/h
2310 14-07-2010 06:17:51 20.3 C 11.43 g/m*3 20.3 C 0 km/h
2311 14-07-2010 06:29:51 20.3 C 11.26 g/m*3 20.3 C 0 km/h
2312 14-07-2010 06:41:51 20.5 C 11.39 g/m*3 20.5 C 0 km/h
2313 14-07-2010 06:53:51 20.4 C 11.32 g/m*3 20.4 C 0 km/h
2314 14-07-2010 07:05:51 20.3 C 11.43 g/m*3 20.3 C 0 km/h
2315 14-07-2010 07:17:51 20.3 C 11.43 g/m*3 20.3 C 0 km/h
2316 14-07-2010 07:29:51 20.4 C 11.68 g/m*3 20.4 C 0 km/h
2317 14-07-2010 07:41:51 20.7 C 11.7 g/m*3 20.7 C 0 km/h
2318 14-07-2010 07:53:51 21.2 C 11.68 g/m*3 21.2 C 0 km/h
2319 14-07-2010 08:05:51 21.5 C 11.69 g/m*3 21.5 C 0 km/h
2320 14-07-2010 08:17:51 21.5 C 11.69 g/m*3 21.5 C 0 km/h
2321 14-07-2010 08:29:51 21.7 C 11.83 g/m*3 21.7 C 0 km/h
2322 14-07-2010 08:41:51 22 C 11.65 g/m*3 22 C 0 km/h
2323 14-07-2010 08:53:51 22.4 C 11.92 g/m*3 22.4 C 0 km/h
2324 14-07-2010 09:05:51 22.9 C 12.06 g/m*3 22.9 C 0 km/h
2325 14-07-2010 09:17:51 24 C 12.18 g/m*3 24 C 0 km/h
Sensor: Nr:Datum:Temp:Abs-Feuchte:Windchill:Wind:
Aussen-T/F 2326 14-07-2010 09:29:51 25.2 C 11.64 g/m*3 25.2 C 0 km/h
2327 14-07-2010 09:41:51 25.3 C 11.71 g/m*3 25.3 C 0 km/h
2328 14-07-2010 09:53:52 25.9 C 11.86 g/m*3 25.9 C 0 km/h
2329 14-07-2010 10:05:52 26.5 C 11.51 g/m*3 26.5 C 0 km/h
2330 14-07-2010 10:17:52 27.1 C 10.61 g/m*3 27.1 C 0 km/h
2331 14-07-2010 10:29:52 27.8 C 10.22 g/m*3 27.8 C 0 km/h
2332 14-07-2010 10:41:52 28.7 C 10.17 g/m*3 28.7 C 0 km/h
2333 14-07-2010 10:53:52 29.3 C 9.63 g/m*3 29.3 C 0 km/h
2334 14-07-2010 11:05:52 30 C 9.4 g/m*3 30 C 0 km/h
2335 14-07-2010 11:17:52 30.3 C 9.25 g/m*3 30.3 C 0 km/h
2336 14-07-2010 11:29:52 30.4 C 9.3 g/m*3 30.4 C 0 km/h
2337 14-07-2010 11:41:52 30.5 C 9.03 g/m*3 30.5 C 0 km/h
2338 14-07-2010 11:53:52 30.8 C 9.18 g/m*3 30.8 C 0 km/h
2339 14-07-2010 12:05:52 31.2 C 8.41 g/m*3 31.2 C 0 km/h
2340 14-07-2010 12:17:52 31.5 C 8.22 g/m*3 31.5 C 0 km/h
2341 14-07-2010 12:29:52 31.3 C 8.13 g/m*3 31.3 C 0 km/h
2342 14-07-2010 12:41:52 31.5 C 7.89 g/m*3 31.5 C 0 km/h
2343 14-07-2010 12:53:52 31.7 C 8.31 g/m*3 31.7 C 0 km/h
2344 14-07-2010 13:05:52 31.7 C 7.64 g/m*3 31.7 C 0 km/h
2345 14-07-2010 13:17:52 32.3 C 7.2 g/m*3 32.3 C 0 km/h
2346 14-07-2010 13:29:52 33.5 C 7.31 g/m*3 33.5 C 0 km/h
2347 14-07-2010 13:41:52 32.6 C 7.32 g/m*3 32.6 C 0 km/h
2348 14-07-2010 13:53:52 32 C 7.43 g/m*3 32 C 0 km/h
2349 14-07-2010 14:05:53 32.5 C 6.93 g/m*3 32.5 C 0 km/h
2350 14-07-2010 14:17:53 33.3 C 7.23 g/m*3 33.3 C 0 km/h
Sensor: Nr:Datum:Temp:Abs-Feuchte:Windchill:Wind:
Aussen-T/F 2351 14-07-2010 14:29:53 32.8 C 7.04 g/m*3 32.8 C 0 km/h
2352 14-07-2010 14:41:53 32.8 C 7.04 g/m*3 32.8 C 0 km/h
2353 14-07-2010 14:53:53 33.3 C 7.23 g/m*3 33.3 C 0 km/h
2354 14-07-2010 15:05:53 33 C 7.12 g/m*3 33 C 0 km/h
2355 14-07-2010 15:17:53 32.9 C 7.08 g/m*3 32.9 C 0 km/h
2356 14-07-2010 15:29:53 33.1 C 7.16 g/m*3 33.1 C 0 km/h
2357 14-07-2010 15:41:53 33.5 C 7.31 g/m*3 33.5 C 0 km/h
2358 14-07-2010 15:53:53 33.8 C 7.43 g/m*3 33.8 C 0 km/h
2359 14-07-2010 16:05:53 33.9 C 7.46 g/m*3 33.9 C 0 km/h
2360 14-07-2010 16:17:53 34.1 C 7.54 g/m*3 34.1 C 0 km/h
2361 14-07-2010 16:29:53 34.6 C 7.74 g/m*3 34.6 C 0 km/h
2362 14-07-2010 16:41:53 34.6 C 7.74 g/m*3 34.6 C 0 km/h
2363 14-07-2010 16:53:53 34.8 C 7.82 g/m*3 34.8 C 0 km/h
2364 14-07-2010 17:05:53 34.8 C 7.82 g/m*3 34.8 C 0 km/h
2365 14-07-2010 17:17:53 34.6 C 7.74 g/m*3 34.6 C 0 km/h
2366 14-07-2010 17:29:53 34.6 C 7.74 g/m*3 34.6 C 0 km/h
2367 14-07-2010 17:41:53 34.1 C 7.54 g/m*3 34.1 C 0 km/h
2368 14-07-2010 17:53:53 34.4 C 7.66 g/m*3 34.4 C 0 km/h
2369 14-07-2010 18:05:54 34.4 C 7.66 g/m*3 34.4 C 0 km/h
2370 14-07-2010 18:17:54 34.8 C 7.82 g/m*3 34.8 C 0 km/h
2371 14-07-2010 18:29:54 35 C 7.91 g/m*3 35 C 0 km/h
2372 14-07-2010 18:41:54 34.8 C 7.82 g/m*3 34.8 C 0 km/h
2373 14-07-2010 18:53:54 34.3 C 7.62 g/m*3 34.3 C 0 km/h
2374 14-07-2010 19:05:54 33.5 C 7.31 g/m*3 33.5 C 0 km/h
2375 14-07-2010 19:17:54 27.6 C 9.31 g/m*3 27.6 C 0 km/h
Sensor: Nr:Datum:Temp:Abs-Feuchte:Windchill:Wind:
Aussen-T/F 2376 14-07-2010 19:29:54 24.1 C 14 g/m*3 24.1 C 0 km/h
2377 14-07-2010 19:41:54 22.2 C 15.51 g/m*3 22.2 C 0 km/h
2378 14-07-2010 19:53:54 21.8 C 16.12 g/m*3 21.8 C 0 km/h
2379 14-07-2010 20:05:54 21.8 C 16.12 g/m*3 21.8 C 0 km/h
2380 14-07-2010 20:17:54 22.5 C 17.18 g/m*3 22.5 C 0 km/h
2381 14-07-2010 20:29:54 22.6 C 16.87 g/m*3 22.6 C 0 km/h
2382 14-07-2010 20:41:54 22.5 C 16.38 g/m*3 22.5 C 0 km/h
2383 14-07-2010 20:53:54 22.3 C 15.99 g/m*3 22.3 C 0 km/h
2384 14-07-2010 21:05:54 22 C 15.53 g/m*3 22 C 0 km/h
2385 14-07-2010 21:17:54 22 C 15.53 g/m*3 22 C 0 km/h
2386 14-07-2010 21:29:54 21.8 C 15.35 g/m*3 21.8 C 0 km/h
2387 14-07-2010 21:41:54 21.4 C 15.19 g/m*3 21.4 C 0 km/h
2388 14-07-2010 21:53:54 21.5 C 15.46 g/m*3 21.5 C 0 km/h
2389 14-07-2010 22:05:54 21.6 C 15.36 g/m*3 21.6 C 0 km/h
2390 14-07-2010 22:17:55 21.6 C 14.98 g/m*3 21.6 C 0 km/h
2391 14-07-2010 22:29:55 21.4 C 14.44 g/m*3 21.4 C 0 km/h
2392 14-07-2010 22:41:55 21.5 C 14.33 g/m*3 21.5 C 0 km/h
2393 14-07-2010 22:53:55 21.4 C 14.25 g/m*3 21.4 C 0 km/h
2394 14-07-2010 23:05:55 21.5 C 14.14 g/m*3 21.5 C 0 km/h
2395 14-07-2010 23:17:55 21.4 C 14.06 g/m*3 21.4 C 0 km/h
2396 14-07-2010 23:29:55 21.4 C 14.06 g/m*3 21.4 C 0 km/h
2397 14-07-2010 23:41:55 21.2 C 13.9 g/m*3 21.2 C 0 km/h
2398 14-07-2010 23:53:55 20.9 C 13.84 g/m*3 20.9 C 0 km/h
2399 15-07-2010 00:05:55 21 C 13.92 g/m*3 21 C 0 km/h
2400 15-07-2010 00:17:55 21 C 13.56 g/m*3 21 C 0 km/h
Sensor: Nr:Datum:Temp:Abs-Feuchte:Windchill:Wind:
Aussen-T/F 2401 15-07-2010 00:29:55 21.2 C 13.53 g/m*3 21.2 C 0 km/h
2402 15-07-2010 00:41:55 21.1 C 13.45 g/m*3 21.1 C 0 km/h
2403 15-07-2010 00:53:55 20.9 C 12.75 g/m*3 20.9 C 0 km/h
2404 15-07-2010 01:05:55 20.6 C 12.35 g/m*3 20.6 C 0 km/h
2405 15-07-2010 01:17:55 20.2 C 11.89 g/m*3 20.2 C 0 km/h
2406 15-07-2010 01:29:55 20.1 C 11.65 g/m*3 20.1 C 0 km/h
2407 15-07-2010 01:41:55 20 C 11.41 g/m*3 20 C 0 km/h
2408 15-07-2010 01:53:55 19.9 C 11.51 g/m*3 19.9 C 0 km/h
2409 15-07-2010 02:05:55 19.7 C 11.55 g/m*3 19.7 C 0 km/h
2410 15-07-2010 02:17:55 19.7 C 11.55 g/m*3 19.7 C 0 km/h
2411 15-07-2010 02:29:56 19.5 C 11.58 g/m*3 19.5 C 0 km/h
2412 15-07-2010 02:41:56 19.5 C 11.75 g/m*3 19.5 C 0 km/h
2413 15-07-2010 02:53:56 19.5 C 11.75 g/m*3 19.5 C 0 km/h
2414 15-07-2010 03:05:56 19.4 C 11.35 g/m*3 19.4 C 0 km/h
2415 15-07-2010 03:17:56 19.3 C 10.95 g/m*3 19.3 C 0 km/h
2416 15-07-2010 03:29:56 19.3 C 10.95 g/m*3 19.3 C 0 km/h
2417 15-07-2010 03:41:56 19.3 C 10.95 g/m*3 19.3 C 0 km/h
2418 15-07-2010 03:53:56 19.3 C 11.11 g/m*3 19.3 C 0 km/h
2419 15-07-2010 04:05:56 19.2 C 11.05 g/m*3 19.2 C 0 km/h
2420 15-07-2010 04:17:56 19.1 C 10.98 g/m*3 19.1 C 0 km/h
2421 15-07-2010 04:29:56 19 C 10.92 g/m*3 19 C 0 km/h
2422 15-07-2010 04:41:56 18.8 C 11.11 g/m*3 18.8 C 0 km/h
2423 15-07-2010 04:53:56 18.6 C 11.14 g/m*3 18.6 C 0 km/h
2424 15-07-2010 05:05:56 18.6 C 11.14 g/m*3 18.6 C 0 km/h
2425 15-07-2010 05:17:56 18.6 C 11.14 g/m*3 18.6 C 0 km/h
Sensor: Nr:Datum:Temp:Abs-Feuchte:Windchill:Wind:
Aussen-T/F 2426 15-07-2010 05:29:56 18.7 C 11.21 g/m*3 18.7 C 0 km/h
2427 15-07-2010 05:41:56 18.9 C 11.34 g/m*3 18.9 C 0 km/h
2428 15-07-2010 05:53:56 19 C 11.08 g/m*3 19 C 0 km/h
2429 15-07-2010 06:05:56 19 C 11.08 g/m*3 19 C 0 km/h
2430 15-07-2010 06:17:56 19 C 10.76 g/m*3 19 C 0 km/h
2431 15-07-2010 06:29:56 18.9 C 11.02 g/m*3 18.9 C 0 km/h
2432 15-07-2010 06:41:56 18.8 C 11.11 g/m*3 18.8 C 0 km/h
2433 15-07-2010 06:53:57 18.8 C 10.95 g/m*3 18.8 C 0 km/h
2434 15-07-2010 07:05:57 19.4 C 11.01 g/m*3 19.4 C 0 km/h
2435 15-07-2010 07:17:57 18.7 C 11.53 g/m*3 18.7 C 0 km/h
2436 15-07-2010 07:29:57 18.4 C 12.11 g/m*3 18.4 C 0 km/h
2437 15-07-2010 07:41:57 18.1 C 12.36 g/m*3 18.1 C 0 km/h
2438 15-07-2010 07:53:57 17.9 C 12.37 g/m*3 17.9 C 0 km/h
2439 15-07-2010 08:05:57 18.2 C 12.28 g/m*3 18.2 C 0 km/h
2440 15-07-2010 08:17:57 18.4 C 12.11 g/m*3 18.4 C 0 km/h
2441 15-07-2010 08:29:57 18.3 C 11.57 g/m*3 18.3 C 0 km/h
2442 15-07-2010 08:41:57 18.5 C 11.23 g/m*3 18.5 C 0 km/h
2443 15-07-2010 08:53:57 18.7 C 11.21 g/m*3 18.7 C 0 km/h
2444 15-07-2010 09:05:57 19 C 10.27 g/m*3 19 C 0 km/h
2445 15-07-2010 09:17:57 19.2 C 9.4 g/m*3 19.2 C 0 km/h
2446 15-07-2010 09:29:57 19.5 C 8.89 g/m*3 19.5 C 0 km/h
2447 15-07-2010 09:41:57 19.9 C 8.42 g/m*3 19.9 C 0 km/h
2448 15-07-2010 09:53:57 20.3 C 8.27 g/m*3 20.3 C 0 km/h
2449 15-07-2010 10:05:57 20.5 C 7.65 g/m*3 20.5 C 0 km/h
2450 15-07-2010 10:17:57 20.9 C 7.83 g/m*3 20.9 C 0 km/h
Sensor: Nr:Datum:Temp:Abs-Feuchte:Windchill:Wind:
Aussen-T/F 2451 15-07-2010 10:29:57 21.3 C 7.64 g/m*3 21.3 C 0 km/h
2452 15-07-2010 10:41:57 21.6 C 7.59 g/m*3 21.6 C 0 km/h
2453 15-07-2010 10:53:57 21.8 C 7.1 g/m*3 21.8 C 0 km/h
2454 15-07-2010 11:05:57 21.9 C 6.95 g/m*3 21.9 C 0 km/h
2455 15-07-2010 11:17:57 21.9 C 6.95 g/m*3 21.9 C 0 km/h
2456 15-07-2010 11:29:58 22.5 C 6.99 g/m*3 22.5 C 0 km/h
2457 15-07-2010 11:41:58 22.8 C 6.71 g/m*3 22.8 C 0 km/h
2458 15-07-2010 11:53:58 22.5 C 6.19 g/m*3 22.5 C 0 km/h
2459 15-07-2010 12:05:58 23.7 C 6.2 g/m*3 23.7 C 0 km/h
2460 15-07-2010 12:17:58 24.4 C 5.56 g/m*3 24.4 C 0 km/h
2461 15-07-2010 12:29:58 24.7 C 5.88 g/m*3 24.7 C 0 km/h
2462 15-07-2010 12:41:58 24.7 C 5.88 g/m*3 24.7 C 0 km/h
2463 15-07-2010 12:53:58 24.6 C 5.63 g/m*3 24.6 C 0 km/h
2464 15-07-2010 13:05:58 25.2 C 5.12 g/m*3 25.2 C 0 km/h
2465 15-07-2010 13:17:58 26.1 C 5.14 g/m*3 26.1 C 0 km/h
2466 15-07-2010 13:29:58 26.4 C 5.23 g/m*3 26.4 C 0 km/h
2467 15-07-2010 13:41:58 26.3 C 4.95 g/m*3 26.3 C 0 km/h
2468 15-07-2010 13:53:58 26.7 C 5.06 g/m*3 26.7 C 0 km/h
2469 15-07-2010 14:05:58 26.2 C 4.92 g/m*3 26.2 C 0 km/h
2470 15-07-2010 14:17:58 25.6 C 4.76 g/m*3 25.6 C 0 km/h
2471 15-07-2010 14:29:58 26.3 C 4.95 g/m*3 26.3 C 0 km/h
2472 15-07-2010 14:41:58 26.6 C 5.03 g/m*3 26.6 C 0 km/h
2473 15-07-2010 14:53:58 26.4 C 4.98 g/m*3 26.4 C 0 km/h
2474 15-07-2010 15:05:58 26.4 C 4.98 g/m*3 26.4 C 0 km/h
2475 15-07-2010 15:17:58 27.7 C 5.35 g/m*3 27.7 C 0 km/h
Sensor: Nr:Datum:Temp:Abs-Feuchte:Windchill:Wind:
Aussen-T/F 2476 15-07-2010 15:29:58 26 C 4.87 g/m*3 26 C 0 km/h
2477 15-07-2010 15:41:59 27.2 C 5.2 g/m*3 27.2 C 0 km/h
2478 15-07-2010 15:53:59 27.2 C 5.2 g/m*3 27.2 C 0 km/h
2479 15-07-2010 16:05:59 27.6 C 5.32 g/m*3 27.6 C 0 km/h
2480 15-07-2010 16:17:59 27.5 C 5.29 g/m*3 27.5 C 0 km/h
2481 15-07-2010 16:29:59 27.9 C 5.41 g/m*3 27.9 C 0 km/h
2482 15-07-2010 16:41:59 27.9 C 5.41 g/m*3 27.9 C 0 km/h
2483 15-07-2010 16:53:59 28.2 C 5.5 g/m*3 28.2 C 0 km/h
2484 15-07-2010 17:05:59 28.6 C 5.62 g/m*3 28.6 C 0 km/h
2485 15-07-2010 17:17:59 27.9 C 5.41 g/m*3 27.9 C 0 km/h
2486 15-07-2010 17:29:59 28.3 C 5.53 g/m*3 28.3 C 0 km/h
2487 15-07-2010 17:41:59 28.8 C 5.68 g/m*3 28.8 C 0 km/h
2488 15-07-2010 17:53:59 28.7 C 5.65 g/m*3 28.7 C 0 km/h
2489 15-07-2010 18:05:59 28.5 C 5.59 g/m*3 28.5 C 0 km/h
2490 15-07-2010 18:17:59 29.1 C 5.78 g/m*3 29.1 C 0 km/h
2491 15-07-2010 18:29:59 27.9 C 5.41 g/m*3 27.9 C 0 km/h
2492 15-07-2010 18:41:59 26.5 C 5.01 g/m*3 26.5 C 0 km/h
2493 15-07-2010 18:52:59 27.9 C 5.41 g/m*3 27.9 C 0 km/h
2494 15-07-2010 19:04:59 27.7 C 5.35 g/m*3 27.7 C 0 km/h
2495 15-07-2010 19:16:59 27.3 C 5.23 g/m*3 27.3 C 0 km/h
2496 15-07-2010 19:28:59 28.1 C 5.47 g/m*3 28.1 C 0 km/h
2497 15-07-2010 19:40:59 26.4 C 4.98 g/m*3 26.4 C 0 km/h
2498 15-07-2010 19:53:00 26.8 C 5.09 g/m*3 26.8 C 0 km/h
2499 15-07-2010 20:05:00 26.9 C 5.12 g/m*3 26.9 C 0 km/h
2500 15-07-2010 20:17:00 26.8 C 5.09 g/m*3 26.8 C 0 km/h
Sensor: Nr:Datum:Temp:Abs-Feuchte:Windchill:Wind:
Aussen-T/F 2501 15-07-2010 20:29:00 26.5 C 5.01 g/m*3 26.5 C 0 km/h
2502 15-07-2010 20:41:00 26.4 C 5.23 g/m*3 26.4 C 0 km/h
2503 15-07-2010 20:53:00 26.4 C 5.73 g/m*3 26.4 C 0 km/h
2504 15-07-2010 21:05:00 25.4 C 5.89 g/m*3 25.4 C 0 km/h
2505 15-07-2010 21:17:00 24.5 C 6.04 g/m*3 24.5 C 0 km/h
2506 15-07-2010 21:29:00 23.5 C 5.92 g/m*3 23.5 C 0 km/h
2507 15-07-2010 21:41:00 22.8 C 6.3 g/m*3 22.8 C 0 km/h
2508 15-07-2010 21:53:00 22.5 C 6.19 g/m*3 22.5 C 0 km/h
2509 15-07-2010 22:05:00 22 C 6.02 g/m*3 22 C 0 km/h
2510 15-07-2010 22:17:00 21.8 C 6.33 g/m*3 21.8 C 0 km/h
2511 15-07-2010 22:29:00 21.5 C 6.41 g/m*3 21.5 C 0 km/h
2512 15-07-2010 22:41:00 21.1 C 6.45 g/m*3 21.1 C 0 km/h
2513 15-07-2010 22:53:00 20.9 C 6.74 g/m*3 20.9 C 0 km/h
2514 15-07-2010 23:05:00 20.5 C 6.58 g/m*3 20.5 C 0 km/h
2515 15-07-2010 23:17:00 20.2 C 6.82 g/m*3 20.2 C 0 km/h
2516 15-07-2010 23:29:00 19.9 C 6.87 g/m*3 19.9 C 0 km/h
2517 15-07-2010 23:41:00 19.7 C 6.79 g/m*3 19.7 C 0 km/h
2518 15-07-2010 23:53:00 19.3 C 6.8 g/m*3 19.3 C 0 km/h
2519 16-07-2010 00:05:01 19.1 C 6.72 g/m*3 19.1 C 0 km/h
2520 16-07-2010 00:17:01 18.8 C 6.93 g/m*3 18.8 C 0 km/h
2521 16-07-2010 00:29:01 18.6 C 6.84 g/m*3 18.6 C 0 km/h
2522 16-07-2010 00:41:01 18.3 C 7.04 g/m*3 18.3 C 0 km/h
2523 16-07-2010 00:53:01 18.2 C 6.99 g/m*3 18.2 C 0 km/h
2524 16-07-2010 01:05:01 18.1 C 7.11 g/m*3 18.1 C 0 km/h
2525 16-07-2010 01:17:01 17.9 C 7.18 g/m*3 17.9 C 0 km/h
Sensor: Nr:Datum:Temp:Abs-Feuchte:Windchill:Wind:
Aussen-T/F 2526 16-07-2010 01:29:01 17.7 C 7.24 g/m*3 17.7 C 0 km/h
2527 16-07-2010 01:41:01 17.6 C 7.5 g/m*3 17.6 C 0 km/h
2528 16-07-2010 01:53:01 17.5 C 7.45 g/m*3 17.5 C 0 km/h
2529 16-07-2010 02:05:01 17.1 C 7.57 g/m*3 17.1 C 0 km/h
2530 16-07-2010 02:17:01 16.9 C 7.77 g/m*3 16.9 C 0 km/h
2531 16-07-2010 02:29:01 16.8 C 8.01 g/m*3 16.8 C 0 km/h
2532 16-07-2010 02:41:01 16.5 C 8 g/m*3 16.5 C 0 km/h
2533 16-07-2010 02:53:01 16.4 C 8.1 g/m*3 16.4 C 0 km/h
2534 16-07-2010 03:05:01 16.3 C 8.05 g/m*3 16.3 C 0 km/h
2535 16-07-2010 03:17:01 16.1 C 8.09 g/m*3 16.1 C 0 km/h
2536 16-07-2010 03:29:01 16 C 8.17 g/m*3 16 C 0 km/h
2537 16-07-2010 03:41:01 15.8 C 8.21 g/m*3 15.8 C 0 km/h
2538 16-07-2010 03:53:01 15.6 C 7.98 g/m*3 15.6 C 0 km/h
2539 16-07-2010 04:05:01 15.5 C 8.06 g/m*3 15.5 C 0 km/h
2540 16-07-2010 04:17:01 15.4 C 8.15 g/m*3 15.4 C 0 km/h
2541 16-07-2010 04:29:02 15.2 C 8.31 g/m*3 15.2 C 0 km/h
2542 16-07-2010 04:41:02 15 C 8.08 g/m*3 15 C 0 km/h
2543 16-07-2010 04:53:02 15 C 8.21 g/m*3 15 C 0 km/h
2544 16-07-2010 05:05:02 14.8 C 8.36 g/m*3 14.8 C 0 km/h
2545 16-07-2010 05:17:02 14.7 C 8.31 g/m*3 14.7 C 0 km/h
2546 16-07-2010 05:29:02 14.6 C 8.13 g/m*3 14.6 C 0 km/h
2547 16-07-2010 05:41:02 14.6 C 8.26 g/m*3 14.6 C 0 km/h
2548 16-07-2010 05:53:02 14.5 C 8.46 g/m*3 14.5 C 0 km/h
2549 16-07-2010 06:05:02 14.4 C 8.41 g/m*3 14.4 C 0 km/h
2550 16-07-2010 06:17:02 14.3 C 8.48 g/m*3 14.3 C 0 km/h
Sensor: Nr:Datum:Temp:Abs-Feuchte:Windchill:Wind:
Aussen-T/F 2551 16-07-2010 06:29:02 14.4 C 8.65 g/m*3 14.4 C 0 km/h
2552 16-07-2010 06:41:02 14.5 C 8.71 g/m*3 14.5 C 0 km/h
2553 16-07-2010 06:53:02 14.7 C 8.81 g/m*3 14.7 C 0 km/h
2554 16-07-2010 07:05:02 14.8 C 8.87 g/m*3 14.8 C 0 km/h
2555 16-07-2010 07:17:02 14.9 C 8.92 g/m*3 14.9 C 0 km/h
2556 16-07-2010 07:29:02 15.2 C 8.83 g/m*3 15.2 C 0 km/h
2557 16-07-2010 07:41:02 15.3 C 8.88 g/m*3 15.3 C 0 km/h
2558 16-07-2010 07:53:02 15.6 C 8.91 g/m*3 15.6 C 0 km/h
2559 16-07-2010 08:05:02 15.9 C 8.94 g/m*3 15.9 C 0 km/h
2560 16-07-2010 08:17:02 16.2 C 8.83 g/m*3 16.2 C 0 km/h
2561 16-07-2010 08:29:02 16.6 C 9.04 g/m*3 16.6 C 0 km/h
2562 16-07-2010 08:41:03 17 C 8.97 g/m*3 17 C 0 km/h
2563 16-07-2010 08:53:03 17.4 C 9.19 g/m*3 17.4 C 0 km/h
2564 16-07-2010 09:05:03 18.1 C 9.27 g/m*3 18.1 C 0 km/h
2565 16-07-2010 09:17:03 19 C 9.45 g/m*3 19 C 0 km/h
2566 16-07-2010 09:29:03 19.6 C 9.45 g/m*3 19.6 C 0 km/h
2567 16-07-2010 09:41:03 20.4 C 9.2 g/m*3 20.4 C 0 km/h
2568 16-07-2010 09:53:03 21.3 C 9.32 g/m*3 21.3 C 0 km/h
2569 16-07-2010 10:05:03 22.1 C 9.17 g/m*3 22.1 C 0 km/h
2570 16-07-2010 10:17:03 23 C 9.25 g/m*3 23 C 0 km/h
2571 16-07-2010 10:29:03 23.8 C 9.25 g/m*3 23.8 C 0 km/h
2572 16-07-2010 10:41:03 24.2 C 8.14 g/m*3 24.2 C 0 km/h
2573 16-07-2010 10:53:03 24.9 C 7.55 g/m*3 24.9 C 0 km/h
2574 16-07-2010 11:05:03 25.6 C 7.14 g/m*3 25.6 C 0 km/h
2575 16-07-2010 11:17:03 26 C 5.11 g/m*3 26 C 0 km/h
Sensor: Nr:Datum:Temp:Abs-Feuchte:Windchill:Wind:
Aussen-T/F 2576 16-07-2010 11:29:03 26.3 C 5.69 g/m*3 26.3 C 0 km/h
2577 16-07-2010 11:41:03 26.5 C 5.51 g/m*3 26.5 C 0 km/h
2578 16-07-2010 11:53:03 26.9 C 5.63 g/m*3 26.9 C 0 km/h
2579 16-07-2010 12:05:03 27.3 C 5.49 g/m*3 27.3 C 0 km/h
2580 16-07-2010 12:17:03 27.9 C 5.41 g/m*3 27.9 C 0 km/h
2581 16-07-2010 12:29:03 28.6 C 5.62 g/m*3 28.6 C 0 km/h
2582 16-07-2010 12:41:03 29.2 C 5.81 g/m*3 29.2 C 0 km/h
2583 16-07-2010 12:53:04 29.7 C 5.97 g/m*3 29.7 C 0 km/h
2584 16-07-2010 13:05:04 30 C 6.06 g/m*3 30 C 0 km/h
2585 16-07-2010 13:17:04 30.6 C 6.26 g/m*3 30.6 C 0 km/h
2586 16-07-2010 13:29:04 30.5 C 6.23 g/m*3 30.5 C 0 km/h
2587 16-07-2010 13:41:04 31.4 C 6.54 g/m*3 31.4 C 0 km/h
2588 16-07-2010 13:53:04 30.9 C 6.37 g/m*3 30.9 C 0 km/h
2589 16-07-2010 14:05:04 31.1 C 6.43 g/m*3 31.1 C 0 km/h
2590 16-07-2010 14:17:04 30.7 C 6.3 g/m*3 30.7 C 0 km/h
2591 16-07-2010 14:29:04 31.1 C 6.43 g/m*3 31.1 C 0 km/h
2592 16-07-2010 14:41:04 31.2 C 6.47 g/m*3 31.2 C 0 km/h
2593 16-07-2010 14:53:04 31.2 C 6.47 g/m*3 31.2 C 0 km/h
2594 16-07-2010 15:05:04 31.5 C 6.57 g/m*3 31.5 C 0 km/h
2595 16-07-2010 15:17:04 31.5 C 6.57 g/m*3 31.5 C 0 km/h
2596 16-07-2010 15:29:04 31.9 C 6.72 g/m*3 31.9 C 0 km/h
2597 16-07-2010 15:41:04 32.1 C 6.79 g/m*3 32.1 C 0 km/h
2598 16-07-2010 15:53:04 32.3 C 6.86 g/m*3 32.3 C 0 km/h
2599 16-07-2010 16:05:04 32.4 C 6.9 g/m*3 32.4 C 0 km/h
2600 16-07-2010 16:17:04 32.3 C 6.86 g/m*3 32.3 C 0 km/h
Sensor: Nr:Datum:Temp:Abs-Feuchte:Windchill:Wind:
Aussen-T/F 2601 16-07-2010 16:29:04 32.6 C 6.97 g/m*3 32.6 C 0 km/h
2602 16-07-2010 16:41:04 32.4 C 6.9 g/m*3 32.4 C 0 km/h
2603 16-07-2010 16:53:05 32.5 C 6.93 g/m*3 32.5 C 0 km/h
2604 16-07-2010 17:05:05 32.5 C 6.93 g/m*3 32.5 C 0 km/h
2605 16-07-2010 17:17:05 32.5 C 6.93 g/m*3 32.5 C 0 km/h
2606 16-07-2010 17:29:05 32.5 C 6.93 g/m*3 32.5 C 0 km/h
2607 16-07-2010 17:41:05 32.8 C 7.04 g/m*3 32.8 C 0 km/h
2608 16-07-2010 17:53:05 32.5 C 6.93 g/m*3 32.5 C 0 km/h
2609 16-07-2010 18:05:05 32.8 C 7.04 g/m*3 32.8 C 0 km/h
2610 16-07-2010 18:17:05 32.7 C 7.01 g/m*3 32.7 C 0 km/h
2611 16-07-2010 18:29:05 32.7 C 7.01 g/m*3 32.7 C 0 km/h
2612 16-07-2010 18:41:05 32.7 C 7.01 g/m*3 32.7 C 0 km/h
2613 16-07-2010 18:53:05 32.7 C 7.01 g/m*3 32.7 C 0 km/h
2614 16-07-2010 19:05:05 32 C 6.75 g/m*3 32 C 0 km/h
2615 16-07-2010 19:17:05 31.7 C 6.64 g/m*3 31.7 C 0 km/h
2616 16-07-2010 19:29:05 31.3 C 6.5 g/m*3 31.3 C 0 km/h
2617 16-07-2010 19:41:05 30.8 C 6.33 g/m*3 30.8 C 0 km/h
2618 16-07-2010 19:53:05 30.4 C 6.51 g/m*3 30.4 C 0 km/h
2619 16-07-2010 20:05:05 30 C 6.67 g/m*3 30 C 0 km/h
2620 16-07-2010 20:17:05 29.6 C 7.42 g/m*3 29.6 C 0 km/h
2621 16-07-2010 20:29:05 29.1 C 7.22 g/m*3 29.1 C 0 km/h
2622 16-07-2010 20:41:05 29.2 C 7.26 g/m*3 29.2 C 0 km/h
2623 16-07-2010 20:53:05 29.1 C 7.51 g/m*3 29.1 C 0 km/h
2624 16-07-2010 21:05:06 28.9 C 7.43 g/m*3 28.9 C 0 km/h
2625 16-07-2010 21:17:06 28.8 C 7.39 g/m*3 28.8 C 0 km/h
Sensor: Nr:Datum:Temp:Abs-Feuchte:Windchill:Wind:
Aussen-T/F 2626 16-07-2010 21:29:06 28.4 C 7.51 g/m*3 28.4 C 0 km/h
2627 16-07-2010 21:41:06 28 C 7.34 g/m*3 28 C 0 km/h
2628 16-07-2010 21:53:06 27.4 C 7.63 g/m*3 27.4 C 0 km/h
2629 16-07-2010 22:05:06 27.2 C 7.81 g/m*3 27.2 C 0 km/h
2630 16-07-2010 22:17:06 26.8 C 7.64 g/m*3 26.8 C 0 km/h
2631 16-07-2010 22:29:01 26.3 C 7.43 g/m*3 26.3 C 0 km/h
2632 16-07-2010 22:41:01 25.8 C 7.7 g/m*3 25.8 C 0 km/h
2633 16-07-2010 22:53:01 25.8 C 7.94 g/m*3 25.8 C 0 km/h
2634 16-07-2010 23:05:01 25.9 C 8.23 g/m*3 25.9 C 0 km/h
2635 16-07-2010 23:17:02 25.8 C 8.43 g/m*3 25.8 C 0 km/h
2636 16-07-2010 23:29:02 25.6 C 8.33 g/m*3 25.6 C 0 km/h
2637 16-07-2010 23:41:01 25.5 C 8.52 g/m*3 25.5 C 0 km/h
2638 16-07-2010 23:53:03 25 C 8.75 g/m*3 25 C 0 km/h
2639 17-07-2010 00:06:04 24.5 C 8.28 g/m*3 24.5 C 0 km/h
2640 17-07-2010 00:18:04 23.8 C 8.6 g/m*3 23.8 C 0 km/h
2641 17-07-2010 00:30:04 23.5 C 8.88 g/m*3 23.5 C 0 km/h
2642 17-07-2010 00:42:04 22.5 C 10.19 g/m*3 22.5 C 0 km/h
2643 17-07-2010 00:54:04 22.2 C 9.42 g/m*3 22.2 C 0 km/h
2644 17-07-2010 01:06:04 22.3 C 9.87 g/m*3 22.3 C 0 km/h
2645 17-07-2010 01:18:04 21.4 C 11.25 g/m*3 21.4 C 0 km/h
2646 17-07-2010 01:30:04 19.9 C 11.68 g/m*3 19.9 C 0 km/h
2647 17-07-2010 01:42:04 19.8 C 11.44 g/m*3 19.8 C 0 km/h
2648 17-07-2010 01:54:04 20.1 C 11.47 g/m*3 20.1 C 0 km/h
2649 17-07-2010 02:06:04 20.3 C 11.43 g/m*3 20.3 C 0 km/h
2650 17-07-2010 02:18:04 20.3 C 11.08 g/m*3 20.3 C 0 km/h
Sensor: Nr:Datum:Temp:Abs-Feuchte:Windchill:Wind:
Aussen-T/F 2651 17-07-2010 02:30:04 20.1 C 10.95 g/m*3 20.1 C 0 km/h
2652 17-07-2010 02:42:04 20.1 C 10.95 g/m*3 20.1 C 0 km/h
2653 17-07-2010 02:54:04 20.1 C 11.13 g/m*3 20.1 C 0 km/h
2654 17-07-2010 03:06:04 20.1 C 11.3 g/m*3 20.1 C 0 km/h
2655 17-07-2010 03:18:04 19.8 C 11.96 g/m*3 19.8 C 0 km/h
2656 17-07-2010 03:30:04 19.7 C 11.89 g/m*3 19.7 C 0 km/h
2657 17-07-2010 03:42:04 20 C 11.92 g/m*3 20 C 0 km/h
2658 17-07-2010 03:54:04 19.8 C 12.3 g/m*3 19.8 C 0 km/h
2659 17-07-2010 04:06:05 19.7 C 11.89 g/m*3 19.7 C 0 km/h
2660 17-07-2010 04:18:05 19.9 C 11.85 g/m*3 19.9 C 0 km/h
2661 17-07-2010 04:30:05 19.2 C 12.37 g/m*3 19.2 C 0 km/h
2662 17-07-2010 04:42:05 18.7 C 13.13 g/m*3 18.7 C 0 km/h
2663 17-07-2010 04:54:05 18.3 C 13.13 g/m*3 18.3 C 0 km/h
2664 17-07-2010 05:06:05 18.4 C 13.37 g/m*3 18.4 C 0 km/h
2665 17-07-2010 05:18:05 18.3 C 13.45 g/m*3 18.3 C 0 km/h
2666 17-07-2010 05:30:05 18.1 C 13.29 g/m*3 18.1 C 0 km/h
2667 17-07-2010 05:42:05 17.9 C 13.44 g/m*3 17.9 C 0 km/h
2668 17-07-2010 05:54:05 17.7 C 13.28 g/m*3 17.7 C 0 km/h
2669 17-07-2010 06:06:05 17.6 C 13.2 g/m*3 17.6 C 0 km/h
2670 17-07-2010 06:18:05 17.5 C 13.12 g/m*3 17.5 C 0 km/h
2671 17-07-2010 06:30:05 17.7 C 13.43 g/m*3 17.7 C 0 km/h
2672 17-07-2010 06:42:05 17.8 C 13.51 g/m*3 17.8 C 0 km/h
2673 17-07-2010 06:54:05 17.8 C 13.66 g/m*3 17.8 C 0 km/h
2674 17-07-2010 07:06:05 17.8 C 13.66 g/m*3 17.8 C 0 km/h
2675 17-07-2010 07:18:05 17.8 C 13.66 g/m*3 17.8 C 0 km/h
Sensor: Nr:Datum:Temp:Abs-Feuchte:Windchill:Wind:
Aussen-T/F 2676 17-07-2010 07:30:05 17.9 C 13.59 g/m*3 17.9 C 0 km/h
2677 17-07-2010 07:42:05 18 C 13.36 g/m*3 18 C 0 km/h
2678 17-07-2010 07:54:05 17.9 C 13.44 g/m*3 17.9 C 0 km/h
2679 17-07-2010 08:06:04 17.8 C 13.36 g/m*3 17.8 C 0 km/h
2680 17-07-2010 08:18:04 17.7 C 13.43 g/m*3 17.7 C 0 km/h
2681 17-07-2010 08:30:04 17.5 C 13.27 g/m*3 17.5 C 0 km/h
2682 17-07-2010 08:42:03 17.5 C 13.27 g/m*3 17.5 C 0 km/h
2683 17-07-2010 08:54:01 17.7 C 13.58 g/m*3 17.7 C 0 km/h
2684 17-07-2010 09:06:02 17.8 C 13.66 g/m*3 17.8 C 0 km/h
2685 17-07-2010 09:18:03 18.1 C 13.75 g/m*3 18.1 C 0 km/h
2686 17-07-2010 09:30:03 18.8 C 13.85 g/m*3 18.8 C 0 km/h
2687 17-07-2010 09:42:02 18.9 C 13.28 g/m*3 18.9 C 0 km/h
2688 17-07-2010 09:54:02 19.1 C 12.95 g/m*3 19.1 C 0 km/h
2689 17-07-2010 10:06:01 19 C 12.71 g/m*3 19 C 0 km/h
2690 17-07-2010 10:18:02 19.2 C 12.53 g/m*3 19.2 C 0 km/h
2691 17-07-2010 10:30:03 19.7 C 12.74 g/m*3 19.7 C 0 km/h
2692 17-07-2010 10:42:01 20 C 12.44 g/m*3 20 C 0 km/h
2693 17-07-2010 10:54:02 20.1 C 12.34 g/m*3 20.1 C 0 km/h
2694 17-07-2010 11:06:01 21 C 12.46 g/m*3 21 C 0 km/h
2695 17-07-2010 11:18:02 21.2 C 11.86 g/m*3 21.2 C 0 km/h
2696 17-07-2010 11:30:02 21.8 C 11.13 g/m*3 21.8 C 0 km/h
2697 17-07-2010 11:42:02 23.3 C 11.08 g/m*3 23.3 C 0 km/h
2698 17-07-2010 11:54:02 23.7 C 10.69 g/m*3 23.7 C 0 km/h
2699 17-07-2010 12:06:01 23.7 C 10.27 g/m*3 23.7 C 0 km/h
2700 17-07-2010 12:18:02 23.7 C 9.84 g/m*3 23.7 C 0 km/h
Sensor: Nr:Datum:Temp:Abs-Feuchte:Windchill:Wind:
Aussen-T/F 2701 17-07-2010 12:30:02 24.6 C 8.55 g/m*3 24.6 C 0 km/h
2702 17-07-2010 12:42:02 25.3 C 8.66 g/m*3 25.3 C 0 km/h
2703 17-07-2010 12:54:01 26 C 7.79 g/m*3 26 C 0 km/h
2704 17-07-2010 13:06:02 26.5 C 8.01 g/m*3 26.5 C 0 km/h
2705 17-07-2010 13:18:01 25 C 7.37 g/m*3 25 C 0 km/h
2706 17-07-2010 13:30:01 26.3 C 7.67 g/m*3 26.3 C 0 km/h
2707 17-07-2010 13:42:02 25.7 C 7.66 g/m*3 25.7 C 0 km/h
2708 17-07-2010 13:54:02 26.6 C 7.05 g/m*3 26.6 C 0 km/h
2709 17-07-2010 14:06:02 26 C 7.55 g/m*3 26 C 0 km/h
2710 17-07-2010 14:18:02 25.9 C 7.51 g/m*3 25.9 C 0 km/h
2711 17-07-2010 14:30:02 26.3 C 7.43 g/m*3 26.3 C 0 km/h
2712 17-07-2010 14:42:02 26 C 6.82 g/m*3 26 C 0 km/h
2713 17-07-2010 14:54:01 26.5 C 7.01 g/m*3 26.5 C 0 km/h
2714 17-07-2010 15:06:02 27 C 6.69 g/m*3 27 C 0 km/h
2715 17-07-2010 15:18:01 27.5 C 6.35 g/m*3 27.5 C 0 km/h
2716 17-07-2010 15:30:01 27.3 C 6.54 g/m*3 27.3 C 0 km/h
2717 17-07-2010 15:42:02 27.5 C 6.61 g/m*3 27.5 C 0 km/h
2718 17-07-2010 15:54:01 26.6 C 6.29 g/m*3 26.6 C 0 km/h
2719 17-07-2010 16:06:02 27.3 C 6.54 g/m*3 27.3 C 0 km/h
2720 17-07-2010 16:18:02 26.4 C 6.22 g/m*3 26.4 C 0 km/h
2721 17-07-2010 16:30:02 26 C 5.84 g/m*3 26 C 0 km/h
2722 17-07-2010 16:42:02 26.9 C 5.89 g/m*3 26.9 C 0 km/h
2723 17-07-2010 16:54:02 27 C 5.92 g/m*3 27 C 0 km/h
2724 17-07-2010 17:06:02 26.6 C 6.29 g/m*3 26.6 C 0 km/h
2725 17-07-2010 17:18:03 25.7 C 7.42 g/m*3 25.7 C 0 km/h
Sensor: Nr:Datum:Temp:Abs-Feuchte:Windchill:Wind:
Aussen-T/F 2726 17-07-2010 17:30:03 26 C 7.79 g/m*3 26 C 0 km/h
2727 17-07-2010 17:42:02 26.1 C 7.59 g/m*3 26.1 C 0 km/h
2728 17-07-2010 17:54:02 24.6 C 7.88 g/m*3 24.6 C 0 km/h
2729 17-07-2010 18:06:01 24.2 C 7.7 g/m*3 24.2 C 0 km/h
2730 17-07-2010 18:18:02 23.7 C 7.7 g/m*3 23.7 C 0 km/h
2731 17-07-2010 18:30:02 24 C 7.61 g/m*3 24 C 0 km/h
2732 17-07-2010 18:42:01 24.1 C 7.44 g/m*3 24.1 C 0 km/h
2733 17-07-2010 18:54:02 24 C 7.4 g/m*3 24 C 0 km/h
2734 17-07-2010 19:06:02 24.6 C 7.43 g/m*3 24.6 C 0 km/h
2735 17-07-2010 19:18:02 24.6 C 7.2 g/m*3 24.6 C 0 km/h
2736 17-07-2010 19:30:03 24.2 C 7.26 g/m*3 24.2 C 0 km/h
2737 17-07-2010 19:42:02 23.8 C 7.1 g/m*3 23.8 C 0 km/h
2738 17-07-2010 19:54:02 23.6 C 6.59 g/m*3 23.6 C 0 km/h
2739 17-07-2010 20:06:02 23.7 C 6.84 g/m*3 23.7 C 0 km/h
2740 17-07-2010 20:18:02 24.7 C 6.11 g/m*3 24.7 C 0 km/h
2741 17-07-2010 20:30:02 25.4 C 5.41 g/m*3 25.4 C 0 km/h
2742 17-07-2010 20:42:03 24.7 C 5.21 g/m*3 24.7 C 0 km/h
2743 17-07-2010 20:54:02 23.8 C 5.38 g/m*3 23.8 C 0 km/h
2744 17-07-2010 21:06:01 22.9 C 5.72 g/m*3 22.9 C 0 km/h
2745 17-07-2010 21:18:02 22.4 C 5.96 g/m*3 22.4 C 0 km/h
2746 17-07-2010 21:30:02 22.1 C 6.44 g/m*3 22.1 C 0 km/h
2747 17-07-2010 21:42:02 22 C 6.21 g/m*3 22 C 0 km/h
2748 17-07-2010 21:54:01 21.9 C 6.37 g/m*3 21.9 C 0 km/h
2749 17-07-2010 22:06:02 21.6 C 6.26 g/m*3 21.6 C 0 km/h
2750 17-07-2010 22:18:01 21.7 C 6.49 g/m*3 21.7 C 0 km/h
Sensor: Nr:Datum:Temp:Abs-Feuchte:Windchill:Wind:
Aussen-T/F 2751 17-07-2010 22:30:01 21.6 C 6.26 g/m*3 21.6 C 0 km/h
2752 17-07-2010 22:42:02 21.3 C 6.15 g/m*3 21.3 C 0 km/h
2753 17-07-2010 22:54:02 21 C 6.23 g/m*3 21 C 0 km/h
2754 17-07-2010 23:06:02 20.4 C 6.19 g/m*3 20.4 C 0 km/h
2755 17-07-2010 23:18:02 20.3 C 6.16 g/m*3 20.3 C 0 km/h
2756 17-07-2010 23:30:02 20.2 C 6.12 g/m*3 20.2 C 0 km/h
2757 17-07-2010 23:42:02 19.9 C 6.01 g/m*3 19.9 C 0 km/h
2758 17-07-2010 23:54:01 19.8 C 6.15 g/m*3 19.8 C 0 km/h
2759 18-07-2010 00:06:02 19.3 C 5.97 g/m*3 19.3 C 0 km/h
2760 18-07-2010 00:18:02 19 C 5.87 g/m*3 19 C 0 km/h
2761 18-07-2010 00:30:02 18.6 C 6.21 g/m*3 18.6 C 0 km/h
2762 18-07-2010 00:42:01 18.3 C 6.1 g/m*3 18.3 C 0 km/h
2763 18-07-2010 00:54:02 18 C 6.14 g/m*3 18 C 0 km/h
2764 18-07-2010 01:06:01 17.7 C 6.19 g/m*3 17.7 C 0 km/h
2765 18-07-2010 01:18:02 17.4 C 6.22 g/m*3 17.4 C 0 km/h
2766 18-07-2010 01:30:02 17.2 C 6.3 g/m*3 17.2 C 0 km/h
2767 18-07-2010 01:42:01 16.8 C 6.43 g/m*3 16.8 C 0 km/h
2768 18-07-2010 01:54:03 16.7 C 6.54 g/m*3 16.7 C 0 km/h
2769 18-07-2010 02:06:02 16.5 C 6.6 g/m*3 16.5 C 0 km/h
2770 18-07-2010 02:18:02 16.3 C 6.38 g/m*3 16.3 C 0 km/h
2771 18-07-2010 02:30:02 16 C 6.95 g/m*3 16 C 0 km/h
2772 18-07-2010 02:42:02 15.6 C 7.18 g/m*3 15.6 C 0 km/h
2773 18-07-2010 02:55:04 15.4 C 7.23 g/m*3 15.4 C 0 km/h
2774 18-07-2010 03:07:04 15.2 C 7.14 g/m*3 15.2 C 0 km/h
2775 18-07-2010 03:19:04 15 C 6.92 g/m*3 15 C 0 km/h
Sensor: Nr:Datum:Temp:Abs-Feuchte:Windchill:Wind:
Aussen-T/F 2776 18-07-2010 03:31:02 14.8 C 7.22 g/m*3 14.8 C 0 km/h
2777 18-07-2010 03:43:02 14.6 C 7.26 g/m*3 14.6 C 0 km/h
2778 18-07-2010 03:55:02 14.4 C 7.17 g/m*3 14.4 C 0 km/h
2779 18-07-2010 04:07:02 14.1 C 7.28 g/m*3 14.1 C 0 km/h
2780 18-07-2010 04:19:01 14.1 C 7.52 g/m*3 14.1 C 0 km/h
2781 18-07-2010 04:31:02 14 C 7.48 g/m*3 14 C 0 km/h
2782 18-07-2010 04:43:02 13.7 C 7.46 g/m*3 13.7 C 0 km/h
2783 18-07-2010 04:55:02 13.6 C 7.65 g/m*3 13.6 C 0 km/h
2784 18-07-2010 05:07:02 13.4 C 7.9 g/m*3 13.4 C 0 km/h
2785 18-07-2010 05:19:01 13.1 C 7.76 g/m*3 13.1 C 0 km/h
2786 18-07-2010 05:31:02 13 C 7.71 g/m*3 13 C 0 km/h
2787 18-07-2010 05:43:02 12.8 C 7.84 g/m*3 12.8 C 0 km/h
2788 18-07-2010 05:55:02 12.7 C 7.9 g/m*3 12.7 C 0 km/h
2789 18-07-2010 06:07:02 12.6 C 8.08 g/m*3 12.6 C 0 km/h
2790 18-07-2010 06:19:02 12.5 C 8.03 g/m*3 12.5 C 0 km/h
2791 18-07-2010 06:31:02 12.5 C 8.03 g/m*3 12.5 C 0 km/h
2792 18-07-2010 06:43:02 12.6 C 8.19 g/m*3 12.6 C 0 km/h
2793 18-07-2010 06:55:02 12.6 C 8.19 g/m*3 12.6 C 0 km/h
2794 18-07-2010 07:07:02 12.7 C 8.13 g/m*3 12.7 C 0 km/h
2795 18-07-2010 07:19:02 12.8 C 8.06 g/m*3 12.8 C 0 km/h
2796 18-07-2010 07:31:01 12.9 C 8 g/m*3 12.9 C 0 km/h
2797 18-07-2010 07:43:01 13.1 C 7.99 g/m*3 13.1 C 0 km/h
2798 18-07-2010 07:55:02 13.3 C 8.09 g/m*3 13.3 C 0 km/h
2799 18-07-2010 08:07:01 13.8 C 8.22 g/m*3 13.8 C 0 km/h
2800 18-07-2010 08:19:01 14.1 C 8.01 g/m*3 14.1 C 0 km/h
Sensor: Nr:Datum:Temp:Abs-Feuchte:Windchill:Wind:
Aussen-T/F 2801 18-07-2010 08:31:01 14.4 C 8.16 g/m*3 14.4 C 0 km/h
2802 18-07-2010 08:43:01 15 C 7.44 g/m*3 15 C 0 km/h
2803 18-07-2010 08:55:02 15.4 C 7.62 g/m*3 15.4 C 0 km/h
2804 18-07-2010 09:07:01 15.9 C 7.58 g/m*3 15.9 C 0 km/h
2805 18-07-2010 09:19:02 16.5 C 7.58 g/m*3 16.5 C 0 km/h
2806 18-07-2010 09:31:02 17.1 C 7.57 g/m*3 17.1 C 0 km/h
2807 18-07-2010 09:43:02 17.8 C 7.89 g/m*3 17.8 C 0 km/h
2808 18-07-2010 09:55:02 18.5 C 7.75 g/m*3 18.5 C 0 km/h
2809 18-07-2010 10:07:02 19 C 7.5 g/m*3 19 C 0 km/h
2810 18-07-2010 10:19:02 19.7 C 7.47 g/m*3 19.7 C 0 km/h
2811 18-07-2010 10:31:02 20.1 C 7.3 g/m*3 20.1 C 0 km/h
2812 18-07-2010 10:43:02 20.8 C 7.24 g/m*3 20.8 C 0 km/h
2813 18-07-2010 10:55:02 21.3 C 5.78 g/m*3 21.3 C 0 km/h
2814 18-07-2010 11:07:01 20.8 C 5.61 g/m*3 20.8 C 0 km/h
2815 18-07-2010 11:19:02 21.6 C 5.69 g/m*3 21.6 C 0 km/h
2816 18-07-2010 11:31:02 21.7 C 5.72 g/m*3 21.7 C 0 km/h
2817 18-07-2010 11:43:02 22.7 C 6.06 g/m*3 22.7 C 0 km/h
2818 18-07-2010 11:55:02 23.8 C 5.59 g/m*3 23.8 C 0 km/h
2819 18-07-2010 12:07:01 24.3 C 5.53 g/m*3 24.3 C 0 km/h
2820 18-07-2010 12:19:02 25.3 C 4.68 g/m*3 25.3 C 0 km/h
2821 18-07-2010 12:31:02 25.3 C 4.68 g/m*3 25.3 C 0 km/h
2822 18-07-2010 12:43:02 26.1 C 4.9 g/m*3 26.1 C 0 km/h
2823 18-07-2010 12:55:02 24.8 C 4.55 g/m*3 24.8 C 0 km/h
2824 18-07-2010 13:07:03 25.8 C 4.82 g/m*3 25.8 C 0 km/h
2825 18-07-2010 13:19:02 27.6 C 5.32 g/m*3 27.6 C 0 km/h
Sensor: Nr:Datum:Temp:Abs-Feuchte:Windchill:Wind:
Aussen-T/F 2826 18-07-2010 13:31:02 28.3 C 5.53 g/m*3 28.3 C 0 km/h
2827 18-07-2010 13:43:03 28 C 5.44 g/m*3 28 C 0 km/h
2828 18-07-2010 13:55:01 28.4 C 5.56 g/m*3 28.4 C 0 km/h
2829 18-07-2010 14:07:02 27.7 C 5.35 g/m*3 27.7 C 0 km/h
2830 18-07-2010 14:19:01 27.1 C 5.18 g/m*3 27.1 C 0 km/h
2831 18-07-2010 14:31:01 27.9 C 5.41 g/m*3 27.9 C 0 km/h
2832 18-07-2010 14:43:01 26.7 C 5.06 g/m*3 26.7 C 0 km/h
2833 18-07-2010 14:55:01 27.3 C 5.23 g/m*3 27.3 C 0 km/h
2834 18-07-2010 15:07:02 28.1 C 5.47 g/m*3 28.1 C 0 km/h
2835 18-07-2010 15:19:01 29.4 C 5.87 g/m*3 29.4 C 0 km/h
2836 18-07-2010 15:31:01 30 C 6.06 g/m*3 30 C 0 km/h
2837 18-07-2010 15:43:01 30.1 C 6.1 g/m*3 30.1 C 0 km/h
2838 18-07-2010 15:55:01 30.3 C 6.16 g/m*3 30.3 C 0 km/h
2839 18-07-2010 16:07:01 30.6 C 6.26 g/m*3 30.6 C 0 km/h
2840 18-07-2010 16:19:02 30.7 C 6.3 g/m*3 30.7 C 0 km/h
2841 18-07-2010 16:31:01 31 C 6.4 g/m*3 31 C 0 km/h
2842 18-07-2010 16:43:01 30.8 C 6.33 g/m*3 30.8 C 0 km/h
2843 18-07-2010 16:55:01 30.7 C 6.3 g/m*3 30.7 C 0 km/h
2844 18-07-2010 17:07:01 30.9 C 6.37 g/m*3 30.9 C 0 km/h
2845 18-07-2010 17:19:02 30.4 C 6.2 g/m*3 30.4 C 0 km/h
2846 18-07-2010 17:31:01 31.4 C 6.54 g/m*3 31.4 C 0 km/h
2847 18-07-2010 17:43:01 31.8 C 6.68 g/m*3 31.8 C 0 km/h
2848 18-07-2010 17:55:02 31.8 C 6.68 g/m*3 31.8 C 0 km/h
2849 18-07-2010 18:07:02 31.3 C 6.5 g/m*3 31.3 C 0 km/h
2850 18-07-2010 18:19:02 31.3 C 6.5 g/m*3 31.3 C 0 km/h
Sensor: Nr:Datum:Temp:Abs-Feuchte:Windchill:Wind:
Aussen-T/F 2851 18-07-2010 18:31:02 31.1 C 6.43 g/m*3 31.1 C 0 km/h
2852 18-07-2010 18:43:02 31.1 C 6.43 g/m*3 31.1 C 0 km/h
2853 18-07-2010 18:55:02 31.5 C 6.57 g/m*3 31.5 C 0 km/h
2854 18-07-2010 19:07:01 31.2 C 6.47 g/m*3 31.2 C 0 km/h
2855 18-07-2010 19:19:02 30.7 C 6.3 g/m*3 30.7 C 0 km/h
2856 18-07-2010 19:31:02 30 C 6.06 g/m*3 30 C 0 km/h
2857 18-07-2010 19:43:02 30.1 C 6.1 g/m*3 30.1 C 0 km/h
2858 18-07-2010 19:55:01 30.4 C 6.2 g/m*3 30.4 C 0 km/h
2859 18-07-2010 20:07:01 30.2 C 6.13 g/m*3 30.2 C 0 km/h
2860 18-07-2010 20:19:01 29.8 C 6 g/m*3 29.8 C 0 km/h
2861 18-07-2010 20:31:02 29.1 C 5.78 g/m*3 29.1 C 0 km/h
2862 18-07-2010 20:43:02 28.8 C 5.68 g/m*3 28.8 C 0 km/h
2863 18-07-2010 20:55:02 27.6 C 5.32 g/m*3 27.6 C 0 km/h
2864 18-07-2010 21:07:02 25.9 C 5.08 g/m*3 25.9 C 0 km/h
2865 18-07-2010 21:19:02 24.8 C 5.24 g/m*3 24.8 C 0 km/h
2866 18-07-2010 21:31:02 23.9 C 5.41 g/m*3 23.9 C 0 km/h
2867 18-07-2010 21:43:02 23.3 C 5.44 g/m*3 23.3 C 0 km/h
2868 18-07-2010 21:55:02 22.7 C 5.66 g/m*3 22.7 C 0 km/h
2869 18-07-2010 22:08:02 22.2 C 5.89 g/m*3 22.2 C 0 km/h
2870 18-07-2010 22:20:02 21.9 C 5.79 g/m*3 21.9 C 0 km/h
2871 18-07-2010 22:32:02 21.8 C 5.95 g/m*3 21.8 C 0 km/h
2872 18-07-2010 22:44:02 21.5 C 5.85 g/m*3 21.5 C 0 km/h
2873 18-07-2010 22:56:02 21.2 C 6.12 g/m*3 21.2 C 0 km/h
2874 18-07-2010 23:08:02 21 C 6.05 g/m*3 21 C 0 km/h
2875 18-07-2010 23:20:02 20.6 C 6.26 g/m*3 20.6 C 0 km/h
Sensor: Nr:Datum:Temp:Abs-Feuchte:Windchill:Wind:
Aussen-T/F 2876 18-07-2010 23:32:02 20.3 C 6.16 g/m*3 20.3 C 0 km/h
2877 18-07-2010 23:44:02 20.1 C 6.43 g/m*3 20.1 C 0 km/h
2878 18-07-2010 23:56:02 19.7 C 6.45 g/m*3 19.7 C 0 km/h
2879 19-07-2010 00:08:02 19.5 C 6.38 g/m*3 19.5 C 0 km/h
2880 19-07-2010 00:20:02 19.2 C 6.27 g/m*3 19.2 C 0 km/h
2881 19-07-2010 00:32:02 18.8 C 6.28 g/m*3 18.8 C 0 km/h
2882 19-07-2010 00:44:03 18.6 C 6.37 g/m*3 18.6 C 0 km/h
2883 19-07-2010 00:56:03 18.5 C 6.49 g/m*3 18.5 C 0 km/h
2884 19-07-2010 01:08:03 18.2 C 6.53 g/m*3 18.2 C 0 km/h
2885 19-07-2010 01:20:03 17.9 C 6.57 g/m*3 17.9 C 0 km/h
2886 19-07-2010 01:32:03 17.7 C 6.64 g/m*3 17.7 C 0 km/h
2887 19-07-2010 01:44:03 17.5 C 6.71 g/m*3 17.5 C 0 km/h
2888 19-07-2010 01:56:03 17.1 C 6.84 g/m*3 17.1 C 0 km/h
2889 19-07-2010 02:08:03 16.8 C 6.86 g/m*3 16.8 C 0 km/h
2890 19-07-2010 02:20:03 16.7 C 7.11 g/m*3 16.7 C 0 km/h
2891 19-07-2010 02:32:03 16.5 C 6.88 g/m*3 16.5 C 0 km/h
2892 19-07-2010 02:44:04 16.3 C 6.66 g/m*3 16.3 C 0 km/h
2893 19-07-2010 02:56:04 16 C 6.81 g/m*3 16 C 0 km/h
2894 19-07-2010 03:08:04 15.8 C 7 g/m*3 15.8 C 0 km/h
2895 19-07-2010 03:20:04 15.7 C 6.96 g/m*3 15.7 C 0 km/h
2896 19-07-2010 03:32:04 15.5 C 7.14 g/m*3 15.5 C 0 km/h
2897 19-07-2010 03:44:04 15.3 C 7.31 g/m*3 15.3 C 0 km/h
2898 19-07-2010 03:56:04 15.1 C 7.1 g/m*3 15.1 C 0 km/h
2899 19-07-2010 04:08:04 14.9 C 7.14 g/m*3 14.9 C 0 km/h
2900 19-07-2010 04:20:04 14.7 C 7.18 g/m*3 14.7 C 0 km/h
Sensor: Nr:Datum:Temp:Abs-Feuchte:Windchill:Wind:
Aussen-T/F 2901 19-07-2010 04:32:04 14.6 C 7.38 g/m*3 14.6 C 0 km/h
2902 19-07-2010 04:44:04 14.7 C 7.43 g/m*3 14.7 C 0 km/h
2903 19-07-2010 04:56:04 14.2 C 7.45 g/m*3 14.2 C 0 km/h
2904 19-07-2010 05:08:04 14.1 C 7.28 g/m*3 14.1 C 0 km/h
2905 19-07-2010 05:20:04 13.9 C 7.55 g/m*3 13.9 C 0 km/h
2906 19-07-2010 05:32:04 13.8 C 7.63 g/m*3 13.8 C 0 km/h
2907 19-07-2010 05:44:04 13.6 C 7.53 g/m*3 13.6 C 0 km/h
2908 19-07-2010 05:56:04 13.6 C 7.53 g/m*3 13.6 C 0 km/h
2909 19-07-2010 06:08:04 13.6 C 7.53 g/m*3 13.6 C 0 km/h
2910 19-07-2010 06:20:04 13.5 C 7.6 g/m*3 13.5 C 0 km/h
2911 19-07-2010 06:32:04 13.7 C 7.93 g/m*3 13.7 C 0 km/h
2912 19-07-2010 06:44:05 13.5 C 8.07 g/m*3 13.5 C 0 km/h
2913 19-07-2010 06:56:02 13.6 C 8.24 g/m*3 13.6 C 0 km/h
2914 19-07-2010 07:08:02 13.7 C 8.29 g/m*3 13.7 C 0 km/h
2915 19-07-2010 07:20:02 13.8 C 8.22 g/m*3 13.8 C 0 km/h
2916 19-07-2010 07:32:01 14 C 8.2 g/m*3 14 C 0 km/h
2917 19-07-2010 07:44:01 14.2 C 8.18 g/m*3 14.2 C 0 km/h
2918 19-07-2010 07:56:02 14.4 C 8.16 g/m*3 14.4 C 0 km/h
2919 19-07-2010 08:08:01 14.5 C 8.21 g/m*3 14.5 C 0 km/h
2920 19-07-2010 08:20:02 14.8 C 8.23 g/m*3 14.8 C 0 km/h
2921 19-07-2010 08:32:02 15.2 C 8.18 g/m*3 15.2 C 0 km/h
2922 19-07-2010 08:44:02 15.7 C 8.3 g/m*3 15.7 C 0 km/h
2923 19-07-2010 08:56:02 16.3 C 8.46 g/m*3 16.3 C 0 km/h
2924 19-07-2010 09:08:02 16.9 C 8.63 g/m*3 16.9 C 0 km/h
2925 19-07-2010 09:20:02 17.7 C 8.6 g/m*3 17.7 C 0 km/h
Sensor: Nr:Datum:Temp:Abs-Feuchte:Windchill:Wind:
Aussen-T/F 2926 19-07-2010 09:32:02 18.4 C 8.49 g/m*3 18.4 C 0 km/h
2927 19-07-2010 09:44:02 19.4 C 8.51 g/m*3 19.4 C 0 km/h
2928 19-07-2010 09:56:02 20.2 C 8.39 g/m*3 20.2 C 0 km/h
2929 19-07-2010 10:08:02 20.8 C 8.33 g/m*3 20.8 C 0 km/h
2930 19-07-2010 10:20:01 21.7 C 8.39 g/m*3 21.7 C 0 km/h
2931 19-07-2010 10:32:02 22.6 C 8.24 g/m*3 22.6 C 0 km/h
2932 19-07-2010 10:44:03 23.3 C 7.74 g/m*3 23.3 C 0 km/h
2933 19-07-2010 10:56:02 23.9 C 7.14 g/m*3 23.9 C 0 km/h
2934 19-07-2010 11:08:02 24.7 C 7.02 g/m*3 24.7 C 0 km/h
2935 19-07-2010 11:20:02 25.2 C 6.98 g/m*3 25.2 C 0 km/h
2936 19-07-2010 11:32:02 25.9 C 6.29 g/m*3 25.9 C 0 km/h
2937 19-07-2010 11:44:02 26.5 C 6.51 g/m*3 26.5 C 0 km/h
2938 19-07-2010 11:56:02 26.6 C 5.79 g/m*3 26.6 C 0 km/h
2939 19-07-2010 12:08:02 27.1 C 5.69 g/m*3 27.1 C 0 km/h
2940 19-07-2010 12:20:02 28.2 C 5.5 g/m*3 28.2 C 0 km/h
2941 19-07-2010 12:32:02 28.9 C 5.71 g/m*3 28.9 C 0 km/h
2942 19-07-2010 12:44:02 29.7 C 5.97 g/m*3 29.7 C 0 km/h
2943 19-07-2010 12:56:02 30.2 C 6.13 g/m*3 30.2 C 0 km/h
2944 19-07-2010 13:08:02 30.4 C 6.2 g/m*3 30.4 C 0 km/h
2945 19-07-2010 13:20:03 31.2 C 6.47 g/m*3 31.2 C 0 km/h
2946 19-07-2010 13:32:02 31.6 C 6.61 g/m*3 31.6 C 0 km/h
2947 19-07-2010 13:44:02 31.5 C 6.57 g/m*3 31.5 C 0 km/h
2948 19-07-2010 13:56:03 31.3 C 6.5 g/m*3 31.3 C 0 km/h
2949 19-07-2010 14:08:02 30.9 C 6.37 g/m*3 30.9 C 0 km/h
2950 19-07-2010 14:20:03 30.8 C 6.33 g/m*3 30.8 C 0 km/h
Sensor: Nr:Datum:Temp:Abs-Feuchte:Windchill:Wind:
Aussen-T/F 2951 19-07-2010 14:32:02 31 C 6.4 g/m*3 31 C 0 km/h
2952 19-07-2010 14:44:02 30.6 C 6.26 g/m*3 30.6 C 0 km/h
2953 19-07-2010 14:56:02 30.9 C 6.37 g/m*3 30.9 C 0 km/h
2954 19-07-2010 15:08:02 30.6 C 6.26 g/m*3 30.6 C 0 km/h
2955 19-07-2010 15:20:02 31.4 C 6.54 g/m*3 31.4 C 0 km/h
2956 19-07-2010 15:32:02 31.9 C 6.72 g/m*3 31.9 C 0 km/h
2957 19-07-2010 15:44:02 32.2 C 6.82 g/m*3 32.2 C 0 km/h
2958 19-07-2010 15:56:02 32.4 C 6.9 g/m*3 32.4 C 0 km/h
2959 19-07-2010 16:08:02 32.5 C 6.93 g/m*3 32.5 C 0 km/h
2960 19-07-2010 16:20:02 32.8 C 7.04 g/m*3 32.8 C 0 km/h
2961 19-07-2010 16:32:02 32.9 C 7.08 g/m*3 32.9 C 0 km/h
2962 19-07-2010 16:44:02 32.8 C 7.04 g/m*3 32.8 C 0 km/h
2963 19-07-2010 16:56:02 33.1 C 7.16 g/m*3 33.1 C 0 km/h
2964 19-07-2010 17:08:01 33.3 C 7.23 g/m*3 33.3 C 0 km/h
2965 19-07-2010 17:20:01 33.6 C 7.35 g/m*3 33.6 C 0 km/h
2966 19-07-2010 17:32:02 33.5 C 7.31 g/m*3 33.5 C 0 km/h
2967 19-07-2010 17:44:02 33.7 C 7.39 g/m*3 33.7 C 0 km/h
2968 19-07-2010 17:56:02 33.8 C 7.43 g/m*3 33.8 C 0 km/h
2969 19-07-2010 18:08:02 33.7 C 7.39 g/m*3 33.7 C 0 km/h
2970 19-07-2010 18:20:02 33.5 C 7.31 g/m*3 33.5 C 0 km/h
2971 19-07-2010 18:32:02 33.6 C 7.35 g/m*3 33.6 C 0 km/h
2972 19-07-2010 18:44:03 33.5 C 7.31 g/m*3 33.5 C 0 km/h
2973 19-07-2010 18:56:01 33.2 C 7.2 g/m*3 33.2 C 0 km/h
2974 19-07-2010 19:08:02 33.3 C 7.23 g/m*3 33.3 C 0 km/h
2975 19-07-2010 19:20:01 33 C 7.12 g/m*3 33 C 0 km/h
Sensor: Nr:Datum:Temp:Abs-Feuchte:Windchill:Wind:
Aussen-T/F 2976 19-07-2010 19:32:01 32.8 C 7.04 g/m*3 32.8 C 0 km/h
2977 19-07-2010 19:44:02 32.7 C 7.01 g/m*3 32.7 C 0 km/h
2978 19-07-2010 19:56:02 32.4 C 6.9 g/m*3 32.4 C 0 km/h
2979 19-07-2010 20:08:02 32 C 6.75 g/m*3 32 C 0 km/h
2980 19-07-2010 20:20:02 31.9 C 6.72 g/m*3 31.9 C 0 km/h
2981 19-07-2010 20:32:01 31.5 C 6.57 g/m*3 31.5 C 0 km/h
2982 19-07-2010 20:44:01 31.1 C 6.43 g/m*3 31.1 C 0 km/h
2983 19-07-2010 20:56:01 30.4 C 6.2 g/m*3 30.4 C 0 km/h
2984 19-07-2010 21:08:02 29.1 C 6.06 g/m*3 29.1 C 0 km/h
2985 19-07-2010 21:20:02 27.8 C 6.46 g/m*3 27.8 C 0 km/h
2986 19-07-2010 21:32:02 26.3 C 6.93 g/m*3 26.3 C 0 km/h
2987 19-07-2010 21:44:02 25.6 C 7.14 g/m*3 25.6 C 0 km/h
2988 19-07-2010 21:56:01 25.4 C 7.06 g/m*3 25.4 C 0 km/h
2989 19-07-2010 22:08:01 24.6 C 6.98 g/m*3 24.6 C 0 km/h
2990 19-07-2010 22:20:02 24.4 C 7.12 g/m*3 24.4 C 0 km/h
2991 19-07-2010 22:32:02 24 C 6.96 g/m*3 24 C 0 km/h
2992 19-07-2010 22:44:02 23.9 C 7.14 g/m*3 23.9 C 0 km/h
2993 19-07-2010 22:56:02 23.7 C 7.06 g/m*3 23.7 C 0 km/h
2994 19-07-2010 23:08:01 23.5 C 7.19 g/m*3 23.5 C 0 km/h
2995 19-07-2010 23:20:02 23.1 C 7.03 g/m*3 23.1 C 0 km/h
2996 19-07-2010 23:32:02 22.7 C 7.27 g/m*3 22.7 C 0 km/h
2997 19-07-2010 23:44:02 22.7 C 7.48 g/m*3 22.7 C 0 km/h
2998 19-07-2010 23:56:03 22.5 C 7.59 g/m*3 22.5 C 0 km/h
2999 20-07-2010 00:08:02 22.3 C 7.7 g/m*3 22.3 C 0 km/h
3000 20-07-2010 00:20:03 22 C 7.76 g/m*3 22 C 0 km/h
Sensor: Nr:Datum:Temp:Abs-Feuchte:Windchill:Wind:
Aussen-T/F 3001 20-07-2010 00:32:02 21.7 C 7.82 g/m*3 21.7 C 0 km/h
3002 20-07-2010 00:44:02 21.5 C 7.92 g/m*3 21.5 C 0 km/h
3003 20-07-2010 00:56:01 21.2 C 7.97 g/m*3 21.2 C 0 km/h
3004 20-07-2010 01:08:01 20.9 C 8.2 g/m*3 20.9 C 0 km/h
3005 20-07-2010 01:20:02 20.7 C 8.1 g/m*3 20.7 C 0 km/h
3006 20-07-2010 01:32:01 20.4 C 8.14 g/m*3 20.4 C 0 km/h
3007 20-07-2010 01:44:01 20.2 C 7.87 g/m*3 20.2 C 0 km/h
3008 20-07-2010 01:56:01 19.9 C 8.08 g/m*3 19.9 C 0 km/h
3009 20-07-2010 02:08:02 19.7 C 8.15 g/m*3 19.7 C 0 km/h
3010 20-07-2010 02:20:02 19.6 C 8.1 g/m*3 19.6 C 0 km/h
3011 20-07-2010 02:32:01 19.4 C 8.18 g/m*3 19.4 C 0 km/h
3012 20-07-2010 02:44:01 19.1 C 8.36 g/m*3 19.1 C 0 km/h
3013 20-07-2010 02:56:02 18.8 C 8.37 g/m*3 18.8 C 0 km/h
3014 20-07-2010 03:08:02 18.5 C 8.23 g/m*3 18.5 C 0 km/h
3015 20-07-2010 03:20:01 18.4 C 8.34 g/m*3 18.4 C 0 km/h
3016 20-07-2010 03:32:01 18.1 C 8.19 g/m*3 18.1 C 0 km/h
3017 20-07-2010 03:44:01 18.1 C 8.34 g/m*3 18.1 C 0 km/h
3018 20-07-2010 03:56:01 17.9 C 8.7 g/m*3 17.9 C 0 km/h
3019 20-07-2010 04:08:01 17.7 C 8.45 g/m*3 17.7 C 0 km/h
3020 20-07-2010 04:20:01 17.4 C 8.45 g/m*3 17.4 C 0 km/h
3021 20-07-2010 04:32:01 17.3 C 8.54 g/m*3 17.3 C 0 km/h
3022 20-07-2010 04:44:01 17 C 8.39 g/m*3 17 C 0 km/h
3023 20-07-2010 04:56:01 16.8 C 8.58 g/m*3 16.8 C 0 km/h
3024 20-07-2010 05:08:01 16.7 C 8.53 g/m*3 16.7 C 0 km/h
3025 20-07-2010 05:20:02 16.6 C 8.62 g/m*3 16.6 C 0 km/h
Sensor: Nr:Datum:Temp:Abs-Feuchte:Windchill:Wind:
Aussen-T/F 3026 20-07-2010 05:32:01 16.4 C 8.51 g/m*3 16.4 C 0 km/h
3027 20-07-2010 05:44:01 16.4 C 8.65 g/m*3 16.4 C 0 km/h
3028 20-07-2010 05:56:02 16.3 C 8.6 g/m*3 16.3 C 0 km/h
3029 20-07-2010 06:08:01 16.1 C 8.77 g/m*3 16.1 C 0 km/h
3030 20-07-2010 06:20:02 16 C 8.86 g/m*3 16 C 0 km/h
3031 20-07-2010 06:32:01 16.1 C 9.05 g/m*3 16.1 C 0 km/h
3032 20-07-2010 06:44:01 16.1 C 9.05 g/m*3 16.1 C 0 km/h
3033 20-07-2010 06:56:02 16.2 C 9.1 g/m*3 16.2 C 0 km/h
3034 20-07-2010 07:08:01 16.4 C 9.21 g/m*3 16.4 C 0 km/h
3035 20-07-2010 07:20:01 16.5 C 9.27 g/m*3 16.5 C 0 km/h
3036 20-07-2010 07:32:01 16.8 C 9.29 g/m*3 16.8 C 0 km/h
3037 20-07-2010 07:44:01 17.1 C 9.32 g/m*3 17.1 C 0 km/h
3038 20-07-2010 07:56:02 17.1 C 9.17 g/m*3 17.1 C 0 km/h
3039 20-07-2010 08:08:01 17.3 C 9.13 g/m*3 17.3 C 0 km/h
3040 20-07-2010 08:20:01 17.6 C 9.15 g/m*3 17.6 C 0 km/h
3041 20-07-2010 08:32:02 17.9 C 9.16 g/m*3 17.9 C 0 km/h
3042 20-07-2010 08:44:02 18.5 C 9.33 g/m*3 18.5 C 0 km/h
3043 20-07-2010 08:56:01 18.9 C 9.4 g/m*3 18.9 C 0 km/h
3044 20-07-2010 09:08:02 19.6 C 9.45 g/m*3 19.6 C 0 km/h
3045 20-07-2010 09:20:01 20.3 C 9.32 g/m*3 20.3 C 0 km/h
3046 20-07-2010 09:32:02 20.9 C 9.29 g/m*3 20.9 C 0 km/h
3047 20-07-2010 09:44:02 21.7 C 8.97 g/m*3 21.7 C 0 km/h
3048 20-07-2010 09:56:01 22.3 C 8.89 g/m*3 22.3 C 0 km/h
3049 20-07-2010 10:08:02 23.2 C 8.73 g/m*3 23.2 C 0 km/h
3050 20-07-2010 10:20:01 24.1 C 8.53 g/m*3 24.1 C 0 km/h
Sensor: Nr:Datum:Temp:Abs-Feuchte:Windchill:Wind:
Aussen-T/F 3051 20-07-2010 10:32:01 24.8 C 8.19 g/m*3 24.8 C 0 km/h
3052 20-07-2010 10:44:01 25.6 C 8.09 g/m*3 25.6 C 0 km/h
3053 20-07-2010 10:56:01 26.3 C 7.67 g/m*3 26.3 C 0 km/h
3054 20-07-2010 11:08:02 26.9 C 6.91 g/m*3 26.9 C 0 km/h
3055 20-07-2010 11:20:01 27.4 C 6.84 g/m*3 27.4 C 0 km/h
3056 20-07-2010 11:32:01 27.9 C 6.76 g/m*3 27.9 C 0 km/h
3057 20-07-2010 11:44:01 28.2 C 6.6 g/m*3 28.2 C 0 km/h
3058 20-07-2010 11:56:01 28.3 C 6.63 g/m*3 28.3 C 0 km/h
3059 20-07-2010 12:08:01 29 C 6.03 g/m*3 29 C 0 km/h
3060 20-07-2010 12:20:02 30 C 6.37 g/m*3 30 C 0 km/h
3061 20-07-2010 12:32:01 30.7 C 6.3 g/m*3 30.7 C 0 km/h
3062 20-07-2010 12:44:01 31 C 6.4 g/m*3 31 C 0 km/h
3063 20-07-2010 12:56:01 31.4 C 6.54 g/m*3 31.4 C 0 km/h
3064 20-07-2010 13:08:01 31.7 C 6.64 g/m*3 31.7 C 0 km/h
3065 20-07-2010 13:20:02 32.1 C 6.79 g/m*3 32.1 C 0 km/h
3066 20-07-2010 13:32:01 32.5 C 6.93 g/m*3 32.5 C 0 km/h
3067 20-07-2010 13:44:01 32.5 C 6.93 g/m*3 32.5 C 0 km/h
3068 20-07-2010 13:56:02 32.3 C 6.86 g/m*3 32.3 C 0 km/h
3069 20-07-2010 14:08:01 31.8 C 6.68 g/m*3 31.8 C 0 km/h
3070 20-07-2010 14:20:02 31.8 C 6.68 g/m*3 31.8 C 0 km/h
3071 20-07-2010 14:32:01 31.5 C 6.57 g/m*3 31.5 C 0 km/h
3072 20-07-2010 14:44:01 31.8 C 6.68 g/m*3 31.8 C 0 km/h
3073 20-07-2010 14:56:02 32 C 6.75 g/m*3 32 C 0 km/h
3074 20-07-2010 15:08:01 32 C 6.75 g/m*3 32 C 0 km/h
3075 20-07-2010 15:20:01 32.1 C 6.79 g/m*3 32.1 C 0 km/h
Sensor: Nr:Datum:Temp:Abs-Feuchte:Windchill:Wind:
Aussen-T/F 3076 20-07-2010 15:32:02 32.3 C 6.86 g/m*3 32.3 C 0 km/h
3077 20-07-2010 15:44:02 32.8 C 7.04 g/m*3 32.8 C 0 km/h
3078 20-07-2010 15:56:01 32.5 C 6.93 g/m*3 32.5 C 0 km/h
3079 20-07-2010 16:08:02 32.7 C 7.01 g/m*3 32.7 C 0 km/h
3080 20-07-2010 16:20:01 33.1 C 7.16 g/m*3 33.1 C 0 km/h
3081 20-07-2010 16:32:02 33 C 7.12 g/m*3 33 C 0 km/h
3082 20-07-2010 16:44:02 33 C 7.12 g/m*3 33 C 0 km/h
3083 20-07-2010 16:56:01 33.5 C 7.31 g/m*3 33.5 C 0 km/h
3084 20-07-2010 17:08:02 33.3 C 7.23 g/m*3 33.3 C 0 km/h
3085 20-07-2010 17:20:01 33.3 C 7.23 g/m*3 33.3 C 0 km/h
3086 20-07-2010 17:32:01 33.2 C 7.2 g/m*3 33.2 C 0 km/h
3087 20-07-2010 17:44:02 33.4 C 7.27 g/m*3 33.4 C 0 km/h
3088 20-07-2010 17:56:01 33.1 C 7.16 g/m*3 33.1 C 0 km/h
3089 20-07-2010 18:08:02 33.3 C 7.23 g/m*3 33.3 C 0 km/h
3090 20-07-2010 18:20:02 33.3 C 7.23 g/m*3 33.3 C 0 km/h
3091 20-07-2010 18:32:01 32.7 C 7.01 g/m*3 32.7 C 0 km/h
3092 20-07-2010 18:44:01 32.7 C 7.01 g/m*3 32.7 C 0 km/h
3093 20-07-2010 18:56:01 32.6 C 6.97 g/m*3 32.6 C 0 km/h
3094 20-07-2010 19:08:02 32.3 C 6.86 g/m*3 32.3 C 0 km/h
3095 20-07-2010 19:20:01 31.7 C 6.64 g/m*3 31.7 C 0 km/h
3096 20-07-2010 19:32:02 31.9 C 6.72 g/m*3 31.9 C 0 km/h
3097 20-07-2010 19:44:02 32.1 C 6.79 g/m*3 32.1 C 0 km/h
3098 20-07-2010 19:56:01 32.1 C 6.79 g/m*3 32.1 C 0 km/h
3099 20-07-2010 20:08:02 32 C 6.75 g/m*3 32 C 0 km/h
3100 20-07-2010 20:20:01 31.5 C 6.57 g/m*3 31.5 C 0 km/h
Sensor: Nr:Datum:Temp:Abs-Feuchte:Windchill:Wind:
Aussen-T/F 3101 20-07-2010 20:32:01 30.8 C 6.33 g/m*3 30.8 C 0 km/h
3102 20-07-2010 20:44:01 30 C 6.06 g/m*3 30 C 0 km/h
3103 20-07-2010 20:56:01 29.3 C 6.13 g/m*3 29.3 C 0 km/h
3104 20-07-2010 21:08:02 28.1 C 6.56 g/m*3 28.1 C 0 km/h
3105 20-07-2010 21:20:01 26.9 C 6.65 g/m*3 26.9 C 0 km/h
3106 20-07-2010 21:32:01 26.4 C 6.47 g/m*3 26.4 C 0 km/h
3107 20-07-2010 21:44:02 25.7 C 6.22 g/m*3 25.7 C 0 km/h
3108 20-07-2010 21:56:01 25.3 C 6.09 g/m*3 25.3 C 0 km/h
3109 20-07-2010 22:09:02 24.5 C 6.27 g/m*3 24.5 C 0 km/h
3110 20-07-2010 22:21:02 24.5 C 6.71 g/m*3 24.5 C 0 km/h
3111 20-07-2010 22:33:02 24.5 C 6.71 g/m*3 24.5 C 0 km/h
3112 20-07-2010 22:45:02 24.4 C 6.68 g/m*3 24.4 C 0 km/h
3113 20-07-2010 22:57:02 24.1 C 6.56 g/m*3 24.1 C 0 km/h
3114 20-07-2010 23:09:02 23.8 C 6.67 g/m*3 23.8 C 0 km/h
3115 20-07-2010 23:21:02 23.7 C 6.84 g/m*3 23.7 C 0 km/h
3116 20-07-2010 23:33:02 23.5 C 6.98 g/m*3 23.5 C 0 km/h
3117 20-07-2010 23:45:02 23.4 C 6.94 g/m*3 23.4 C 0 km/h
3118 20-07-2010 23:57:02 23 C 7.19 g/m*3 23 C 0 km/h
3119 21-07-2010 00:09:02 22.5 C 7.39 g/m*3 22.5 C 0 km/h
3120 21-07-2010 00:21:02 22.3 C 7.5 g/m*3 22.3 C 0 km/h
3121 21-07-2010 00:33:02 21.9 C 7.72 g/m*3 21.9 C 0 km/h
3122 21-07-2010 00:45:02 21.7 C 7.63 g/m*3 21.7 C 0 km/h
3123 21-07-2010 00:57:02 21.5 C 7.73 g/m*3 21.5 C 0 km/h
3124 21-07-2010 01:09:03 21.3 C 7.83 g/m*3 21.3 C 0 km/h
3125 21-07-2010 01:21:03 21.1 C 7.92 g/m*3 21.1 C 0 km/h
Sensor: Nr:Datum:Temp:Abs-Feuchte:Windchill:Wind:
Aussen-T/F 3126 21-07-2010 01:33:03 20.9 C 8.01 g/m*3 20.9 C 0 km/h
3127 21-07-2010 01:45:03 20.6 C 8.05 g/m*3 20.6 C 0 km/h
3128 21-07-2010 01:57:03 20.4 C 8.31 g/m*3 20.4 C 0 km/h
3129 21-07-2010 02:09:03 20 C 8.12 g/m*3 20 C 0 km/h
3130 21-07-2010 02:21:03 20 C 8.3 g/m*3 20 C 0 km/h
3131 21-07-2010 02:33:03 19.7 C 8.49 g/m*3 19.7 C 0 km/h
3132 21-07-2010 02:45:03 19.4 C 8.34 g/m*3 19.4 C 0 km/h
3133 21-07-2010 02:57:03 19.3 C 8.29 g/m*3 19.3 C 0 km/h
3134 21-07-2010 03:09:03 19.2 C 8.41 g/m*3 19.2 C 0 km/h
3135 21-07-2010 03:21:03 19 C 8.31 g/m*3 19 C 0 km/h
3136 21-07-2010 03:33:03 18.7 C 8.33 g/m*3 18.7 C 0 km/h
3137 21-07-2010 03:45:03 18.6 C 8.44 g/m*3 18.6 C 0 km/h
3138 21-07-2010 03:57:03 18.4 C 8.49 g/m*3 18.4 C 0 km/h
3139 21-07-2010 04:09:03 18.4 C 8.49 g/m*3 18.4 C 0 km/h
3140 21-07-2010 04:21:03 18.3 C 8.44 g/m*3 18.3 C 0 km/h
3141 21-07-2010 04:33:03 18.1 C 8.65 g/m*3 18.1 C 0 km/h
3142 21-07-2010 04:45:03 17.9 C 8.7 g/m*3 17.9 C 0 km/h
3143 21-07-2010 04:57:03 17.7 C 8.6 g/m*3 17.7 C 0 km/h
3144 21-07-2010 05:09:03 17.6 C 8.55 g/m*3 17.6 C 0 km/h
3145 21-07-2010 05:21:04 17.4 C 8.6 g/m*3 17.4 C 0 km/h
3146 21-07-2010 05:33:04 17.4 C 8.74 g/m*3 17.4 C 0 km/h
3147 21-07-2010 05:45:04 17.2 C 8.93 g/m*3 17.2 C 0 km/h
3148 21-07-2010 05:57:04 17.3 C 8.99 g/m*3 17.3 C 0 km/h
3149 21-07-2010 06:09:04 17.1 C 8.88 g/m*3 17.1 C 0 km/h
3150 21-07-2010 06:21:04 17 C 8.68 g/m*3 17 C 0 km/h
Sensor: Nr:Datum:Temp:Abs-Feuchte:Windchill:Wind:
Aussen-T/F 3151 21-07-2010 06:33:04 17.1 C 8.88 g/m*3 17.1 C 0 km/h
3152 21-07-2010 06:45:04 17.2 C 8.93 g/m*3 17.2 C 0 km/h
3153 21-07-2010 06:57:04 17.4 C 9.19 g/m*3 17.4 C 0 km/h
3154 21-07-2010 07:09:02 17.4 C 9.19 g/m*3 17.4 C 0 km/h
3155 21-07-2010 07:21:01 17.6 C 9.45 g/m*3 17.6 C 0 km/h
3156 21-07-2010 07:33:02 17.7 C 9.35 g/m*3 17.7 C 0 km/h
3157 21-07-2010 07:45:02 18 C 9.22 g/m*3 18 C 0 km/h
3158 21-07-2010 07:57:02 18.3 C 9.38 g/m*3 18.3 C 0 km/h
3159 21-07-2010 08:09:02 18.5 C 9.18 g/m*3 18.5 C 0 km/h
3160 21-07-2010 08:21:01 18.8 C 9.18 g/m*3 18.8 C 0 km/h
3161 21-07-2010 08:33:02 19.2 C 9.07 g/m*3 19.2 C 0 km/h
3162 21-07-2010 08:45:01 19.4 C 9.01 g/m*3 19.4 C 0 km/h
3163 21-07-2010 08:57:01 20.1 C 8.87 g/m*3 20.1 C 0 km/h
3164 21-07-2010 09:09:02 20.6 C 9.31 g/m*3 20.6 C 0 km/h
3165 21-07-2010 09:21:02 21.4 C 9.37 g/m*3 21.4 C 0 km/h
3166 21-07-2010 09:33:02 22.4 C 9.53 g/m*3 22.4 C 0 km/h
3167 21-07-2010 09:45:01 23.3 C 9.41 g/m*3 23.3 C 0 km/h
3168 21-07-2010 09:57:01 23.9 C 9.3 g/m*3 23.9 C 0 km/h
3169 21-07-2010 10:09:02 24.7 C 9.28 g/m*3 24.7 C 0 km/h
3170 21-07-2010 10:21:02 25.7 C 9.1 g/m*3 25.7 C 0 km/h
3171 21-07-2010 10:33:01 26.6 C 8.56 g/m*3 26.6 C 0 km/h
3172 21-07-2010 10:45:02 27.3 C 8.11 g/m*3 27.3 C 0 km/h
3173 21-07-2010 10:57:02 28.4 C 7.78 g/m*3 28.4 C 0 km/h
3174 21-07-2010 11:09:01 28.9 C 7.43 g/m*3 28.9 C 0 km/h
3175 21-07-2010 11:21:02 29.3 C 7.3 g/m*3 29.3 C 0 km/h
Sensor: Nr:Datum:Temp:Abs-Feuchte:Windchill:Wind:
Aussen-T/F 3176 21-07-2010 11:33:01 29.7 C 7.46 g/m*3 29.7 C 0 km/h
3177 21-07-2010 11:45:02 30 C 7.58 g/m*3 30 C 0 km/h
3178 21-07-2010 11:57:02 30.4 C 7.13 g/m*3 30.4 C 0 km/h
3179 21-07-2010 12:09:02 30.7 C 6.61 g/m*3 30.7 C 0 km/h
3180 21-07-2010 12:21:02 31.2 C 6.47 g/m*3 31.2 C 0 km/h
3181 21-07-2010 12:33:02 31.6 C 6.61 g/m*3 31.6 C 0 km/h
3182 21-07-2010 12:45:02 31.6 C 6.61 g/m*3 31.6 C 0 km/h
3183 21-07-2010 12:57:02 31.7 C 6.64 g/m*3 31.7 C 0 km/h
3184 21-07-2010 13:09:01 32.1 C 6.79 g/m*3 32.1 C 0 km/h
3185 21-07-2010 13:21:02 32.5 C 6.93 g/m*3 32.5 C 0 km/h
3186 21-07-2010 13:33:02 32.6 C 6.97 g/m*3 32.6 C 0 km/h
3187 21-07-2010 13:45:02 32.6 C 6.97 g/m*3 32.6 C 0 km/h
3188 21-07-2010 13:57:02 32.8 C 7.04 g/m*3 32.8 C 0 km/h
3189 21-07-2010 14:09:02 32.6 C 6.97 g/m*3 32.6 C 0 km/h
3190 21-07-2010 14:21:02 32.4 C 6.9 g/m*3 32.4 C 0 km/h
3191 21-07-2010 14:33:02 32.5 C 6.93 g/m*3 32.5 C 0 km/h
3192 21-07-2010 14:45:01 32.6 C 6.97 g/m*3 32.6 C 0 km/h
3193 21-07-2010 14:57:01 32.8 C 7.04 g/m*3 32.8 C 0 km/h
3194 21-07-2010 15:09:02 32.6 C 6.97 g/m*3 32.6 C 0 km/h
3195 21-07-2010 15:21:01 32.6 C 6.97 g/m*3 32.6 C 0 km/h
3196 21-07-2010 15:33:01 32.4 C 6.9 g/m*3 32.4 C 0 km/h
3197 21-07-2010 15:45:01 32.8 C 7.04 g/m*3 32.8 C 0 km/h
3198 21-07-2010 15:57:01 32.4 C 6.9 g/m*3 32.4 C 0 km/h
3199 21-07-2010 16:09:02 32.3 C 6.86 g/m*3 32.3 C 0 km/h
3200 21-07-2010 16:21:01 32.3 C 6.86 g/m*3 32.3 C 0 km/h
Sensor: Nr:Datum:Temp:Abs-Feuchte:Windchill:Wind:
Aussen-T/F 3201 21-07-2010 16:33:02 32.3 C 6.86 g/m*3 32.3 C 0 km/h
3202 21-07-2010 16:45:02 32.8 C 7.04 g/m*3 32.8 C 0 km/h
3203 21-07-2010 16:57:02 32.5 C 6.93 g/m*3 32.5 C 0 km/h
3204 21-07-2010 17:09:02 32.1 C 6.79 g/m*3 32.1 C 0 km/h
3205 21-07-2010 17:21:02 31.9 C 6.72 g/m*3 31.9 C 0 km/h
3206 21-07-2010 17:33:02 31.7 C 6.64 g/m*3 31.7 C 0 km/h
3207 21-07-2010 17:45:02 31.1 C 6.76 g/m*3 31.1 C 0 km/h
3208 21-07-2010 17:57:02 30.7 C 6.93 g/m*3 30.7 C 0 km/h
3209 21-07-2010 18:09:02 30.4 C 7.13 g/m*3 30.4 C 0 km/h
3210 21-07-2010 18:21:02 30.3 C 7.4 g/m*3 30.3 C 0 km/h
3211 21-07-2010 18:33:02 30.3 C 7.4 g/m*3 30.3 C 0 km/h
3212 21-07-2010 18:45:02 30 C 7.28 g/m*3 30 C 0 km/h
3213 21-07-2010 18:57:02 29.6 C 7.42 g/m*3 29.6 C 0 km/h
3214 21-07-2010 19:09:02 29.5 C 7.67 g/m*3 29.5 C 0 km/h
3215 21-07-2010 19:21:02 29.4 C 7.63 g/m*3 29.4 C 0 km/h
3216 21-07-2010 19:33:02 28.9 C 7.71 g/m*3 28.9 C 0 km/h
3217 21-07-2010 19:45:01 28.5 C 7.83 g/m*3 28.5 C 0 km/h
3218 21-07-2010 19:57:01 27.3 C 9.16 g/m*3 27.3 C 0 km/h
3219 21-07-2010 20:09:02 23.7 C 11.55 g/m*3 23.7 C 0 km/h
3220 21-07-2010 20:21:01 23.4 C 12.41 g/m*3 23.4 C 0 km/h
3221 21-07-2010 20:33:01 23.7 C 12.62 g/m*3 23.7 C 0 km/h
3222 21-07-2010 20:45:01 23.9 C 12.33 g/m*3 23.9 C 0 km/h
3223 21-07-2010 20:57:01 23.2 C 11.85 g/m*3 23.2 C 0 km/h
3224 21-07-2010 21:09:01 23.3 C 11.71 g/m*3 23.3 C 0 km/h
3225 21-07-2010 21:21:02 23.1 C 11.78 g/m*3 23.1 C 0 km/h
Sensor: Nr:Datum:Temp:Abs-Feuchte:Windchill:Wind:
Aussen-T/F 3226 21-07-2010 21:33:01 22.6 C 12.05 g/m*3 22.6 C 0 km/h
3227 21-07-2010 21:45:01 23 C 11.92 g/m*3 23 C 0 km/h
3228 21-07-2010 21:57:01 23.1 C 11.78 g/m*3 23.1 C 0 km/h